ftp/pub/palmer/observations_modified/2019/May/original_files/AR190510_BASE.txt

Download

Sample DateTime	Unit Id	WS Avg 2min	WD Avg 2min	WGS 10min	WGD 10min	Air Temp	Rel Humidity	Dew Point	Pyranometer	Quantum	Air Pressure	Snow Level	Rainfall	PW Current	Visibility	CBase 1	CBase 2	CBase 3	Vert Vis
2019/05/10 00:00:00	BASE	10.95	348	13.32	347	-0.6	100	-0.6	0	0	981.7	NA	0.0000		9999	4130	0	0	0
2019/05/10 00:01:00	BASE	10.99	349	13.07	346	-0.6	100	-0.6	0	0	981.7	NA	0.0000		9999	4070	0	0	0
2019/05/10 00:02:00	BASE	11.15	349	13.07	346	-0.5	100	-0.5	0	0	981.7	NA	0.0000		9999	4170	0	0	0
2019/05/10 00:03:00	BASE	11.11	348	13.07	346	-0.5	100	-0.5	0	0	981.6	NA	0.0000		9999	4200	0	0	0
2019/05/10 00:04:01	BASE	11.54	351	13.07	346	-0.5	100	-0.5	0	0	981.6	NA	0.0000		9999	0	0	0	0
2019/05/10 00:05:00	BASE	11.94	354	13.12	7	-0.5	100	-0.5	0	0	981.6	NA	0.0000		9999	0	0	0	0
2019/05/10 00:06:00	BASE	12.17	352	13.17	353	-0.4	100	-0.4	0	0	981.6	NA	0.0000		9999	5250	0	0	0
2019/05/10 00:07:00	BASE	12.36	350	13.84	349	-0.4	100	-0.4	0	0	981.6	NA	0.0000		9999	5090	0	0	0
2019/05/10 00:08:00	BASE	12.58	349	13.84	349	-0.4	100	-0.4	0	0	981.6	NA	0.0000		9999	4920	0	0	0
2019/05/10 00:09:00	BASE	13.04	349	14.61	348	-0.3	100	-0.3	0	0	981.6	NA	0.0000		9999	4820	0	0	0
2019/05/10 00:10:00	BASE	12.88	349	15.43	348	-0.3	100	-0.3	0	0	981.6	NA	0.0000		9999	4860	0	0	0
2019/05/10 00:11:00	BASE	12.16	346	15.43	348	-0.3	100	-0.3	0	0	981.6	NA	0.0000		9999	4760	0	0	0
2019/05/10 00:12:00	BASE	11.72	344	15.43	348	-0.2	100	-0.2	0	0	981.6	NA	0.0000		9999	4790	0	0	0
2019/05/10 00:13:00	BASE	11.74	346	15.43	348	-0.2	100	-0.2	0	0	981.6	NA	0.0000		9999	4630	0	0	0
2019/05/10 00:14:01	BASE	12.58	346	15.43	348	-0.2	100	-0.2	0	0	981.6	NA	0.0000		9999	4590	0	0	0
2019/05/10 00:15:00	BASE	13.16	342	15.43	348	-0.2	100	-0.2	0	0	981.6	NA	0.0000		9999	4590	0	0	0
2019/05/10 00:16:00	BASE	13.54	339	15.43	348	-0.2	100	-0.2	0	0	981.6	NA	0.0000		9999	4630	0	0	0
2019/05/10 00:17:00	BASE	13.84	338	15.43	348	-0.2	100	-0.2	0	0	981.6	NA	0.0000		9999	4560	0	0	0
2019/05/10 00:18:00	BASE	13.32	338	15.43	348	-0.1	100	-0.1	0	0	981.6	NA	0.0000		9999	4460	0	0	0
2019/05/10 00:19:00	BASE	13.11	339	15.43	348	-0.1	100	-0.1	0	0	981.6	NA	0.0000		9999	4400	0	0	0
2019/05/10 00:20:00	BASE	13.39	341	15.43	344	-0.1	100	-0.1	0	0	981.6	NA	0.0000		9999	4490	0	0	0
2019/05/10 00:21:00	BASE	13.80	342	15.43	344	-0.1	100	-0.1	0	0	981.6	NA	0.0000		9999	4430	0	0	0
2019/05/10 00:22:00	BASE	13.77	343	15.43	344	-0.0	100	-0.0	0	0	981.6	NA	0.0000		9999	4360	0	0	0
2019/05/10 00:23:00	BASE	13.10	343	15.43	344	-0.0	100	-0.0	0	0	981.6	NA	0.0000		9999	4430	0	0	0
2019/05/10 00:24:00	BASE	13.04	342	15.43	344	-0.0	100	-0.0	0	0	981.6	NA	0.0000		9999	4330	0	0	0
2019/05/10 00:25:00	BASE	13.11	340	15.43	344	-0.1	100	-0.1	0	0	981.6	NA	0.0000		9999	4270	0	0	0
2019/05/10 00:26:00	BASE	12.64	340	15.43	344	-0.1	100	-0.1	0	0	981.6	NA	0.0000		9999	4230	0	0	0
2019/05/10 00:27:00	BASE	12.49	341	15.43	344	-0.1	100	-0.1	0	0	981.6	NA	0.0000		9999	4230	0	0	0
2019/05/10 00:28:00	BASE	12.54	342	15.43	344	-0.1	100	-0.1	0	0	981.6	NA	0.0000		9999	4200	0	0	0
2019/05/10 00:29:00	BASE	13.21	344	16.31	344	-0.1	100	-0.1	0	0	981.5	NA	0.0000		9999	4300	0	0	0
2019/05/10 00:30:00	BASE	13.97	344	16.31	344	-0.1	100	-0.1	0	0	981.5	NA	0.0000		9999	4360	0	0	0
2019/05/10 00:31:00	BASE	13.21	342	16.31	344	-0.1	100	-0.1	0	0	981.6	NA	0.0000		9999	4330	0	0	0
2019/05/10 00:32:00	BASE	13.65	341	16.31	344	-0.1	100	-0.1	0	0	981.5	NA	0.0000		9999	4230	0	0	0
2019/05/10 00:33:00	BASE	14.65	341	16.31	344	-0.1	100	-0.1	0	0	981.5	NA	0.0000		9999	4300	0	0	0
2019/05/10 00:34:00	BASE	13.12	343	16.31	344	-0.1	100	-0.1	0	0	981.6	NA	0.0000		9999	4330	0	0	0
2019/05/10 00:35:00	BASE	12.07	343	16.31	344	-0.1	100	-0.1	0	0	981.6	NA	0.0000		9999	4270	0	0	0
2019/05/10 00:36:00	BASE	11.98	342	16.31	344	-0.1	100	-0.1	0	0	981.6	NA	0.0000		9999	4270	0	0	0
2019/05/10 00:37:00	BASE	11.42	343	16.31	344	-0.1	100	-0.1	0	0	981.6	NA	0.0000		9999	4230	0	0	0
2019/05/10 00:38:00	BASE	11.73	347	16.31	344	-0.1	100	-0.1	0	0	981.6	NA	0.0000		9999	4130	0	0	0
2019/05/10 00:39:00	BASE	12.52	349	16.26	338	-0.1	100	-0.1	0	0	981.6	NA	0.0000		9999	4170	0	0	0
2019/05/10 00:40:00	BASE	13.13	348	16.26	338	-0.1	100	-0.1	0	0	981.6	NA	0.0000		9999	4100	0	0	0
2019/05/10 00:41:00	BASE	13.81	342	16.26	338	-0.0	100	-0.0	0	0	981.6	NA	0.0000		9999	4100	0	0	0
2019/05/10 00:42:00	BASE	13.92	344	15.64	340	-0.0	100	-0.0	0	0	981.6	NA	0.0000		9999	4000	0	0	0
2019/05/10 00:43:00	BASE	14.01	347	15.84	347	0.0	100	0.0	0	0	981.6	NA	0.0000		9999	4070	0	0	0
2019/05/10 00:44:00	BASE	14.09	345	16.15	352	0.0	100	0.0	0	0	981.6	NA	0.0000		9999	4130	0	0	0
2019/05/10 00:45:00	BASE	14.75	346	16.15	345	0.0	100	0.0	0	0	981.6	NA	0.0000		9999	4270	0	0	0
2019/05/10 00:46:00	BASE	15.00	348	16.15	345	0.0	100	0.0	0	0	981.6	NA	0.0000		9999	4400	0	0	0
2019/05/10 00:47:00	BASE	13.75	349	16.15	345	0.0	100	0.0	0	0	981.7	NA	0.0000		9999	4230	0	0	0
2019/05/10 00:48:00	BASE	13.13	349	16.15	345	0.1	100	0.1	0	0	981.7	NA	0.0000		9999	4130	0	0	0
2019/05/10 00:49:00	BASE	13.75	349	16.15	345	0.1	100	0.1	0	0	981.7	NA	0.0000		9999	4230	0	0	0
2019/05/10 00:50:00	BASE	14.46	348	16.51	346	0.1	100	0.1	0	0	981.7	NA	0.0000		9999	3940	0	0	0
2019/05/10 00:51:00	BASE	14.13	347	16.51	346	0.1	100	0.1	0	0	981.7	NA	0.0000		9999	3840	0	0	0
2019/05/10 00:52:00	BASE	13.46	348	16.51	346	0.1	100	0.1	0	0	981.7	NA	0.0000		9999	3900	0	0	0
2019/05/10 00:53:00	BASE	12.55	350	16.51	346	0.1	100	0.1	0	0	981.8	NA	0.0000		9999	3810	0	0	0
2019/05/10 00:54:00	BASE	12.39	351	16.51	346	0.2	100	0.2	0	0	981.8	NA	0.0000		9999	3870	0	0	0
2019/05/10 00:55:00	BASE	12.45	352	16.51	346	0.2	100	0.2	0	0	981.8	NA	0.0000		9999	4040	0	0	0
2019/05/10 00:56:00	BASE	12.57	354	16.51	346	0.2	100	0.2	0	0	981.8	NA	0.0000		9999	4040	0	0	0
2019/05/10 00:57:00	BASE	13.43	350	16.51	346	0.2	100	0.2	0	0	981.8	NA	0.0000		9999	4270	0	0	0
2019/05/10 00:58:00	BASE	14.11	351	16.51	346	0.2	100	0.2	0	0	981.7	NA	0.0000		9999	4270	0	0	0
2019/05/10 00:59:00	BASE	14.59	355	16.77	346	0.2	100	0.2	0	0	981.8	NA	0.0000		9999	4300	0	0	0
2019/05/10 01:00:00	BASE	14.75	353	16.77	346	0.2	100	0.2	0	0	981.8	NA	0.0000		9999	4300	0	0	0
2019/05/10 01:01:00	BASE	14.62	351	16.77	346	0.2	100	0.2	0	0	981.8	NA	0.0000		9999	4230	0	0	0
2019/05/10 01:02:00	BASE	14.20	349	16.77	346	0.2	100	0.2	0	0	981.8	NA	0.0000		9999	4300	0	0	0
2019/05/10 01:03:00	BASE	13.68	350	16.77	346	0.3	100	0.2	0	0	981.8	NA	0.0000		9999	4430	0	0	0
2019/05/10 01:04:00	BASE	13.63	350	16.77	346	0.3	100	0.3	0	0	981.8	NA	0.0000		9999	4330	0	0	0
2019/05/10 01:05:00	BASE	13.65	349	16.77	346	0.3	100	0.3	0	0	981.8	NA	0.0000		9999	4330	0	0	0
2019/05/10 01:06:00	BASE	13.20	350	16.77	346	0.3	100	0.3	0	0	981.8	NA	0.0000		9999	4400	0	0	0
2019/05/10 01:07:00	BASE	13.70	351	16.77	346	0.3	100	0.3	0	0	981.8	NA	0.0000		9999	3280	4170	0	0
2019/05/10 01:08:00	BASE	14.43	350	16.77	346	0.3	100	0.3	0	0	981.8	NA	0.0000		9999	4200	0	0	0
2019/05/10 01:09:00	BASE	14.21	349	16.51	355	0.3	100	0.3	0	0	981.9	NA	0.0000		9999	4200	0	0	0
2019/05/10 01:10:00	BASE	13.50	349	16.41	348	0.3	100	0.3	0	0	981.9	NA	0.0000		9999	4300	0	0	0
2019/05/10 01:11:00	BASE	13.42	350	16.41	348	0.3	100	0.3	0	0	981.8	NA	0.0000		9999	4490	0	0	0
2019/05/10 01:12:00	BASE	13.30	349	16.41	348	0.3	100	0.3	0	0	981.8	NA	0.0000		9999	4490	0	0	0
2019/05/10 01:13:00	BASE	12.45	349	16.41	348	0.3	100	0.3	0	0	981.8	NA	0.0000		9999	4330	0	0	0
2019/05/10 01:14:00	BASE	12.73	352	16.41	348	0.3	100	0.3	0	0	981.8	NA	0.0000		9999	4330	0	0	0
2019/05/10 01:15:00	BASE	13.15	348	16.41	348	0.3	100	0.3	0	0	981.8	NA	0.0000		9999	4230	0	0	0
2019/05/10 01:16:00	BASE	13.19	349	16.41	348	0.3	100	0.3	0	0	981.8	NA	0.0000		9999	4200	0	0	0
2019/05/10 01:17:00	BASE	13.59	352	16.41	348	0.3	100	0.3	0	0	981.8	NA	0.0000		9999	4130	0	0	0
2019/05/10 01:18:00	BASE	14.09	354	15.79	354	0.3	100	0.3	0	0	981.8	NA	0.0000		9999	4170	0	0	0
2019/05/10 01:19:00	BASE	14.01	354	15.79	354	0.3	100	0.3	0	0	981.8	NA	0.0000		9999	4100	0	0	0
2019/05/10 01:20:00	BASE	13.62	352	15.79	354	0.3	100	0.3	0	0	981.8	NA	0.0000		9999	3020	4070	0	0
2019/05/10 01:21:00	BASE	13.73	354	15.79	354	0.2	100	0.2	0	0	981.8	NA	0.0000		9999	4000	0	0	0
2019/05/10 01:22:00	BASE	13.59	351	15.79	354	0.2	100	0.2	0	0	981.8	NA	0.0000		9999	3020	3970	0	0
2019/05/10 01:23:00	BASE	13.21	352	15.79	354	0.2	100	0.2	0	0	981.8	NA	0.0000		9999	3940	0	0	0
2019/05/10 01:24:00	BASE	13.13	351	15.43	2	0.2	100	0.2	0	0	981.8	NA	0.0000		9999	2990	3940	0	0
2019/05/10 01:25:00	BASE	13.34	353	15.43	2	0.2	100	0.2	0	0	981.7	NA	0.0000		9999	5020	0	0	0
2019/05/10 01:26:00	BASE	13.57	356	15.43	2	0.2	100	0.2	0	0	981.7	NA	0.0000		9999	4300	0	0	0
2019/05/10 01:27:00	BASE	13.50	356	15.43	2	0.2	100	0.2	0	0	981.8	NA	0.0000		9999	4430	0	0	0
2019/05/10 01:28:00	BASE	13.34	358	15.64	360	0.2	100	0.2	0	0	981.8	NA	0.0000		9999	4330	0	0	0
2019/05/10 01:29:00	BASE	12.80	351	15.64	360	0.2	100	0.2	0	0	981.8	NA	0.0000		9999	4170	0	0	0
2019/05/10 01:30:00	BASE	12.52	348	15.64	360	0.2	100	0.2	0	0	981.8	NA	0.0000		9999	4130	0	0	0
2019/05/10 01:31:00	BASE	13.11	349	15.64	360	0.2	100	0.2	0	0	981.8	NA	0.0000		9999	4130	0	0	0
2019/05/10 01:32:00	BASE	13.41	351	15.64	360	0.2	100	0.2	0	0	981.8	NA	0.0000		9999	3970	0	0	0
2019/05/10 01:33:00	BASE	13.65	354	15.64	360	0.2	100	0.2	0	0	981.8	NA	0.0000		9999	3840	0	0	0
2019/05/10 01:34:00	BASE	14.30	357	15.64	360	0.2	100	0.2	0	0	981.8	NA	0.0000		9999	2720	0	0	0
2019/05/10 01:35:00	BASE	14.02	356	15.64	360	0.2	100	0.2	0	0	981.8	NA	0.0000		9999	2690	0	0	0
2019/05/10 01:36:00	BASE	12.65	356	15.64	360	0.2	100	0.2	0	0	981.9	NA	0.0000		9999	2620	3840	0	0
2019/05/10 01:37:00	BASE	11.95	359	15.64	360	0.2	100	0.2	0	0	981.9	NA	0.0000		9999	2620	3840	0	0
2019/05/10 01:38:00	BASE	12.34	357	15.54	355	0.2	100	0.2	0	0	981.9	NA	0.0000		9999	2530	3810	0	0
2019/05/10 01:39:00	BASE	12.48	357	15.54	355	0.2	100	0.2	0	0	981.8	NA	0.0000		9999	2460	0	0	0
2019/05/10 01:40:00	BASE	12.70	357	15.54	355	0.2	100	0.2	0	0	981.8	NA	0.0000		9999	2430	0	0	0
2019/05/10 01:41:00	BASE	13.13	352	15.54	355	0.2	100	0.2	0	0	981.8	NA	0.0000		9999	2300	0	0	0
2019/05/10 01:42:00	BASE	13.27	349	16.05	349	0.2	100	0.2	0	0	981.8	NA	0.0000		9999	2330	0	0	0
2019/05/10 01:43:00	BASE	13.63	350	16.05	349	0.2	100	0.2	0	0	981.8	NA	0.0000		9999	2300	0	0	0
2019/05/10 01:44:00	BASE	13.20	353	16.05	349	0.2	100	0.2	0	0	981.9	NA	0.0000		9999	2400	0	0	0
2019/05/10 01:45:00	BASE	12.52	351	16.05	349	0.2	100	0.2	0	0	981.9	NA	0.0000		9999	2430	0	0	0
2019/05/10 01:46:00	BASE	12.48	351	16.05	349	0.2	100	0.2	0	0	981.9	NA	0.0000		9999	1350	2490	0	0
2019/05/10 01:47:00	BASE	12.95	355	16.05	349	0.2	100	0.2	0	0	981.8	NA	0.0000		9999	1380	2490	0	0
2019/05/10 01:48:00	BASE	13.39	353	16.05	349	0.3	100	0.3	0	0	981.8	NA	0.0000		9999	3740	0	0	0
2019/05/10 01:49:00	BASE	14.34	353	16.41	354	0.3	100	0.3	0	0	981.8	NA	0.0000		9999	3740	0	0	0
2019/05/10 01:50:00	BASE	15.23	353	16.98	354	0.3	100	0.3	0	0	981.8	NA	0.0000		9999	3710	0	0	0
2019/05/10 01:51:00	BASE	15.60	353	17.90	350	0.3	100	0.3	0	0	981.8	NA	0.0000		9999	3670	0	0	0
2019/05/10 01:52:00	BASE	15.92	350	17.90	350	0.4	100	0.4	0	0	981.7	NA	0.0000		9999	3610	0	0	0
2019/05/10 01:53:00	BASE	16.09	349	18.88	344	0.4	100	0.4	0	0	981.7	NA	0.0000		9999	1970	3670	0	0
2019/05/10 01:54:00	BASE	16.25	342	18.88	344	0.4	100	0.4	0	0	981.8	NA	0.0000		9999	1800	0	0	0
2019/05/10 01:55:00	BASE	16.22	341	18.88	344	0.4	100	0.4	0	0	981.8	NA	0.0000		9999	1770	0	0	0
2019/05/10 01:56:00	BASE	16.36	351	18.88	344	0.4	100	0.4	0	0	981.7	NA	0.0000		9999	2030	0	0	0
2019/05/10 01:57:00	BASE	15.85	349	18.88	344	0.4	100	0.4	0	0	981.8	NA	0.0000		9999	2130	0	0	0
2019/05/10 01:58:00	BASE	15.36	348	18.88	344	0.4	100	0.4	0	0	981.7	NA	0.0000		9999	2200	3900	0	0
2019/05/10 01:59:00	BASE	15.84	352	18.88	344	0.4	100	0.4	0	0	981.7	NA	0.0000		9999	1610	2300	0	0
2019/05/10 02:00:00	BASE	15.55	351	18.88	344	0.4	100	0.4	0	0	981.7	NA	0.0000		9999	2430	3840	0	0
2019/05/10 02:01:00	BASE	14.49	351	18.88	344	0.4	100	0.4	0	0	981.7	NA	0.0000		9999	3900	0	0	0
2019/05/10 02:02:00	BASE	14.58	354	18.88	344	0.4	100	0.4	0	0	981.7	NA	0.0000		9999	3870	0	0	0
2019/05/10 02:03:00	BASE	14.93	355	17.90	314	0.4	100	0.4	0	0	981.7	NA	0.0000		9999	3840	0	0	0
2019/05/10 02:04:00	BASE	14.98	354	17.80	352	0.4	100	0.4	0	0	981.7	NA	0.0000		9999	3870	0	0	0
2019/05/10 02:05:00	BASE	15.10	354	17.65	350	0.4	100	0.4	0	0	981.7	NA	0.0000		9999	3870	0	0	0
2019/05/10 02:06:00	BASE	15.13	354	17.65	350	0.4	100	0.4	0	0	981.7	NA	0.0000		9999	3810	0	0	0
2019/05/10 02:07:00	BASE	14.70	353	17.65	350	0.3	100	0.3	0	0	981.7	NA	0.0000		9999	3350	4000	0	0
2019/05/10 02:08:00	BASE	15.15	353	18.06	360	0.3	100	0.3	0	0	981.6	NA	0.0000		9999	3380	0	0	0
2019/05/10 02:09:00	BASE	16.69	350	19.24	350	0.3	100	0.3	0	0	981.6	NA	0.0000		9999	3310	0	0	0
2019/05/10 02:10:00	BASE	16.87	355	19.24	350	0.3	100	0.3	0	0	981.6	NA	0.0000		9999	3310	0	0	0
2019/05/10 02:11:00	BASE	16.30	1	19.24	350	0.4	100	0.4	0	0	981.6	NA	0.0000		9999	3450	0	0	0
2019/05/10 02:12:00	BASE	16.48	355	19.24	350	0.4	100	0.4	0	0	981.6	NA	0.0000		9999	3450	4000	0	0
2019/05/10 02:13:00	BASE	16.26	355	19.24	350	0.4	100	0.4	0	0	981.6	NA	0.0000		9999	3540	0	0	0
2019/05/10 02:14:00	BASE	16.10	358	19.24	350	0.4	100	0.4	0	0	981.5	NA	0.0000		9999	3640	0	0	0
2019/05/10 02:15:00	BASE	17.12	355	19.70	353	0.4	100	0.4	0	0	981.5	NA	0.0000		9999	3970	0	0	0
2019/05/10 02:16:00	BASE	18.66	357	20.53	352	0.4	100	0.4	0	0	981.4	NA	0.0000		9999	3670	0	0	0
2019/05/10 02:17:00	BASE	17.84	356	20.53	352	0.4	100	0.4	0	0	981.5	NA	0.0000		9999	3770	0	0	0
2019/05/10 02:18:00	BASE	16.78	355	20.53	352	0.3	100	0.3	0	0	981.5	NA	0.0000		9999	4330	0	0	0
2019/05/10 02:19:00	BASE	17.04	358	20.53	352	0.3	100	0.3	0	0	981.5	NA	0.0000		9999	0	0	0	560
2019/05/10 02:20:00	BASE	18.00	354	21.97	360	0.3	100	0.3	0	0	981.4	NA	0.0000		9999	4300	0	0	0
2019/05/10 02:21:00	BASE	18.66	351	21.97	360	0.3	100	0.3	0	0	981.4	NA	0.0000		9999	0	0	0	720
2019/05/10 02:22:00	BASE	17.93	355	21.97	360	0.3	100	0.3	0	0	981.4	NA	0.0000		9999	0	0	0	820
2019/05/10 02:23:00	BASE	17.61	358	21.97	360	0.4	100	0.4	0	0	981.5	NA	0.0000		9999	0	0	0	790
2019/05/10 02:24:00	BASE	17.79	357	21.97	360	0.4	100	0.4	0	0	981.4	NA	0.0000		9999	0	0	0	920
2019/05/10 02:25:00	BASE	17.46	352	21.97	360	0.4	100	0.4	0	0	981.5	NA	0.0000		9999	0	0	0	1020
2019/05/10 02:26:00	BASE	16.22	352	21.97	360	0.4	100	0.4	0	0	981.5	NA	0.0000		9999	0	0	0	8010
2019/05/10 02:27:00	BASE	16.98	355	21.97	360	0.4	100	0.4	0	0	981.5	NA	0.0000		9999	0	0	0	5220
2019/05/10 02:28:00	BASE	18.38	352	21.97	360	0.4	100	0.4	0	0	981.4	NA	0.0000		9999	0	0	0	5180
2019/05/10 02:29:00	BASE	16.92	348	21.97	360	0.4	100	0.4	0	0	981.5	NA	0.0000		9999	0	0	0	4990
2019/05/10 02:30:00	BASE	15.83	344	20.83	354	0.4	100	0.4	0	0	981.5	NA	0.0000		9999	0	0	0	5090
2019/05/10 02:31:00	BASE	16.31	342	20.83	354	0.4	100	0.4	0	0	981.5	NA	0.0000		9999	0	0	0	7190
2019/05/10 02:32:00	BASE	16.65	351	20.83	354	0.4	100	0.4	0	0	981.5	NA	0.0000		9999	0	0	0	7190
2019/05/10 02:33:00	BASE	16.44	350	20.83	354	0.4	100	0.4	0	0	981.5	NA	0.0000		9999	0	0	0	7020
2019/05/10 02:34:00	BASE	16.91	347	20.83	354	0.4	100	0.4	0	0	981.5	NA	0.0000		9999	4200	0	0	0
2019/05/10 02:35:00	BASE	18.15	350	20.83	354	0.4	100	0.4	0	0	981.4	NA	0.0000		9999	0	0	0	6460
2019/05/10 02:36:00	BASE	19.33	350	22.22	353	0.4	100	0.4	0	0	981.4	NA	0.0000		9999	0	0	0	6040
2019/05/10 02:37:00	BASE	19.24	351	22.22	353	0.4	100	0.4	0	0	981.4	NA	0.0000		9999	0	0	0	5680
2019/05/10 02:38:00	BASE	17.84	349	22.22	353	0.4	100	0.4	0	0	981.5	NA	0.0000		9999	0	0	0	5510
2019/05/10 02:39:00	BASE	17.24	350	22.22	353	0.4	100	0.4	0	0	981.5	NA	0.0000		9999	0	0	0	5280
2019/05/10 02:40:00	BASE	18.11	349	22.22	353	0.4	100	0.4	0	0	981.4	NA	0.0000		9999	0	0	0	5120
2019/05/10 02:41:00	BASE	18.54	343	22.22	353	0.5	100	0.5	0	0	981.5	NA	0.0000		9999	0	0	0	4430
2019/05/10 02:42:00	BASE	18.95	345	22.22	353	0.5	100	0.5	0	0	981.4	NA	0.0000		9999	0	0	0	4170
2019/05/10 02:43:00	BASE	18.64	351	22.22	353	0.5	100	0.5	0	0	981.5	NA	0.0000		9999	0	0	0	3450
2019/05/10 02:44:00	BASE	17.58	351	22.22	353	0.5	100	0.5	0	0	981.4	NA	0.0000		9999	0	0	0	2890
2019/05/10 02:45:00	BASE	18.25	350	22.22	353	0.5	100	0.4	0	0	981.4	NA	0.0000		9999	0	0	0	2660
2019/05/10 02:46:00	BASE	18.97	349	22.17	348	0.4	100	0.4	0	0	981.4	NA	0.0000		9999	0	0	0	2660
2019/05/10 02:47:00	BASE	17.68	352	22.17	348	0.4	100	0.4	0	0	981.5	NA	0.0000		9999	0	0	0	3120
2019/05/10 02:48:00	BASE	16.20	354	22.17	348	0.4	100	0.4	0	0	981.4	NA	0.0000		9999	0	0	0	3180
2019/05/10 02:49:00	BASE	16.00	350	22.17	348	0.4	100	0.4	0	0	981.4	NA	0.0000		9999	0	0	0	3150
2019/05/10 02:50:00	BASE	16.26	351	22.07	338	0.4	100	0.4	0	0	981.3	NA	0.0000		9999	0	0	0	3410
2019/05/10 02:51:00	BASE	16.89	352	22.07	338	0.4	100	0.4	0	0	981.3	NA	0.0000		9999	0	0	0	2990
2019/05/10 02:52:00	BASE	16.81	349	21.14	354	0.4	100	0.4	0	0	981.3	NA	0.0000		9999	0	0	0	2950
2019/05/10 02:53:00	BASE	16.65	349	21.14	354	0.4	100	0.4	0	0	981.3	NA	0.0000		9999	0	0	0	2660
2019/05/10 02:54:00	BASE	16.38	351	21.14	354	0.4	100	0.4	0	0	981.3	NA	0.0000		9999	0	0	0	2560
2019/05/10 02:55:00	BASE	17.34	350	21.25	347	0.4	100	0.4	0	0	981.2	NA	0.0000		9999	0	0	0	2360
2019/05/10 02:56:00	BASE	19.02	352	21.35	360	0.4	100	0.4	0	0	981.2	NA	0.0000		9999	0	0	0	1900
2019/05/10 02:57:00	BASE	19.45	354	21.81	354	0.4	100	0.4	0	0	981.2	NA	0.0000		9999	0	0	0	1800
2019/05/10 02:58:00	BASE	18.60	351	21.81	354	0.4	100	0.4	0	0	981.2	NA	0.0000	UP	9999	0	0	0	2030
2019/05/10 02:59:00	BASE	17.91	350	21.81	347	0.4	100	0.4	0	0	981.2	NA	0.0000	UP	9999	0	0	0	1970
2019/05/10 03:00:00	BASE	17.61	352	21.81	347	0.4	100	0.4	0	0	981.2	NA	0.0000	UP	9999	0	0	0	2100
2019/05/10 03:01:00	BASE	16.53	350	21.81	347	0.3	100	0.3	0	0	981.3	NA	0.0000	UP	9999	0	0	0	2030
2019/05/10 03:02:00	BASE	15.46	349	21.81	347	0.3	100	0.3	0	0	981.3	NA	0.0000	UP	9999	300	0	0	0
2019/05/10 03:03:00	BASE	15.13	351	21.81	347	0.3	100	0.3	0	0	981.3	NA	0.0000	UP	9999	260	0	0	0
2019/05/10 03:04:00	BASE	15.39	352	21.81	347	0.3	100	0.3	0	0	981.3	NA	0.0000	UP	9999	260	0	0	0
2019/05/10 03:05:00	BASE	17.01	355	21.81	350	0.3	100	0.3	0	0	981.2	NA	0.0000	UP	9999	0	0	0	1770
2019/05/10 03:06:00	BASE	17.18	354	21.81	350	0.3	100	0.3	0	0	981.2	NA	0.0000	UP	9999	0	0	0	1770
2019/05/10 03:07:00	BASE	16.36	351	21.81	350	0.3	100	0.3	0	0	981.2	NA	0.0000	UP	9999	0	0	0	1840
2019/05/10 03:08:00	BASE	16.73	353	21.81	350	0.3	100	0.3	0	0	981.2	NA	0.0000	UP	9999	330	0	0	0
2019/05/10 03:09:00	BASE	17.28	352	21.81	350	0.3	100	0.3	0	0	981.2	NA	0.0000	UP	9999	330	0	0	0
2019/05/10 03:10:00	BASE	18.07	349	21.81	350	0.3	100	0.3	0	0	981.2	NA	0.0000	UP	9999	330	0	0	0
2019/05/10 03:11:00	BASE	18.17	349	21.81	350	0.4	100	0.4	0	0	981.2	NA	0.0000	UP	9999	260	0	0	0
2019/05/10 03:12:00	BASE	19.14	348	22.17	346	0.4	100	0.4	0	0	981.1	NA	0.0000	UP	9999	300	0	0	0
2019/05/10 03:13:00	BASE	19.76	348	22.17	346	0.4	100	0.4	0	0	981.1	NA	0.0000	UP	9999	360	0	0	0
2019/05/10 03:14:00	BASE	20.16	351	22.48	345	0.4	100	0.4	0	0	981.1	NA	0.0000	UP	9999	300	0	0	0
2019/05/10 03:15:00	BASE	19.72	351	22.48	345	0.5	100	0.5	0	0	981.1	NA	0.0000	UP	9999	0	0	0	2850
2019/05/10 03:16:00	BASE	19.55	350	22.48	345	0.5	100	0.5	0	0	981.1	NA	0.0000	UP	9999	0	0	0	2820
2019/05/10 03:17:00	BASE	19.95	350	22.48	345	0.5	100	0.5	0	0	981.1	NA	0.0000	UP	9999	0	0	0	2760
2019/05/10 03:18:00	BASE	19.16	350	22.48	345	0.5	100	0.5	0	0	981.1	NA	0.0000	UP	9999	300	0	0	0
2019/05/10 03:19:00	BASE	18.30	352	22.48	345	0.5	100	0.5	0	0	981.1	NA	0.0000	UP	9999	260	0	0	0
2019/05/10 03:20:00	BASE	17.95	348	22.48	345	0.5	100	0.5	0	0	981.1	NA	0.0000	UP	9999	0	0	0	2690
2019/05/10 03:21:00	BASE	18.24	351	22.48	345	0.5	100	0.5	0	0	981.1	NA	0.0000	UP	9999	0	0	0	2660
2019/05/10 03:22:00	BASE	18.87	353	22.48	345	0.5	100	0.5	0	0	981.1	NA	0.0000	UP	9999	0	0	0	1840
2019/05/10 03:23:00	BASE	18.81	348	22.48	345	0.5	100	0.5	0	0	981.1	NA	0.0000	UP	9999	0	0	0	2620
2019/05/10 03:24:00	BASE	17.56	349	22.12	347	0.5	100	0.5	0	0	981.1	NA	0.0000	UP	9999	0	0	0	2490
2019/05/10 03:25:00	BASE	17.36	354	22.12	347	0.5	100	0.5	0	0	981.1	NA	0.0000	UP	9999	330	0	0	0
2019/05/10 03:26:00	BASE	17.70	352	22.07	345	0.5	100	0.5	0	0	981.1	NA	0.0000	UP	9999	0	0	0	2330
2019/05/10 03:27:00	BASE	18.66	346	21.66	339	0.4	100	0.4	0	0	981.1	NA	0.0000	UP	9999	390	0	0	0
2019/05/10 03:28:00	BASE	19.32	350	22.07	337	0.4	100	0.4	0	0	981.0	NA	0.0000	UP	9999	360	0	0	0
2019/05/10 03:29:00	BASE	21.18	350	25.41	342	0.4	100	0.4	0	0	981.0	NA	0.0000	UP	9999	0	0	0	2000
2019/05/10 03:30:00	BASE	23.02	348	25.41	342	0.4	100	0.4	0	0	980.9	NA	0.0000	UP	9999	0	0	0	1840
2019/05/10 03:31:00	BASE	22.20	350	25.41	342	0.4	100	0.4	0	0	981.0	NA	0.0000	UP	9999	0	0	0	1670
2019/05/10 03:32:00	BASE	20.74	350	25.41	342	0.4	100	0.4	0	0	981.0	NA	0.0000	UP	9999	0	0	0	1710
2019/05/10 03:33:00	BASE	19.96	349	25.41	342	0.4	100	0.4	0	0	981.0	NA	0.0000	UP	9999	0	0	0	1940
2019/05/10 03:34:01	BASE	20.53	354	25.41	342	0.4	100	0.4	0	0	980.9	NA	0.0000	UP	9999	0	0	0	2000
2019/05/10 03:35:00	BASE	20.64	355	25.41	342	0.4	100	0.4	0	0	981.0	NA	0.0000	UP	9999	0	0	0	2070
2019/05/10 03:36:00	BASE	19.87	349	25.41	342	0.4	100	0.4	0	0	980.9	NA	0.0000	UP	9999	0	0	0	2330
2019/05/10 03:37:00	BASE	19.98	347	25.41	342	0.4	100	0.4	0	0	980.9	NA	0.0000	UP	9999	0	0	0	1900
2019/05/10 03:38:00	BASE	20.73	345	25.41	342	0.4	100	0.4	0	0	980.9	NA	0.0000	UP	9999	0	0	0	1770
2019/05/10 03:39:00	BASE	20.81	345	24.13	350	0.4	100	0.4	0	0	980.9	NA	0.0000	UP	9999	0	0	0	2230
2019/05/10 03:40:00	BASE	20.68	350	23.41	351	0.4	100	0.4	0	0	980.8	NA	0.0000	UP	9999	0	0	0	3770
2019/05/10 03:41:00	BASE	20.98	350	24.54	345	0.4	100	0.4	0	0	980.8	NA	0.0000	UP	9999	0	0	0	3610
2019/05/10 03:42:00	BASE	20.67	352	24.54	345	0.4	100	0.4	0	0	980.8	NA	0.0000	UP	9999	0	0	0	3670
2019/05/10 03:43:00	BASE	18.93	354	24.54	345	0.4	100	0.4	0	0	980.9	NA	0.0000	UP	9999	0	0	0	4200
2019/05/10 03:44:00	BASE	18.55	354	24.54	345	0.4	100	0.4	0	0	980.9	NA	0.0000		9999	0	0	0	4920
2019/05/10 03:45:00	BASE	18.50	352	24.54	345	0.4	100	0.4	0	0	980.9	NA	0.0000		9999	3840	0	0	0
2019/05/10 03:46:00	BASE	19.02	346	24.54	345	0.4	100	0.4	0	0	980.8	NA	0.0000		9999	0	0	0	5280
2019/05/10 03:47:00	BASE	19.82	345	24.54	345	0.5	100	0.5	0	0	980.8	NA	0.0000		9999	0	0	0	4300
2019/05/10 03:48:00	BASE	20.60	350	24.54	345	0.5	100	0.5	0	0	980.8	NA	0.0000		9999	0	0	0	3640
2019/05/10 03:49:00	BASE	21.51	349	24.54	345	0.5	100	0.5	0	0	980.7	NA	0.0000		9999	0	0	0	2760
2019/05/10 03:50:00	BASE	20.77	346	24.54	345	0.5	100	0.5	0	0	980.8	NA	0.0000	UP	9999	0	0	0	2360
2019/05/10 03:51:00	BASE	20.99	349	25.31	348	0.5	100	0.5	0	0	980.7	NA	0.0000	UP	9999	300	0	0	0
2019/05/10 03:52:00	BASE	20.50	354	25.31	348	0.5	100	0.5	0	0	980.7	NA	0.0000	UP	9999	0	0	0	1840
2019/05/10 03:53:00	BASE	18.96	354	25.31	348	0.5	100	0.5	0	0	980.7	NA	0.0000	UP	9999	0	0	0	1710
2019/05/10 03:54:00	BASE	18.50	352	25.31	348	0.5	100	0.5	0	0	980.7	NA	0.0000	UP	9999	0	0	0	2070
2019/05/10 03:55:00	BASE	17.82	354	25.31	348	0.5	100	0.5	0	0	980.7	NA	0.0000	UP	9999	260	0	0	0
2019/05/10 03:56:00	BASE	18.46	354	25.31	348	0.5	100	0.5	0	0	980.6	NA	0.0000	UP	9999	0	0	0	1800
2019/05/10 03:57:00	BASE	19.09	353	25.31	348	0.5	100	0.5	0	0	980.6	NA	0.0000	UP	9999	0	0	0	1670
2019/05/10 03:58:00	BASE	18.64	353	25.31	348	0.5	100	0.5	0	0	980.6	NA	0.0000	UP	9999	0	0	0	1940
2019/05/10 03:59:00	BASE	18.70	355	25.31	348	0.5	100	0.5	0	0	980.5	NA	0.0000	UP	9999	0	0	0	1800
2019/05/10 04:00:00	BASE	18.90	354	25.31	348	0.5	100	0.5	0	0	980.5	NA	0.0000	UP	9999	0	0	0	2070
2019/05/10 04:01:00	BASE	18.87	357	22.02	354	0.5	100	0.5	0	0	980.5	NA	0.0000	UP	9999	0	0	0	2170
2019/05/10 04:02:00	BASE	18.90	359	22.02	354	0.5	100	0.5	0	0	980.4	NA	0.0000	UP	9999	0	0	0	1970
2019/05/10 04:03:00	BASE	19.26	354	22.53	317	0.5	100	0.5	0	0	980.4	NA	0.0000	UP	9999	330	0	0	0
2019/05/10 04:04:00	BASE	18.21	355	22.53	317	0.6	100	0.5	0	0	980.5	NA	0.0000	UP	9999	330	0	0	0
2019/05/10 04:05:00	BASE	18.73	356	22.53	317	0.6	100	0.6	0	0	980.4	NA	0.0000	UP	9999	0	0	0	2590
2019/05/10 04:06:00	BASE	18.89	354	22.53	317	0.6	100	0.6	0	0	980.5	NA	0.0000	UP	9999	0	0	0	2300
2019/05/10 04:07:00	BASE	17.05	352	22.53	317	0.6	100	0.6	0	0	980.5	NA	0.0000	UP	9999	0	0	0	1900
2019/05/10 04:08:00	BASE	17.07	350	22.53	317	0.6	100	0.6	0	0	980.5	NA	0.0000	UP	9999	0	0	0	2200
2019/05/10 04:09:00	BASE	18.09	357	22.53	317	0.6	100	0.6	0	0	980.5	NA	0.0000	UP	9999	0	0	0	2070
2019/05/10 04:10:00	BASE	18.90	357	22.53	317	0.6	100	0.6	0	0	980.5	NA	0.0000	UP	9999	0	0	0	2070
2019/05/10 04:11:00	BASE	19.82	350	23.61	1	0.6	100	0.6	0	0	980.5	NA	0.0000	UP	9999	0	0	0	2030
2019/05/10 04:12:00	BASE	21.29	350	24.28	346	0.6	100	0.6	0	0	980.4	NA	0.0000	UP	9999	0	0	0	2690
2019/05/10 04:13:00	BASE	22.45	352	26.13	360	0.6	100	0.6	0	0	980.4	NA	0.0000	UP	9999	0	0	0	2690
2019/05/10 04:14:00	BASE	22.05	351	26.13	360	0.6	100	0.6	0	0	980.4	NA	0.0000	UP	9999	0	0	0	2620
2019/05/10 04:15:00	BASE	22.40	349	26.13	360	0.6	100	0.6	0	0	980.4	NA	0.0000	UP	9999	0	0	0	2360
2019/05/10 04:16:00	BASE	22.67	351	26.13	360	0.6	100	0.6	0	0	980.3	NA	0.0000	UP	9999	0	0	0	3150
2019/05/10 04:17:00	BASE	20.40	351	26.13	360	0.6	100	0.6	0	0	980.5	NA	0.0000	UP	9999	0	0	0	3280
2019/05/10 04:18:00	BASE	18.42	350	26.13	360	0.6	100	0.6	0	0	980.5	NA	0.0000	UP	9999	0	0	0	3350
2019/05/10 04:19:00	BASE	18.76	351	26.13	360	0.6	100	0.6	0	0	980.4	NA	0.0000		9999	0	0	0	3810
2019/05/10 04:20:00	BASE	19.33	351	26.13	360	0.5	100	0.5	0	0	980.4	NA	0.0000		9999	0	0	0	3900
2019/05/10 04:21:00	BASE	18.43	351	26.13	360	0.5	100	0.5	0	0	980.5	NA	0.0000		9999	0	0	0	3870
2019/05/10 04:22:00	BASE	18.37	350	26.13	360	0.5	100	0.5	0	0	980.4	NA	0.0000		9999	0	0	0	3970
2019/05/10 04:23:00	BASE	19.69	349	25.62	350	0.5	100	0.5	0	0	980.4	NA	0.0000		9999	0	0	0	3740
2019/05/10 04:24:00	BASE	20.06	347	25.62	350	0.5	100	0.5	0	0	980.4	NA	0.0000		9999	0	0	0	2620
2019/05/10 04:25:00	BASE	19.16	349	25.00	3	0.5	100	0.5	0	0	980.4	NA	0.0000		9999	360	0	0	0
2019/05/10 04:26:00	BASE	18.82	351	22.74	354	0.5	100	0.5	0	0	980.4	NA	0.0000		9999	0	0	0	2660
2019/05/10 04:27:00	BASE	18.94	355	22.74	354	0.5	100	0.5	0	0	980.4	NA	0.0000		9999	0	0	0	2850
2019/05/10 04:28:00	BASE	18.56	1	22.74	354	0.5	100	0.5	0	0	980.4	NA	0.0000		9999	0	0	0	2590
2019/05/10 04:29:00	BASE	19.20	357	22.58	354	0.5	100	0.5	0	0	980.3	NA	0.0000	UP	9999	0	0	0	2660
2019/05/10 04:30:00	BASE	20.10	350	22.58	354	0.5	100	0.5	0	0	980.3	NA	0.0000	UP	9999	0	0	0	2850
2019/05/10 04:31:00	BASE	19.61	354	22.58	354	0.5	100	0.5	0	0	980.3	NA	0.0000	UP	9999	0	0	0	3380
2019/05/10 04:32:00	BASE	19.35	358	22.58	354	0.6	100	0.6	0	0	980.2	NA	0.0000	UP	9999	0	0	0	3410
2019/05/10 04:33:00	BASE	19.65	0	22.58	354	0.6	100	0.6	0	0	980.3	NA	0.0000	UP	9999	0	0	0	2560
2019/05/10 04:34:00	BASE	19.64	1	22.58	354	0.6	100	0.6	0	0	980.3	NA	0.2540	UP	9999	0	0	0	2620
2019/05/10 04:35:00	BASE	18.59	353	22.58	354	0.6	100	0.6	0	0	980.3	NA	0.0000	UP	9999	0	0	0	2430
2019/05/10 04:36:00	BASE	16.93	356	22.58	354	0.6	100	0.6	0	0	980.4	NA	0.0000	UP	9999	0	0	0	2590
2019/05/10 04:37:00	BASE	18.06	1	22.58	354	0.6	100	0.6	0	0	980.3	NA	0.0000	UP	9999	0	0	0	3280
2019/05/10 04:38:00	BASE	18.94	357	22.58	354	0.6	100	0.6	0	0	980.3	NA	0.0000	UP	9999	0	0	0	2950
2019/05/10 04:39:00	BASE	19.13	356	22.28	360	0.6	100	0.6	0	0	980.2	NA	0.0000	UP	9999	0	0	0	2330
2019/05/10 04:40:00	BASE	19.47	358	22.28	360	0.7	100	0.7	0	0	980.2	NA	0.0000	UP	9999	260	0	0	0
2019/05/10 04:41:00	BASE	18.72	354	22.28	360	0.7	100	0.7	0	0	980.3	NA	0.0000	UP	9999	0	0	0	2100
2019/05/10 04:42:00	BASE	18.29	356	22.17	5	0.7	100	0.7	0	0	980.3	NA	0.0000	UP	9999	0	0	0	1940
2019/05/10 04:43:00	BASE	19.31	358	22.84	354	0.7	100	0.7	0	0	980.2	NA	0.0000	UP	9999	0	0	0	2000
2019/05/10 04:44:00	BASE	20.22	354	22.84	354	0.7	100	0.7	0	0	980.2	NA	0.0000	UP	9999	0	0	0	2030
2019/05/10 04:45:00	BASE	19.50	352	22.84	354	0.7	100	0.7	0	0	980.2	NA	0.0000	UP	9999	0	0	0	2130
2019/05/10 04:46:00	BASE	19.24	354	22.84	354	0.7	100	0.7	0	0	980.3	NA	0.0000	UP	9999	0	0	0	2100
2019/05/10 04:47:00	BASE	18.62	352	22.84	354	0.7	100	0.7	0	0	980.3	NA	0.0000	UP	9999	0	0	0	2070
2019/05/10 04:48:00	BASE	17.41	351	22.84	354	0.7	100	0.7	0	0	980.3	NA	0.0000		9999	0	0	0	2000
2019/05/10 04:49:00	BASE	15.96	355	22.84	354	0.7	100	0.7	0	0	980.3	NA	0.0000		9999	0	0	0	2030
2019/05/10 04:50:00	BASE	16.87	354	22.84	354	0.7	100	0.7	0	0	980.2	NA	0.0000		9999	0	0	0	2130
2019/05/10 04:51:00	BASE	18.92	354	22.84	354	0.7	100	0.7	0	0	980.2	NA	0.0000		9999	0	0	0	2030
2019/05/10 04:52:00	BASE	17.98	359	22.84	354	0.6	100	0.6	0	0	980.2	NA	0.0000		9999	0	0	0	2400
2019/05/10 04:53:00	BASE	16.26	3	22.22	352	0.6	100	0.6	0	0	980.2	NA	0.0000		9999	0	0	0	2620
2019/05/10 04:54:00	BASE	17.75	2	22.53	360	0.6	100	0.6	0	0	980.1	NA	0.0000		9999	0	0	0	2720
2019/05/10 04:55:00	BASE	20.07	357	23.25	351	0.6	100	0.6	0	0	980.0	NA	0.0000		9999	0	0	0	2620
2019/05/10 04:56:00	BASE	19.48	356	23.25	351	0.6	100	0.6	0	0	980.1	NA	0.0000	UP	9999	0	0	0	2400
2019/05/10 04:57:00	BASE	18.23	356	23.25	351	0.6	100	0.6	0	0	980.1	NA	0.0000	UP	9999	0	0	0	2330
2019/05/10 04:58:00	BASE	18.42	354	23.25	351	0.6	100	0.6	0	0	980.0	NA	0.0000	UP	9999	0	0	0	2490
2019/05/10 04:59:01	BASE	18.34	358	23.25	351	0.6	100	0.6	0	0	980.0	NA	0.0000	UP	9999	0	0	0	2260
2019/05/10 05:00:00	BASE	17.36	1	23.25	351	0.6	100	0.6	0	0	980.0	NA	0.0000	UP	9999	0	0	0	2260
2019/05/10 05:01:00	BASE	18.00	359	23.25	351	0.6	100	0.6	0	0	979.9	NA	0.0000	UP	9999	0	0	0	3050
2019/05/10 05:02:00	BASE	19.34	3	23.25	351	0.6	100	0.6	0	0	979.9	NA	0.0000	UP	9999	360	0	0	0
2019/05/10 05:03:00	BASE	21.00	5	23.51	3	0.6	100	0.6	0	0	979.8	NA	0.0000	UP	9999	330	0	0	0
2019/05/10 05:04:00	BASE	21.30	4	23.51	3	0.6	100	0.6	0	0	979.8	NA	0.0000	UP	9999	0	0	0	3710
2019/05/10 05:05:00	BASE	20.42	1	23.51	3	0.6	100	0.6	0	0	979.8	NA	0.0000	UP	9999	0	0	0	4100
2019/05/10 05:06:00	BASE	21.00	356	23.51	3	0.6	100	0.6	0	0	979.8	NA	0.0000	UP	9999	0	0	0	3510
2019/05/10 05:07:00	BASE	20.86	357	23.51	3	0.6	100	0.6	0	0	979.8	NA	0.0000	UP	9999	0	0	0	3900
2019/05/10 05:08:00	BASE	20.58	360	24.33	3	0.6	100	0.6	0	0	979.7	NA	0.0000	UP	9999	0	0	0	4170
2019/05/10 05:09:00	BASE	20.78	358	24.33	3	0.6	100	0.6	0	0	979.8	NA	0.0000	UP	9999	0	0	0	4100
2019/05/10 05:10:00	BASE	20.19	360	24.33	3	0.6	100	0.6	0	0	979.8	NA	0.0000	UP	9999	0	0	0	3810
2019/05/10 05:11:00	BASE	19.83	360	24.33	3	0.6	100	0.6	0	0	979.7	NA	0.0000	UP	9999	0	0	0	3510
2019/05/10 05:12:00	BASE	20.76	356	24.33	3	0.6	100	0.6	0	0	979.7	NA	0.0000	UP	9999	0	0	0	2620
2019/05/10 05:13:00	BASE	20.76	355	24.33	3	0.6	100	0.6	0	0	979.7	NA	0.0000		9999	0	0	0	2690
2019/05/10 05:14:00	BASE	20.64	357	24.33	3	0.6	100	0.6	0	0	979.7	NA	0.0000		9999	0	0	0	2490
2019/05/10 05:15:00	BASE	21.24	358	24.33	3	0.6	100	0.6	0	0	979.7	NA	0.0000		9999	0	0	0	2360
2019/05/10 05:16:00	BASE	20.88	360	24.33	3	0.6	100	0.6	0	0	979.6	NA	0.0000		9999	0	0	0	2360
2019/05/10 05:17:00	BASE	20.68	359	24.33	3	0.6	100	0.6	0	0	979.6	NA	0.0000	UP	9999	0	0	0	2360
2019/05/10 05:18:00	BASE	21.00	356	23.61	360	0.6	100	0.6	0	0	979.6	NA	0.0000	UP	9999	0	0	0	2460
2019/05/10 05:19:00	BASE	21.28	356	24.64	1	0.6	100	0.6	0	0	979.5	NA	0.0000	UP	9999	0	0	0	2920
2019/05/10 05:20:00	BASE	21.54	360	24.64	1	0.7	100	0.7	0	0	979.4	NA	0.0000	UP	9999	0	0	0	2720
2019/05/10 05:21:00	BASE	21.68	8	24.64	1	0.7	100	0.7	0	0	979.4	NA	0.0000	UP	9999	0	0	0	2560
2019/05/10 05:22:00	BASE	22.86	9	27.27	360	0.7	100	0.7	0	0	979.3	NA	0.0000	UP	9999	0	0	0	2590
2019/05/10 05:23:00	BASE	24.28	5	27.27	360	0.7	100	0.7	0	0	979.3	NA	0.0000	UP	9999	0	0	0	2850
2019/05/10 05:24:00	BASE	24.02	7	27.27	360	0.7	100	0.7	0	0	979.3	NA	0.0000	UP	9999	0	0	0	2660
2019/05/10 05:25:00	BASE	24.14	8	27.27	360	0.7	100	0.7	0	0	979.2	NA	0.0000	UP	9999	0	0	0	2230
2019/05/10 05:26:00	BASE	24.34	8	27.27	360	0.7	100	0.7	0	0	979.3	NA	0.0000	UP	9999	0	0	0	2100
2019/05/10 05:27:00	BASE	25.03	9	27.93	5	0.7	100	0.7	0	0	979.2	NA	0.0000	UP	9999	0	0	0	1640
2019/05/10 05:28:00	BASE	26.75	9	29.63	8	0.8	100	0.8	0	0	979.1	NA	0.0000	UP	9999	4630	0	0	0
2019/05/10 05:29:00	BASE	26.73	9	29.63	8	0.8	100	0.8	0	0	979.1	NA	0.0000	UP	9999	4630	0	0	0
2019/05/10 05:30:00	BASE	26.33	10	29.63	8	0.8	100	0.8	0	0	979.1	NA	0.0000	-SN	9999	4530	0	0	0
2019/05/10 05:31:00	BASE	26.70	10	29.63	8	0.8	100	0.8	0	0	979.0	NA	0.0000	-SN	8000	0	0	0	1640
2019/05/10 05:32:00	BASE	26.96	9	29.63	8	0.8	100	0.8	0	0	978.9	NA	0.0000	-SN	6000	2590	4460	0	0
2019/05/10 05:33:00	BASE	27.49	9	30.04	10	0.9	100	0.9	0	0	978.9	NA	0.0000	-SN	9999	2790	4490	0	0
2019/05/10 05:34:00	BASE	27.55	10	30.04	10	0.9	100	0.9	0	0	978.9	NA	0.0000	-SN	7000	4270	0	0	0
2019/05/10 05:35:00	BASE	26.93	12	30.04	10	0.9	100	0.9	0	0	978.9	NA	0.0000	-SN	9999	3940	0	0	0
2019/05/10 05:36:00	BASE	27.08	12	30.40	5	0.9	100	0.9	0	0	978.8	NA	0.0000	-SN	9999	3940	0	0	0
2019/05/10 05:37:00	BASE	27.47	10	30.40	5	1.0	100	1.0	0	0	978.8	NA	0.0000	-SN	9999	3770	0	0	0
2019/05/10 05:38:00	BASE	26.94	9	30.40	5	1.0	100	1.0	0	0	978.8	NA	0.0000	-SN	9999	3770	0	0	0
2019/05/10 05:39:00	BASE	26.06	9	30.40	5	1.0	100	1.0	0	0	978.9	NA	0.0000	-SN	9999	3710	0	0	0
2019/05/10 05:40:00	BASE	25.92	9	30.40	5	1.0	100	1.0	0	0	978.8	NA	0.0000	-SN	9999	3640	0	0	0
2019/05/10 05:41:00	BASE	26.07	10	30.40	5	1.0	100	1.0	0	0	978.8	NA	0.0000	-SN	9999	3540	0	0	0
2019/05/10 05:42:00	BASE	26.38	7	30.40	5	1.0	100	1.0	0	0	978.7	NA	0.0000	-SN	9999	3640	0	0	0
2019/05/10 05:43:00	BASE	27.09	8	30.40	5	1.0	100	1.0	0	0	978.8	NA	0.0000	-SN	9999	3670	0	0	0
2019/05/10 05:44:00	BASE	28.04	9	31.28	7	1.1	100	1.1	0	0	978.6	NA	0.0000	-SN	9999	3280	0	0	0
2019/05/10 05:45:00	BASE	28.69	9	31.74	7	1.1	100	1.1	0	0	978.7	NA	0.0000	-SN	9999	2400	0	0	0
2019/05/10 05:46:00	BASE	29.37	11	31.84	10	1.1	100	1.1	0	0	978.7	NA	0.0000	-SN	9999	3250	0	0	0
2019/05/10 05:47:00	BASE	29.16	11	31.84	10	1.2	100	1.2	0	0	978.8	NA	0.0000	-SN	7000	3280	0	0	0
2019/05/10 05:48:00	BASE	28.56	9	31.84	10	1.2	100	1.2	0	0	978.7	NA	0.0000	-SN	9000	3080	0	0	0
2019/05/10 05:49:00	BASE	28.45	8	31.84	10	1.1	100	1.1	0	0	978.8	NA	0.0000	-SN	9999	3180	0	0	0
2019/05/10 05:50:00	BASE	27.71	10	31.84	10	1.1	100	1.1	0	0	978.8	NA	0.0000	-SN	9999	3220	0	0	0
2019/05/10 05:51:00	BASE	28.03	11	31.84	10	1.1	100	1.1	0	0	978.8	NA	0.0000	-SN	9999	2950	0	0	0
2019/05/10 05:52:00	BASE	27.86	11	31.84	10	1.1	100	1.1	0	0	978.9	NA	0.0000	-SN	9999	360	3220	0	0
2019/05/10 05:53:00	BASE	27.37	12	31.84	10	1.1	100	1.1	0	0	978.8	NA	0.0000	-SN	9999	2590	0	0	0
2019/05/10 05:54:00	BASE	27.27	13	31.84	10	1.1	100	1.1	0	0	978.9	NA	0.0000	-SN	9999	2360	3740	0	0
2019/05/10 05:55:00	BASE	27.41	13	31.84	10	1.0	100	1.0	0	0	978.7	NA	0.0000	-SN	9999	2590	4200	0	0
2019/05/10 05:56:00	BASE	27.55	12	30.61	9	1.0	100	1.0	0	0	978.8	NA	0.0000	-SN	9999	2260	0	0	0
2019/05/10 05:57:00	BASE	26.95	14	30.61	9	1.0	100	1.0	0	0	978.8	NA	0.0000	-SN	9999	2130	0	0	0
2019/05/10 05:58:00	BASE	27.43	16	30.51	9	1.0	100	1.0	0	0	978.7	NA	0.0000	-SN	9999	3580	0	0	0
2019/05/10 05:59:00	BASE	27.30	15	30.51	9	1.0	100	1.0	0	0	978.7	NA	0.0000	-SN	9999	2760	3220	0	0
2019/05/10 06:00:00	BASE	26.77	15	30.51	9	1.0	100	1.0	0	0	978.7	NA	0.0000	-SN	9999	2530	0	0	0
2019/05/10 06:01:00	BASE	26.26	15	30.51	9	1.0	100	1.0	0	0	978.8	NA	0.0000	-SN	9999	2300	3480	0	0
2019/05/10 06:02:00	BASE	26.06	13	30.51	9	0.9	100	0.9	0	0	978.7	NA	0.0000	-SN	9999	2660	0	0	0
2019/05/10 06:03:00	BASE	26.48	12	30.51	9	0.9	100	0.9	0	0	978.7	NA	0.0000	-SN	9999	2760	4000	0	0
2019/05/10 06:04:00	BASE	26.64	12	30.40	10	0.9	100	0.9	0	0	978.6	NA	0.0000	-SN	9999	2530	0	0	0
2019/05/10 06:05:00	BASE	26.43	12	30.40	10	1.0	100	1.0	0	0	978.7	NA	0.0000	-SN	9999	0	0	0	4000
2019/05/10 06:06:00	BASE	26.15	11	30.40	10	1.0	100	1.0	0	0	978.6	NA	0.0000	-SN	9999	750	3840	0	0
2019/05/10 06:07:00	BASE	26.85	10	30.40	10	1.0	100	1.0	0	0	978.6	NA	0.0000	-SN	9999	390	1440	0	0
2019/05/10 06:08:00	BASE	26.27	11	30.09	5	1.0	100	1.0	0	0	978.7	NA	0.0000	-SN	9999	390	2790	0	0
2019/05/10 06:09:00	BASE	25.66	10	30.09	5	1.0	100	1.0	0	0	978.6	NA	0.0000	-SN	7000	300	0	0	0
2019/05/10 06:10:00	BASE	25.25	10	30.09	5	1.0	100	1.0	0	0	978.6	NA	0.0000	-SN	7000	1210	0	0	0
2019/05/10 06:11:00	BASE	24.84	8	30.09	5	1.0	100	1.0	0	0	978.6	NA	0.0000	-SN	9999	1120	0	0	0
2019/05/10 06:12:00	BASE	25.23	8	30.09	5	1.0	100	1.0	0	0	978.6	NA	0.0000	-SN	9999	1210	0	0	0
2019/05/10 06:13:00	BASE	25.52	11	30.09	5	1.0	100	1.0	0	0	978.6	NA	0.0000	-SN	9999	390	0	0	0
2019/05/10 06:14:01	BASE	26.23	12	28.71	6	1.0	100	1.0	0	0	978.5	NA	0.0000	-SN	9999	360	0	0	0
2019/05/10 06:15:00	BASE	27.12	12	28.71	14	1.0	100	1.0	0	0	978.5	NA	0.0000	-SN	9999	360	0	0	0
2019/05/10 06:16:00	BASE	27.36	12	29.58	19	1.0	100	1.0	0	0	978.5	NA	0.0000	-SN	9999	390	0	0	0
2019/05/10 06:17:00	BASE	27.92	12	31.33	14	1.0	100	1.0	0	0	978.4	NA	0.0000	-SN	9999	980	0	0	0
2019/05/10 06:18:00	BASE	28.13	13	31.33	14	1.0	100	1.0	0	0	978.4	NA	0.0000	-SN	9999	890	0	0	0
2019/05/10 06:19:00	BASE	27.85	12	31.33	14	1.0	100	1.0	0	0	978.4	NA	0.0000	-SN	9999	850	0	0	0
2019/05/10 06:20:00	BASE	27.59	13	31.33	14	1.0	100	1.0	0	0	978.4	NA	0.0000	-SN	9999	980	0	0	0
2019/05/10 06:21:00	BASE	27.54	12	31.33	14	0.9	100	0.9	0	0	978.3	NA	0.0000	-SN	9999	890	0	0	0
2019/05/10 06:22:00	BASE	27.06	11	31.33	14	0.9	100	0.9	0	0	978.4	NA	0.0000	-SN	9999	980	0	0	0
2019/05/10 06:23:00	BASE	26.23	11	31.33	14	0.9	100	0.9	0	0	978.4	NA	0.0000	-SN	9999	1020	0	0	0
2019/05/10 06:24:00	BASE	25.75	11	31.33	14	0.9	100	0.9	0	0	978.4	NA	0.0000	-SN	9999	980	0	0	0
2019/05/10 06:25:00	BASE	25.48	12	31.33	14	0.9	100	0.9	0	0	978.4	NA	0.0000	-SN	9999	980	3640	0	0
2019/05/10 06:26:00	BASE	27.00	14	31.33	14	0.9	100	0.9	0	0	978.2	NA	0.0000	-SN	9999	920	3510	0	0
2019/05/10 06:27:00	BASE	27.72	13	30.61	12	0.8	100	0.8	0	0	978.2	NA	0.0000	-SN	9999	1020	0	0	0
2019/05/10 06:28:00	BASE	27.15	13	30.61	12	0.8	100	0.8	0	0	978.3	NA	0.0000	-SN	9999	980	3580	0	0
2019/05/10 06:29:01	BASE	26.49	14	30.61	12	0.8	100	0.8	0	0	978.2	NA	0.0000	-SN	9999	1080	0	0	0
2019/05/10 06:30:01	BASE	26.19	13	30.61	12	0.8	100	0.8	0	0	978.2	NA	0.0000	-SN	9999	1080	0	0	0
2019/05/10 06:31:00	BASE	27.10	13	30.61	12	0.8	100	0.8	0	0	978.2	NA	0.0000	-SN	9999	390	0	0	0
2019/05/10 06:32:00	BASE	27.02	15	30.61	12	0.8	100	0.8	0	0	978.2	NA	0.0000	-SN	9999	360	0	0	0
2019/05/10 06:33:00	BASE	26.37	14	30.61	12	0.8	100	0.8	0	0	978.2	NA	0.0000	-SN	9999	360	0	0	0
2019/05/10 06:34:00	BASE	26.27	13	30.61	12	0.8	100	0.8	0	0	978.2	NA	0.0000	-SN	9999	360	0	0	0
2019/05/10 06:35:00	BASE	26.98	15	30.61	12	0.8	100	0.8	0	0	978.1	NA	0.0000	-SN	9999	390	0	0	0
2019/05/10 06:36:00	BASE	28.03	15	32.56	10	0.9	100	0.9	0	0	978.1	NA	0.0000	-SN	9999	390	0	0	0
2019/05/10 06:37:00	BASE	28.20	14	32.56	10	0.9	100	0.9	0	0	978.0	NA	0.0000	-SN	9999	1120	0	0	0
2019/05/10 06:38:00	BASE	27.48	11	32.56	10	0.9	100	0.9	0	0	978.1	NA	0.0000	-SN	9999	1150	0	0	0
2019/05/10 06:39:00	BASE	26.90	9	32.56	10	0.9	100	0.9	0	0	978.1	NA	0.0000	-SN	9999	390	0	0	0
2019/05/10 06:40:00	BASE	27.04	8	32.56	10	0.9	100	0.9	0	0	978.1	NA	0.0000	-SN	9999	430	0	0	0
2019/05/10 06:41:00	BASE	26.19	7	32.56	10	0.9	100	0.9	0	0	978.2	NA	0.0000	-SN	9999	390	0	0	0
2019/05/10 06:42:00	BASE	24.61	6	32.56	10	0.9	100	0.9	0	0	978.2	NA	0.0000	-SN	9999	360	0	0	0
2019/05/10 06:43:00	BASE	25.24	3	32.56	10	0.9	100	0.9	0	0	978.2	NA	0.0000	-SN	9999	330	0	0	0
2019/05/10 06:44:00	BASE	25.73	4	32.56	10	0.9	100	0.9	0	0	978.2	NA	0.0000	-SN	9999	260	1310	0	0
2019/05/10 06:45:00	BASE	24.98	6	32.56	10	0.9	100	0.9	0	0	978.2	NA	0.0000	-SN	9999	260	0	0	0
2019/05/10 06:46:00	BASE	23.73	360	30.87	11	1.0	100	1.0	0	0	978.4	NA	0.0000	-SN	9999	330	1380	0	0
2019/05/10 06:47:00	BASE	21.94	359	29.68	12	1.0	100	1.0	0	0	978.4	NA	0.0000	-SN	9999	230	1410	0	0
2019/05/10 06:48:00	BASE	22.03	358	29.68	12	1.0	100	1.0	0	0	978.3	NA	0.0000	-SN	9999	260	0	0	0
2019/05/10 06:49:00	BASE	23.49	354	29.68	12	1.0	100	1.0	0	0	978.2	NA	0.0000	-SN	9999	360	0	0	0
2019/05/10 06:50:00	BASE	25.07	355	29.58	5	1.0	100	1.0	0	0	978.1	NA	0.2540	-SN	9999	300	1350	0	0
2019/05/10 06:51:00	BASE	23.23	355	29.58	5	1.0	100	1.0	0	0	978.3	NA	0.0000	-SN	9999	230	1350	0	0
2019/05/10 06:52:00	BASE	21.61	357	29.58	5	1.0	100	1.0	0	0	978.2	NA	0.0000	-SN	9999	300	0	0	0
2019/05/10 06:53:00	BASE	22.72	359	28.55	5	1.0	100	1.0	0	0	978.2	NA	0.0000	-SN	9999	260	0	0	0
2019/05/10 06:54:00	BASE	23.30	1	28.55	5	1.0	100	1.0	0	0	978.1	NA	0.0000	-SN	9999	300	1540	0	0
2019/05/10 06:55:00	BASE	23.69	1	28.50	2	1.0	100	1.0	0	0	978.1	NA	0.0000	-SN	9999	260	0	0	0
2019/05/10 06:56:00	BASE	24.18	360	28.50	2	0.9	100	0.9	0	0	978.0	NA	0.0000	-SN	9999	230	0	0	0
2019/05/10 06:57:00	BASE	24.63	357	28.71	352	0.9	100	0.9	0	0	978.0	NA	0.0000	-SN	9999	0	0	0	3050
2019/05/10 06:58:00	BASE	24.16	1	28.71	352	0.9	100	0.9	0	0	978.0	NA	0.0000	-SN	9999	0	0	0	2950
2019/05/10 06:59:00	BASE	23.65	4	28.71	352	0.9	100	0.9	0	0	977.9	NA	0.0000	-SN	9999	0	0	0	2850
2019/05/10 07:00:00	BASE	23.78	1	28.71	352	0.9	100	0.9	0	0	977.9	NA	0.0000	-SN	9999	0	0	0	3840
2019/05/10 07:01:00	BASE	23.20	3	28.71	352	0.9	100	0.9	0	0	977.9	NA	0.0000	-SN	9999	0	0	0	4100
2019/05/10 07:02:00	BASE	23.30	1	28.71	352	0.9	100	0.9	0	0	977.9	NA	0.0000	-SN	9999	0	0	0	4330
2019/05/10 07:03:00	BASE	24.42	356	28.71	352	0.9	100	0.9	0	0	977.8	NA	0.0000	-SN	9999	7250	0	0	0
2019/05/10 07:04:00	BASE	23.74	359	28.71	352	0.9	100	0.9	0	0	977.9	NA	0.0000	-SN	9999	1440	7220	0	0
2019/05/10 07:05:00	BASE	23.01	357	28.71	352	0.9	100	0.9	0	0	977.9	NA	0.0000		9999	1310	0	0	0
2019/05/10 07:06:00	BASE	23.09	352	28.71	352	1.0	100	1.0	0	0	977.9	NA	0.0000		9999	6960	0	0	0
2019/05/10 07:07:00	BASE	21.94	351	28.24	2	1.0	100	1.0	0	0	977.9	NA	0.0000		9999	1250	0	0	0
2019/05/10 07:08:00	BASE	22.23	355	28.24	2	1.0	100	1.0	0	0	977.8	NA	0.0000		9999	1150	0	0	0
2019/05/10 07:09:00	BASE	21.67	353	28.24	2	1.0	100	1.0	0	0	977.9	NA	0.0000		9999	1250	6760	0	0
2019/05/10 07:10:00	BASE	21.14	352	28.24	2	1.0	100	1.0	0	0	977.7	NA	0.0000		9999	1210	0	0	0
2019/05/10 07:11:00	BASE	22.51	350	28.24	2	1.0	100	1.0	0	0	977.7	NA	0.0000		9999	1120	0	0	0
2019/05/10 07:12:00	BASE	22.18	346	28.24	2	1.0	100	1.0	0	0	977.7	NA	0.0000		9999	1180	0	0	0
2019/05/10 07:13:00	BASE	23.14	352	27.27	354	1.0	100	1.0	0	0	977.6	NA	0.0000		9999	1150	6500	0	0
2019/05/10 07:14:00	BASE	24.27	354	27.27	354	1.0	100	1.0	0	0	977.6	NA	0.0000		9999	6430	0	0	0
2019/05/10 07:15:00	BASE	23.78	356	27.27	354	1.0	100	1.0	0	0	977.5	NA	0.0000		9999	1050	0	0	0
2019/05/10 07:16:00	BASE	23.42	354	27.27	354	1.0	100	1.0	0	0	977.6	NA	0.0000		9999	980	7020	0	0
2019/05/10 07:17:00	BASE	24.95	346	28.09	354	1.0	100	1.0	0	0	977.4	NA	0.0000		9999	1050	6860	0	0
2019/05/10 07:18:00	BASE	25.23	351	28.09	354	1.0	100	1.0	0	0	977.5	NA	0.0000		9999	950	0	0	0
2019/05/10 07:19:00	BASE	23.87	358	28.09	354	1.0	100	1.0	0	0	977.5	NA	0.0000		9999	920	0	0	0
2019/05/10 07:20:00	BASE	23.62	358	28.09	354	1.0	100	1.0	0	0	977.5	NA	0.0000		9999	820	0	0	0
2019/05/10 07:21:00	BASE	23.34	354	28.09	354	1.0	100	1.0	0	0	977.5	NA	0.0000		9999	790	0	0	0
2019/05/10 07:22:00	BASE	22.17	353	28.09	354	1.0	100	1.0	0	0	977.5	NA	0.0000		9999	790	0	0	0
2019/05/10 07:23:00	BASE	22.88	360	28.09	354	0.9	100	0.9	0	0	977.3	NA	0.0000		9999	820	0	0	0
2019/05/10 07:24:00	BASE	25.07	1	29.32	4	0.9	100	0.9	0	0	977.3	NA	0.0000		9999	590	0	0	0
2019/05/10 07:25:00	BASE	25.92	1	29.58	360	0.9	100	0.9	0	0	977.3	NA	0.0000		9999	560	0	0	0
2019/05/10 07:26:00	BASE	26.41	2	29.58	360	0.9	100	0.9	0	0	977.3	NA	0.0000		9999	590	0	0	0
2019/05/10 07:27:00	BASE	26.61	360	29.58	360	0.9	100	0.9	0	0	977.2	NA	0.0000		9999	490	0	0	0
2019/05/10 07:28:00	BASE	26.41	0	29.58	360	0.9	100	0.9	0	0	977.2	NA	0.0000		9999	430	0	0	0
2019/05/10 07:29:00	BASE	27.05	2	30.40	1	0.9	100	0.9	0	0	977.1	NA	0.0000		9999	460	0	0	0
2019/05/10 07:30:00	BASE	27.89	360	30.40	1	0.9	100	0.9	0	0	977.1	NA	0.0000		9999	390	0	0	0
2019/05/10 07:31:00	BASE	27.52	0	30.46	2	0.8	100	0.8	0	0	977.1	NA	0.0000		9999	430	0	0	0
2019/05/10 07:32:00	BASE	26.74	2	30.46	2	0.8	100	0.8	0	0	977.1	NA	0.0000		9999	390	0	0	0
2019/05/10 07:33:00	BASE	25.69	5	30.46	2	0.8	100	0.8	0	0	977.2	NA	0.0000		9999	430	0	0	0
2019/05/10 07:34:00	BASE	25.11	6	30.46	2	0.8	100	0.8	0	0	977.1	NA	0.0000		9999	430	0	0	0
2019/05/10 07:35:00	BASE	26.04	2	30.46	2	0.8	100	0.8	0	0	977.0	NA	0.0000		9999	560	0	0	0
2019/05/10 07:36:00	BASE	26.32	3	30.46	2	0.8	100	0.8	0	0	977.1	NA	0.0000		9999	430	0	0	0
2019/05/10 07:37:00	BASE	24.87	4	30.46	2	0.8	100	0.8	0	0	977.1	NA	0.0000		9999	430	0	0	0
2019/05/10 07:38:00	BASE	24.83	3	30.46	2	0.8	100	0.8	0	0	977.0	NA	0.0000		9999	430	0	0	0
2019/05/10 07:39:00	BASE	25.58	2	30.46	2	0.8	100	0.8	0	0	976.9	NA	0.0000		9999	360	0	0	0
2019/05/10 07:40:00	BASE	27.09	2	32.98	6	0.8	100	0.8	0	0	976.8	NA	0.0000		9999	330	0	0	0
2019/05/10 07:41:00	BASE	28.18	3	32.98	6	0.8	100	0.8	0	0	976.8	NA	0.0000		9999	330	0	0	0
2019/05/10 07:42:00	BASE	27.59	2	32.98	6	0.8	100	0.8	0	0	976.8	NA	0.0000		9999	330	0	0	0
2019/05/10 07:43:00	BASE	26.62	5	32.98	6	0.8	100	0.8	0	0	976.8	NA	0.0000		9999	330	0	0	0
2019/05/10 07:44:00	BASE	26.85	5	32.98	6	0.8	100	0.8	0	0	976.7	NA	0.0000		9999	330	0	0	0
2019/05/10 07:45:00	BASE	27.69	3	32.98	6	0.8	100	0.8	0	0	976.7	NA	0.0000	UP	9999	300	0	0	0
2019/05/10 07:46:00	BASE	28.03	6	32.98	6	0.8	100	0.8	0	0	976.6	NA	0.0000	UP	9999	230	0	0	0
2019/05/10 07:47:00	BASE	28.01	6	32.98	6	0.7	100	0.7	0	0	976.6	NA	0.0000	UP	9999	300	0	0	0
2019/05/10 07:48:00	BASE	26.21	4	32.98	6	0.7	100	0.7	0	0	976.7	NA	0.0000	UP	9999	330	0	0	0
2019/05/10 07:49:00	BASE	25.67	3	32.98	6	0.7	100	0.7	0	0	976.6	NA	0.0000	UP	9999	360	0	0	0
2019/05/10 07:50:00	BASE	27.04	2	30.56	3	0.7	100	0.7	0	0	976.5	NA	0.0000	UP	9999	330	0	0	0
2019/05/10 07:51:00	BASE	26.48	2	30.56	3	0.7	100	0.7	0	0	976.6	NA	0.0000	UP	9999	300	0	0	0
2019/05/10 07:52:00	BASE	24.95	359	30.56	3	0.7	100	0.7	0	0	976.6	NA	0.0000	UP	9999	330	0	0	0
2019/05/10 07:53:00	BASE	23.95	354	30.56	3	0.7	100	0.7	0	0	976.6	NA	0.0000	UP	9999	330	0	0	0
2019/05/10 07:54:00	BASE	24.19	356	30.35	3	0.7	100	0.7	0	0	976.5	NA	0.0000	UP	9999	330	0	0	0
2019/05/10 07:55:00	BASE	24.44	357	30.35	3	0.7	100	0.7	0	0	976.5	NA	0.0000	UP	9999	360	0	0	0
2019/05/10 07:56:00	BASE	23.08	354	29.79	360	0.8	100	0.8	0	0	976.6	NA	0.0000	UP	9999	330	0	0	0
2019/05/10 07:57:00	BASE	22.98	352	29.32	360	0.8	100	0.8	0	0	976.5	NA	0.0000	UP	9999	330	0	0	0
2019/05/10 07:58:00	BASE	22.63	354	29.32	360	0.8	100	0.8	0	0	976.6	NA	0.0000	UP	9999	360	0	0	0
2019/05/10 07:59:00	BASE	22.11	2	29.32	360	0.8	100	0.8	0	0	976.5	NA	0.0000	UP	9999	360	0	0	0
2019/05/10 08:00:00	BASE	22.84	4	28.50	360	0.8	100	0.8	0	0	976.5	NA	0.0000	UP	9999	0	0	0	6300
2019/05/10 08:01:00	BASE	24.10	354	28.50	350	0.8	100	0.8	0	0	976.3	NA	0.0000	-SN	9999	360	0	0	0
2019/05/10 08:02:00	BASE	24.78	355	28.50	350	0.8	100	0.8	0	0	976.4	NA	0.0000	-SN	9999	0	0	0	7120
2019/05/10 08:03:00	BASE	23.88	358	28.50	350	0.8	100	0.8	0	0	976.4	NA	0.0000	-SN	9999	1250	0	0	0
2019/05/10 08:04:00	BASE	24.81	356	28.86	1	0.8	100	0.8	0	0	976.3	NA	0.0000	-SN	9999	1180	0	0	0
2019/05/10 08:05:00	BASE	25.28	358	28.86	1	0.8	100	0.8	0	0	976.3	NA	0.0000	-SN	9999	1050	0	0	0
2019/05/10 08:06:00	BASE	23.68	3	28.86	1	0.8	100	0.8	0	0	976.3	NA	0.0000	-SN	9999	1080	0	0	0
2019/05/10 08:07:00	BASE	23.40	4	28.86	1	0.8	100	0.8	0	0	976.3	NA	0.0000	-SN	9999	980	0	0	0
2019/05/10 08:08:00	BASE	23.20	357	28.86	1	0.8	100	0.8	0	0	976.3	NA	0.0000	-SN	9999	430	0	0	0
2019/05/10 08:09:00	BASE	23.78	355	28.86	1	0.8	100	0.8	0	0	976.2	NA	0.0000	-SN	9999	0	0	0	4200
2019/05/10 08:10:00	BASE	23.68	357	28.86	1	0.8	100	0.8	0	0	976.2	NA	0.0000	-SN	9999	0	0	0	4300
2019/05/10 08:11:00	BASE	22.71	357	28.86	1	0.9	100	0.9	0	0	976.2	NA	0.0000	-SN	9999	0	0	0	4230
2019/05/10 08:12:00	BASE	23.78	357	28.86	1	0.9	100	0.9	0	0	976.1	NA	0.0000	-SN	9999	390	0	0	0
2019/05/10 08:13:00	BASE	24.44	357	28.86	1	0.9	100	0.9	0	0	976.1	NA	0.0000	-SN	9999	330	0	0	0
2019/05/10 08:14:00	BASE	24.32	358	27.93	354	0.9	100	0.9	0	0	976.1	NA	0.0000	-SN	9999	300	0	0	0
2019/05/10 08:15:00	BASE	23.89	1	27.93	354	0.9	100	0.9	0	0	976.1	NA	0.0000	-SN	9999	0	0	0	3940
2019/05/10 08:16:00	BASE	24.54	2	28.40	1	0.8	100	0.8	0	0	976.0	NA	0.0000	-SN	9999	360	0	0	0
2019/05/10 08:17:00	BASE	25.93	358	28.40	1	0.8	100	0.8	0	0	976.0	NA	0.0000	-SN	9999	360	0	0	0
2019/05/10 08:18:00	BASE	26.44	358	30.61	10	0.8	100	0.8	0	0	975.9	NA	0.0000	-SN	9999	0	0	0	3280
2019/05/10 08:19:00	BASE	26.76	356	30.61	10	0.8	100	0.8	0	0	975.9	NA	0.0000	-SN	9999	0	0	0	3480
2019/05/10 08:20:00	BASE	25.83	358	30.61	10	0.8	100	0.8	0	0	975.9	NA	0.0000	-SN	9999	430	0	0	0
2019/05/10 08:21:00	BASE	25.85	0	30.61	10	0.8	100	0.8	0	0	975.8	NA	0.0000	-SN	9999	0	0	0	2790
2019/05/10 08:22:00	BASE	26.35	1	30.61	10	0.8	100	0.8	0	0	975.9	NA	0.0000	-SN	9999	390	0	0	0
2019/05/10 08:23:00	BASE	25.35	1	30.61	10	0.9	100	0.9	0	0	975.9	NA	0.0000	-SN	9999	1180	0	0	0
2019/05/10 08:24:00	BASE	24.41	358	30.61	10	0.9	100	0.9	0	0	976.0	NA	0.0000	-SN	9999	7710	0	0	0
2019/05/10 08:25:00	BASE	24.41	360	30.61	10	0.9	100	0.9	0	0	975.9	NA	0.0000	-SN	9999	1050	0	0	0
2019/05/10 08:26:00	BASE	25.66	359	30.61	10	0.9	100	0.9	0	0	975.8	NA	0.0000	-SN	9999	1080	2030	0	0
2019/05/10 08:27:00	BASE	25.78	356	30.61	10	0.9	100	0.9	0	0	975.8	NA	0.0000	-SN	9999	390	0	0	0
2019/05/10 08:28:00	BASE	25.80	1	29.89	360	0.9	100	0.9	0	0	975.8	NA	0.0000	-SN	9999	0	0	0	3120
2019/05/10 08:29:00	BASE	25.66	4	29.89	360	0.9	100	0.9	0	0	975.8	NA	0.0000	-SN	9999	0	0	0	2720
2019/05/10 08:30:00	BASE	25.58	2	29.89	360	0.9	100	0.9	0	0	975.8	NA	0.0000	-SN	9999	0	0	0	2720
2019/05/10 08:31:00	BASE	26.69	1	29.84	347	0.9	100	0.9	0	0	975.7	NA	0.0000	-SN	9999	300	0	0	0
2019/05/10 08:32:00	BASE	27.17	358	29.84	347	0.9	100	0.9	0	0	975.6	NA	0.0000	-SN	9999	0	0	0	2460
2019/05/10 08:33:00	BASE	26.73	355	29.84	347	0.9	100	0.9	0	0	975.7	NA	0.0000	-SN	9999	330	0	0	0
2019/05/10 08:34:01	BASE	26.03	0	29.79	6	0.9	100	0.9	0	0	975.7	NA	0.0000	-SN	9999	260	0	0	0
2019/05/10 08:35:00	BASE	25.05	1	29.79	6	0.9	100	0.9	0	0	975.8	NA	0.0000	-SN	9999	0	0	0	1800
2019/05/10 08:36:00	BASE	24.23	359	29.79	6	0.8	100	0.8	0	0	975.8	NA	0.0000	-SN	9999	0	0	0	2170
2019/05/10 08:37:00	BASE	23.03	360	29.79	6	0.8	100	0.8	0	0	975.8	NA	0.0000	-SN	9999	0	0	0	2230
2019/05/10 08:38:00	BASE	22.15	360	29.79	6	0.8	100	0.8	0	0	975.9	NA	0.0000	-SN	9000	0	0	0	2330
2019/05/10 08:39:00	BASE	23.55	359	29.79	6	0.8	100	0.8	0	0	975.8	NA	0.0000	-SN	9999	0	0	0	2170
2019/05/10 08:40:00	BASE	23.80	358	29.79	6	0.8	100	0.8	0	0	975.8	NA	0.0000	-SN	9000	0	0	0	2070
2019/05/10 08:41:00	BASE	23.80	355	29.79	6	0.8	100	0.8	0	0	975.7	NA	0.0000	-SN	9000	0	0	0	2200
2019/05/10 08:42:00	BASE	25.38	355	29.37	360	0.8	100	0.8	0	0	975.7	NA	0.2540	-SN	9999	0	0	0	2230
2019/05/10 08:43:00	BASE	25.32	355	27.99	355	0.8	100	0.8	0	0	975.7	NA	0.0000	-SN	9999	0	0	0	3050
2019/05/10 08:44:00	BASE	25.02	357	28.86	6	0.8	100	0.8	0	0	975.6	NA	0.0000	-SN	9999	0	0	0	3220
2019/05/10 08:45:00	BASE	25.27	357	28.86	6	0.8	100	0.8	0	0	975.6	NA	0.0000	-SN	9999	0	0	0	2720
2019/05/10 08:46:00	BASE	25.24	354	29.01	1	0.9	100	0.9	0	0	975.6	NA	0.0000	-SN	9000	0	0	0	3150
2019/05/10 08:47:00	BASE	24.58	352	29.01	1	0.9	100	0.9	0	0	975.6	NA	0.0000	-SN	8000	0	0	0	2820
2019/05/10 08:48:00	BASE	25.25	355	30.71	349	0.9	100	0.9	0	0	975.4	NA	0.0000	-SN	9999	0	0	0	2660
2019/05/10 08:49:00	BASE	27.15	352	32.31	352	0.9	100	0.9	0	0	975.3	NA	0.0000	-SN	9000	0	0	0	2490
2019/05/10 08:50:00	BASE	28.39	348	32.31	352	0.9	100	0.9	0	0	975.2	NA	0.0000	-SN	7000	0	0	0	2660
2019/05/10 08:51:00	BASE	29.21	351	34.78	354	1.0	100	1.0	0	0	975.1	NA	0.0000	-SN	9999	0	0	0	2660
2019/05/10 08:52:00	BASE	28.20	353	34.78	354	1.0	100	1.0	0	0	975.2	NA	0.0000	-SN	9999	0	0	0	3380
2019/05/10 08:53:00	BASE	25.59	359	34.78	354	1.0	100	1.0	0	0	975.4	NA	0.0000	-SN	9999	0	0	0	3640
2019/05/10 08:54:00	BASE	25.01	1	34.78	354	1.0	100	1.0	0	0	975.3	NA	0.0000	-SN	9999	0	0	0	3510
2019/05/10 08:55:00	BASE	25.53	360	34.78	354	0.9	100	0.9	0	0	975.3	NA	0.0000	-SN	9999	0	0	0	4040
2019/05/10 08:56:00	BASE	24.80	358	34.78	354	0.9	100	0.9	0	0	975.3	NA	0.0000	-SN	9999	0	0	0	3940
2019/05/10 08:57:00	BASE	24.61	355	34.78	354	0.9	100	0.9	0	0	975.3	NA	0.0000	-SN	9999	0	0	0	3670
2019/05/10 08:58:00	BASE	25.09	359	34.78	354	0.9	100	0.9	0	0	975.2	NA	0.0000	-SN	9999	0	0	0	3410
2019/05/10 08:59:00	BASE	25.77	358	34.78	354	0.9	100	0.9	0	0	975.2	NA	0.0000	-SN	9999	0	0	0	3350
2019/05/10 09:00:00	BASE	24.91	355	34.78	354	0.9	100	0.9	0	0	975.3	NA	0.0000	-SN	9999	0	0	0	3410
2019/05/10 09:01:00	BASE	24.74	355	31.90	354	0.9	100	0.9	0	0	975.2	NA	0.0000	-SN	9999	0	0	0	3580
2019/05/10 09:02:00	BASE	25.17	352	30.76	353	0.9	100	0.9	0	0	975.2	NA	0.0000	-SN	9999	0	0	0	2990
2019/05/10 09:03:00	BASE	25.03	354	30.76	353	0.9	100	0.9	0	0	975.2	NA	0.0000	-SN	9999	0	0	0	2850
2019/05/10 09:04:00	BASE	24.92	357	30.76	353	0.9	100	0.9	0	0	975.2	NA	0.0000	-SN	9999	0	0	0	2690
2019/05/10 09:05:00	BASE	25.59	357	30.76	353	0.9	100	0.9	0	0	975.1	NA	0.0000	-SN	9999	260	0	0	0
2019/05/10 09:06:00	BASE	25.79	0	30.76	353	0.9	100	0.9	0	0	975.2	NA	0.0000	-SN	9999	0	0	0	2690
2019/05/10 09:07:00	BASE	26.26	358	30.76	353	0.9	100	0.9	0	0	975.0	NA	0.0000	-SN	9999	0	0	0	2620
2019/05/10 09:08:00	BASE	26.68	356	30.76	353	0.9	100	0.9	0	0	975.1	NA	0.0000	-SN	9999	0	0	0	2950
2019/05/10 09:09:00	BASE	25.63	352	30.56	3	0.9	100	0.9	0	0	975.1	NA	0.0000	-SN	9999	0	0	0	4170
2019/05/10 09:10:00	BASE	25.37	353	30.56	3	0.9	100	0.9	0	0	975.1	NA	0.0000	-SN	9999	0	0	0	4230
2019/05/10 09:11:00	BASE	24.68	356	30.56	3	0.9	100	0.9	0	0	975.1	NA	0.0000	-SN	9999	0	0	0	4690
2019/05/10 09:12:00	BASE	24.99	354	30.56	3	0.8	100	0.8	0	0	975.0	NA	0.0000	-SN	9999	360	0	0	0
2019/05/10 09:13:00	BASE	26.62	353	30.56	3	0.8	100	0.8	0	0	975.0	NA	0.0000	-SN	9999	0	0	0	4790
2019/05/10 09:14:00	BASE	26.83	356	30.56	3	0.8	100	0.8	0	0	975.0	NA	0.0000	-SN	9999	360	0	0	0
2019/05/10 09:15:00	BASE	26.38	359	30.40	354	0.8	100	0.8	0	0	975.0	NA	0.0000	-SN	9999	360	0	0	0
2019/05/10 09:16:00	BASE	25.63	356	30.40	354	0.8	100	0.8	0	0	975.1	NA	0.0000	-SN	9999	0	0	0	3120
2019/05/10 09:17:00	BASE	24.50	355	30.40	354	0.8	100	0.8	0	0	975.0	NA	0.0000	-SN	9999	0	0	0	4100
2019/05/10 09:18:00	BASE	25.49	354	29.84	321	0.8	100	0.8	0	0	974.9	NA	0.0000	-SN	9999	0	0	0	4690
2019/05/10 09:19:00	BASE	27.20	355	29.84	321	0.8	100	0.8	0	0	974.8	NA	0.0000	-SN	9999	0	0	0	2990
2019/05/10 09:20:00	BASE	25.97	357	29.84	321	0.8	100	0.8	0	0	974.9	NA	0.0000	-SN	9999	0	0	0	2850
2019/05/10 09:21:00	BASE	24.29	357	29.84	321	0.8	100	0.8	0	0	974.8	NA	0.0000	-SN	9999	0	0	0	3670
2019/05/10 09:22:00	BASE	24.67	358	29.94	351	0.8	100	0.8	0	0	974.8	NA	0.0000	-SN	9999	360	0	0	0
2019/05/10 09:23:00	BASE	24.82	359	29.94	351	0.8	100	0.8	0	0	974.9	NA	0.0000	-SN	9999	360	0	0	0
2019/05/10 09:24:00	BASE	25.06	356	29.94	351	0.8	100	0.8	0	0	974.8	NA	0.0000	-SN	9999	390	0	0	0
2019/05/10 09:25:00	BASE	25.89	358	30.20	19	0.8	100	0.8	0	0	974.7	NA	0.0000	-SN	9999	390	0	0	0
2019/05/10 09:26:00	BASE	27.30	3	32.00	16	0.8	100	0.8	0	0	974.6	NA	0.0000	-SN	9999	390	0	0	0
2019/05/10 09:27:00	BASE	27.85	1	32.00	16	0.8	100	0.8	0	0	974.6	NA	0.0000	-SN	9999	0	0	0	4460
2019/05/10 09:28:00	BASE	27.00	359	32.00	16	0.8	100	0.8	0	0	974.7	NA	0.0000	-SN	9999	390	0	0	0
2019/05/10 09:29:00	BASE	26.22	1	32.00	16	0.8	100	0.8	0	0	974.7	NA	0.0000	-SN	9999	0	0	0	4040
2019/05/10 09:30:00	BASE	26.28	1	32.00	16	0.8	100	0.8	0	0	974.6	NA	0.0000	-SN	9999	0	0	0	4100
2019/05/10 09:31:00	BASE	26.62	0	32.72	4	0.8	100	0.8	0	0	974.7	NA	0.0000	-SN	9999	0	0	0	4560
2019/05/10 09:32:00	BASE	27.37	359	32.72	4	0.8	100	0.8	0	0	974.6	NA	0.0000	-SN	9999	0	0	0	4430
2019/05/10 09:33:00	BASE	27.56	358	32.72	4	0.8	100	0.8	0	0	974.6	NA	0.0000	-SN	9999	0	0	0	4630
2019/05/10 09:34:00	BASE	26.33	1	32.72	4	0.8	100	0.8	0	0	974.6	NA	0.0000	-SN	9999	0	0	0	4300
2019/05/10 09:35:00	BASE	25.92	0	32.72	4	0.8	100	0.8	0	0	974.6	NA	0.0000	-SN	9999	0	0	0	4530
2019/05/10 09:36:00	BASE	27.02	2	32.72	4	0.8	100	0.8	0	0	974.5	NA	0.0000	-SN	9999	1510	0	0	0
2019/05/10 09:37:00	BASE	29.46	5	33.95	6	0.8	100	0.8	0	0	974.4	NA	0.0000	-SN	9999	0	0	0	4460
2019/05/10 09:38:00	BASE	29.90	5	33.95	6	0.8	100	0.8	0	0	974.5	NA	0.0000	-SN	9999	1670	0	0	0
2019/05/10 09:39:00	BASE	28.44	5	33.95	6	0.8	100	0.8	0	0	974.5	NA	0.0000	-SN	9999	1670	0	0	0
2019/05/10 09:40:00	BASE	28.32	5	33.95	6	0.8	100	0.8	0	0	974.5	NA	0.0000	-SN	9999	1610	0	0	0
2019/05/10 09:41:00	BASE	27.82	4	33.95	6	0.8	100	0.8	0	0	974.6	NA	0.0000	-SN	9999	1050	0	0	0
2019/05/10 09:42:00	BASE	26.08	1	33.95	6	0.8	100	0.8	0	0	974.6	NA	0.0000	-SN	9999	0	0	0	3970
2019/05/10 09:43:00	BASE	26.17	4	33.95	6	0.8	100	0.8	0	0	974.5	NA	0.0000	-SN	9999	0	0	0	4130
2019/05/10 09:44:00	BASE	27.52	7	33.95	6	0.8	100	0.8	0	0	974.5	NA	0.0000	-SN	9999	0	0	0	4130
2019/05/10 09:45:00	BASE	27.45	6	33.95	6	0.8	100	0.8	0	0	974.4	NA	0.0000	-SN	9999	0	0	0	3940
2019/05/10 09:46:00	BASE	26.72	5	33.95	6	0.8	100	0.8	0	0	974.5	NA	0.0000	-SN	9999	0	0	0	3220
2019/05/10 09:47:00	BASE	26.61	6	30.87	4	0.8	100	0.8	0	0	974.5	NA	0.0000	-SN	9999	0	0	0	3080
2019/05/10 09:48:00	BASE	26.94	7	30.51	7	0.8	100	0.8	0	0	974.5	NA	0.0000	-SN	9999	0	0	0	3120
2019/05/10 09:49:00	BASE	26.56	7	30.51	7	0.8	100	0.8	0	0	974.6	NA	0.0000	-SN	9999	0	0	0	3220
2019/05/10 09:50:00	BASE	26.03	6	30.20	5	0.7	100	0.7	0	0	974.6	NA	0.0000	-SN	9999	0	0	0	3310
2019/05/10 09:51:00	BASE	25.41	5	30.20	5	0.7	100	0.7	0	0	974.6	NA	0.0000	-SN	9999	0	0	0	3350
2019/05/10 09:52:00	BASE	25.20	6	30.20	5	0.7	100	0.7	0	0	974.6	NA	0.0000	-SN	9999	0	0	0	3540
2019/05/10 09:53:00	BASE	25.77	7	30.20	5	0.7	100	0.7	0	0	974.6	NA	0.0000	-SN	9999	0	0	0	3510
2019/05/10 09:54:00	BASE	25.48	7	29.37	7	0.7	100	0.7	0	0	974.6	NA	0.0000	-SN	9999	0	0	0	3450
2019/05/10 09:55:00	BASE	25.38	7	29.37	7	0.8	100	0.8	0	0	974.6	NA	0.0000	-SN	9999	0	0	0	2990
2019/05/10 09:56:00	BASE	26.20	9	29.37	7	0.8	100	0.8	0	0	974.6	NA	0.0000	-SN	9999	0	0	0	3150
2019/05/10 09:57:00	BASE	26.63	10	31.74	6	0.8	100	0.8	0	0	974.5	NA	0.0000	-SN	9999	0	0	0	3940
2019/05/10 09:58:00	BASE	27.73	9	32.26	8	0.8	100	0.8	0	0	974.3	NA	0.0000	-SN	9999	3970	0	0	0
2019/05/10 09:59:00	BASE	28.66	10	32.26	8	0.8	100	0.8	0	0	974.3	NA	0.0000	-SN	9999	3540	0	0	0
2019/05/10 10:00:00	BASE	28.82	11	32.26	8	0.8	100	0.8	0	0	974.3	NA	0.0000	-SN	9999	3610	0	0	0
2019/05/10 10:01:00	BASE	29.25	12	32.26	8	0.8	100	0.8	0	0	974.3	NA	0.0000	-SN	9999	2200	3050	0	0
2019/05/10 10:02:00	BASE	29.17	11	32.26	8	0.8	100	0.8	0	0	974.3	NA	0.0000	-SN	9999	3280	0	0	0
2019/05/10 10:03:00	BASE	27.40	10	32.26	8	0.9	100	0.9	0	0	974.5	NA	0.0000	-SN	9999	3510	6230	0	0
2019/05/10 10:04:00	BASE	25.95	11	32.26	8	0.9	100	0.9	0	0	974.4	NA	0.0000	-SN	9999	3350	0	0	0
2019/05/10 10:05:00	BASE	27.47	11	32.26	8	0.9	100	0.9	0	0	974.3	NA	0.0000	-SN	9999	3150	0	0	0
2019/05/10 10:06:00	BASE	29.55	9	33.13	7	0.9	100	0.9	0	0	974.2	NA	0.0000		9999	8730	10040	0	0
2019/05/10 10:07:00	BASE	28.48	10	33.13	7	0.9	100	0.9	0	0	974.4	NA	0.0000		9999	3580	6270	0	0
2019/05/10 10:08:00	BASE	27.52	12	33.13	7	0.9	100	0.9	0	0	974.3	NA	0.0000		9999	3510	6370	0	0
2019/05/10 10:09:00	BASE	27.35	13	33.13	7	0.9	100	0.9	0	0	974.4	NA	0.0000		9999	3610	6330	0	0
2019/05/10 10:10:00	BASE	27.42	11	33.13	7	0.9	100	0.9	0	0	974.3	NA	0.0000		9999	3610	0	0	0
2019/05/10 10:11:00	BASE	28.54	11	33.13	7	0.9	100	0.9	0	0	974.3	NA	0.0000		9999	3480	0	0	0
2019/05/10 10:12:00	BASE	28.43	11	33.13	7	0.9	100	0.9	0	0	974.4	NA	0.0000		9999	3610	0	0	0
2019/05/10 10:13:00	BASE	28.42	11	33.13	7	0.9	100	0.9	0	0	974.3	NA	0.0000		9999	3380	6330	0	0
2019/05/10 10:14:00	BASE	28.41	11	33.13	7	0.9	100	0.9	0	0	974.4	NA	0.0000		9999	2720	3770	0	0
2019/05/10 10:15:00	BASE	28.33	11	33.13	7	0.9	100	0.9	0	0	974.3	NA	0.0000		9999	3020	0	0	0
2019/05/10 10:16:00	BASE	28.71	12	31.74	14	0.8	100	0.8	0	0	974.3	NA	0.0000		9999	3220	3840	0	0
2019/05/10 10:17:00	BASE	27.87	12	31.74	14	0.8	100	0.8	0	0	974.4	NA	0.0000		9999	2660	3670	0	0
2019/05/10 10:18:00	BASE	26.50	11	31.74	14	0.8	100	0.8	0	0	974.4	NA	0.0000		9999	2790	3940	0	0
2019/05/10 10:19:00	BASE	27.07	11	31.74	14	0.8	100	0.8	0	0	974.4	NA	0.0000		9999	3120	0	0	0
2019/05/10 10:20:00	BASE	27.64	11	31.74	14	0.9	100	0.9	0	0	974.4	NA	0.0000		9999	2660	3310	0	0
2019/05/10 10:21:00	BASE	26.79	11	31.74	14	0.9	100	0.9	0	0	974.4	NA	0.0000		9999	430	3840	0	0
2019/05/10 10:22:00	BASE	26.65	11	31.74	14	0.9	100	0.9	0	0	974.3	NA	0.0000		9999	590	2790	0	0
2019/05/10 10:23:00	BASE	28.16	11	32.98	7	0.9	100	0.9	0	0	974.2	NA	0.0000		9999	3410	0	0	0
2019/05/10 10:24:00	BASE	28.89	12	32.98	7	0.9	100	0.9	0	0	974.3	NA	0.0000		9999	3380	0	0	0
2019/05/10 10:25:00	BASE	27.22	13	32.98	7	0.9	100	0.9	0	0	974.3	NA	0.0000		9999	390	3540	0	0
2019/05/10 10:26:00	BASE	26.89	13	32.98	7	0.9	100	0.9	0	0	974.3	NA	0.0000		9999	3640	0	0	0
2019/05/10 10:27:00	BASE	28.45	14	32.98	7	0.9	100	0.9	0	0	974.2	NA	0.0000		9999	3410	0	0	0
2019/05/10 10:28:00	BASE	27.79	13	32.98	7	0.9	100	0.9	0	0	974.3	NA	0.0000		9999	460	3510	0	0
2019/05/10 10:29:00	BASE	26.58	13	32.98	7	0.9	100	0.9	0	0	974.3	NA	0.0000		9999	3740	0	0	0
2019/05/10 10:30:00	BASE	27.09	12	32.98	7	0.9	100	0.9	0	0	974.2	NA	0.0000		9999	3640	0	0	0
2019/05/10 10:31:00	BASE	27.75	12	32.98	7	0.9	100	0.9	0	0	974.2	NA	0.0000		9999	460	3710	0	0
2019/05/10 10:32:00	BASE	28.33	14	32.98	7	0.9	100	0.9	0	0	974.2	NA	0.0000		9999	3670	0	0	0
2019/05/10 10:33:00	BASE	28.83	14	32.10	15	0.9	100	0.9	0	0	974.1	NA	0.0000		9999	2920	0	0	0
2019/05/10 10:34:00	BASE	30.05	13	32.41	14	0.9	100	0.9	0	0	974.1	NA	0.0000		9999	2760	3450	0	0
2019/05/10 10:35:00	BASE	30.76	14	33.08	12	0.9	100	0.9	0	0	974.0	NA	0.0000		9999	2820	0	0	0
2019/05/10 10:36:00	BASE	30.73	14	33.08	12	0.9	100	0.9	0	0	974.0	NA	0.0000		9999	2790	0	0	0
2019/05/10 10:37:00	BASE	30.17	14	33.08	12	1.0	100	1.0	0	0	974.1	NA	0.0000		9999	2920	0	0	0
2019/05/10 10:38:00	BASE	28.60	14	33.08	12	1.0	100	1.0	0	0	974.1	NA	0.0000		9999	3180	0	0	0
2019/05/10 10:39:00	BASE	27.90	13	33.08	12	1.0	100	1.0	0	0	974.1	NA	0.0000		9999	2890	8400	0	0
2019/05/10 10:40:00	BASE	28.46	13	33.08	12	1.0	100	1.0	0	0	974.0	NA	0.0000		9999	2790	7710	0	0
2019/05/10 10:41:00	BASE	30.81	11	34.00	9	1.0	100	1.0	0	0	973.8	NA	0.0000		9999	7510	0	0	0
2019/05/10 10:42:00	BASE	32.37	10	34.93	10	1.0	100	1.0	0	0	973.8	NA	0.0000		9999	4530	7710	0	0
2019/05/10 10:43:00	BASE	29.81	12	34.93	10	1.0	100	1.0	0	0	974.1	NA	0.0000		9999	3310	4490	0	0
2019/05/10 10:44:00	BASE	27.11	14	34.93	10	1.0	100	1.0	0	0	974.0	NA	0.0000		9999	4330	0	0	0
2019/05/10 10:45:00	BASE	26.79	15	34.93	10	1.0	100	1.0	0	0	974.0	NA	0.0000		9999	4040	0	0	0
2019/05/10 10:46:00	BASE	25.89	16	34.93	10	1.0	100	1.0	0	0	974.1	NA	0.0000		9999	3350	0	0	0
2019/05/10 10:47:00	BASE	25.67	16	34.93	10	0.9	100	0.9	0	0	973.9	NA	0.0000		9999	4070	0	0	0
2019/05/10 10:48:00	BASE	27.37	13	34.93	10	0.9	100	0.9	0	0	973.8	NA	0.0000		9999	4170	7710	0	0
2019/05/10 10:49:00	BASE	28.41	13	34.93	10	0.9	100	0.9	0	0	973.8	NA	0.0000		9999	4170	0	0	0
2019/05/10 10:50:00	BASE	28.19	14	34.93	10	0.9	100	0.9	0	0	973.8	NA	0.0000		9999	3970	0	0	0
2019/05/10 10:51:00	BASE	27.33	14	34.93	10	0.9	100	0.9	0	0	973.9	NA	0.0000		9999	3710	0	0	0
2019/05/10 10:52:00	BASE	25.77	13	30.20	12	0.9	100	0.9	0	0	973.9	NA	0.0000		9999	3970	0	0	0
2019/05/10 10:53:00	BASE	25.01	13	30.20	12	0.9	100	0.9	0	0	973.9	NA	0.0000		9999	3670	0	0	0
2019/05/10 10:54:00	BASE	27.52	13	31.28	10	0.9	100	0.9	0	0	973.6	NA	0.0000		9999	3770	0	0	0
2019/05/10 10:55:00	BASE	28.91	12	31.28	10	0.9	100	0.9	0	0	973.7	NA	0.0000		9999	3940	0	0	0
2019/05/10 10:56:00	BASE	28.15	12	31.28	10	1.0	100	1.0	0	0	973.7	NA	0.0000		9999	2820	3770	0	0
2019/05/10 10:57:00	BASE	26.69	14	31.28	10	1.0	100	1.0	0	0	973.7	NA	0.0000		9999	4400	0	0	0
2019/05/10 10:58:00	BASE	24.89	15	31.28	10	1.0	100	1.0	0	0	973.8	NA	0.0000		9999	7020	0	0	0
2019/05/10 10:59:00	BASE	25.25	16	31.28	10	1.0	100	1.0	0	0	973.7	NA	0.0000		9999	0	0	0	750
2019/05/10 11:00:00	BASE	27.66	16	32.41	19	1.0	100	1.0	0	0	973.6	NA	0.0000		9999	0	0	0	590
2019/05/10 11:01:00	BASE	29.18	15	32.41	19	1.0	100	1.0	0	0	973.6	NA	0.0000		9999	0	0	0	850
2019/05/10 11:02:00	BASE	27.91	12	32.41	19	1.0	100	1.0	0	0	973.6	NA	0.0000		9999	0	0	0	750
2019/05/10 11:03:00	BASE	26.84	12	32.41	19	1.0	100	1.0	0	0	973.6	NA	0.0000		9999	3220	0	0	0
2019/05/10 11:04:00	BASE	26.70	12	32.41	19	1.0	100	1.0	0	0	973.5	NA	0.0000		9999	3220	0	0	0
2019/05/10 11:05:00	BASE	26.72	11	32.41	19	1.0	100	1.0	0	0	973.5	NA	0.0000		9999	3280	0	0	0
2019/05/10 11:06:00	BASE	27.29	11	32.41	19	1.0	100	1.0	0	0	973.4	NA	0.0000		9999	2560	3150	0	0
2019/05/10 11:07:00	BASE	27.00	12	32.41	19	1.0	100	1.0	0	0	973.5	NA	0.0000		9999	2790	0	0	0
2019/05/10 11:08:00	BASE	26.73	14	32.41	19	1.0	100	1.0	0	0	973.4	NA	0.0000		9999	3080	0	0	0
2019/05/10 11:09:00	BASE	27.72	16	32.41	19	1.0	100	1.0	0	0	973.3	NA	0.0000		9999	3220	0	0	0
2019/05/10 11:10:00	BASE	27.72	16	31.33	15	1.0	100	1.0	0	0	973.3	NA	0.0000		9999	3020	0	0	0
2019/05/10 11:11:00	BASE	27.49	15	32.20	12	1.0	100	1.0	0	0	973.3	NA	0.0000		9999	3220	0	0	0
2019/05/10 11:12:00	BASE	26.67	15	32.20	12	1.0	100	1.0	0	0	973.4	NA	0.0000		9999	2460	0	0	0
2019/05/10 11:13:00	BASE	26.15	16	32.20	12	1.1	100	1.1	0	0	973.3	NA	0.0000		9999	2720	0	0	0
2019/05/10 11:14:00	BASE	26.66	17	32.20	12	1.1	100	1.1	0	0	973.2	NA	0.0000		9999	3180	0	0	0
2019/05/10 11:15:00	BASE	26.33	18	32.20	12	1.1	100	1.1	0	0	973.2	NA	0.0000		9999	3180	0	0	0
2019/05/10 11:16:00	BASE	26.21	20	32.20	12	1.1	100	1.1	0	0	973.2	NA	0.0000		9999	3120	0	0	0
2019/05/10 11:17:00	BASE	26.07	20	32.20	12	1.1	100	1.1	0	0	973.2	NA	0.0000		9999	0	0	0	660
2019/05/10 11:18:00	BASE	25.13	22	32.20	12	1.1	100	1.1	0	0	973.2	NA	0.0000		9999	0	0	0	660
2019/05/10 11:19:00	BASE	26.50	21	32.20	12	1.1	100	1.1	0	0	973.0	NA	0.0000		9999	0	0	0	590
2019/05/10 11:20:00	BASE	28.08	20	32.20	12	1.0	100	1.0	0	0	973.0	NA	0.0000		9999	2950	0	0	0
2019/05/10 11:21:00	BASE	28.84	21	32.82	17	1.0	100	1.0	0	0	972.9	NA	0.0000	UP	9999	0	0	0	5090
2019/05/10 11:22:00	BASE	29.31	20	32.82	17	1.0	100	1.0	0	0	972.9	NA	0.0000	UP	9999	0	0	0	3180
2019/05/10 11:23:00	BASE	28.89	20	32.82	17	1.0	100	1.0	0	0	972.9	NA	0.0000	UP	9999	590	0	0	0
2019/05/10 11:24:00	BASE	29.24	20	32.82	17	1.1	100	1.1	0	0	972.9	NA	0.0000	UP	8000	300	0	0	0
2019/05/10 11:25:00	BASE	28.76	18	33.03	23	1.1	100	1.1	0	0	973.0	NA	0.0000	-SN	5000	0	0	0	2360
2019/05/10 11:26:00	BASE	28.72	17	33.03	23	1.0	100	1.0	0	0	972.9	NA	0.0000	-SN BR	4500	0	0	0	2690
2019/05/10 11:27:00	BASE	28.35	18	33.03	23	1.0	100	1.0	0	0	973.0	NA	0.0000	-SN BR	4900	0	0	0	2590
2019/05/10 11:28:00	BASE	27.55	20	33.03	23	1.0	100	1.0	0	0	972.9	NA	0.0000	-SN BR	7000	260	0	0	0
2019/05/10 11:29:00	BASE	27.85	21	33.03	23	1.0	100	1.0	0	0	972.9	NA	0.0000	-SN BR	6000	300	0	0	0
2019/05/10 11:30:00	BASE	28.35	21	33.03	23	1.0	100	1.0	0	0	972.7	NA	0.0000	-SN BR	6000	0	0	0	3670
2019/05/10 11:31:00	BASE	28.87	20	33.03	23	1.0	100	1.0	0	0	972.7	NA	0.0000	-SN BR	7000	0	0	0	3150
2019/05/10 11:32:00	BASE	28.73	21	33.03	23	1.0	100	1.0	0	0	972.7	NA	0.0000	-SN BR	9000	0	0	0	3380
2019/05/10 11:33:00	BASE	27.55	21	33.03	23	1.0	100	1.0	0	0	972.7	NA	0.0000	-SN BR	9999	0	0	0	3280
2019/05/10 11:34:00	BASE	27.85	21	33.03	23	1.0	100	1.0	0	0	972.6	NA	0.0000	-SN BR	8000	360	0	0	0
2019/05/10 11:35:00	BASE	28.55	21	32.36	31	1.0	100	1.0	0	0	972.6	NA	0.0000	-SN BR	6000	0	0	0	2720
2019/05/10 11:36:00	BASE	27.01	22	32.36	31	1.0	100	1.0	0	0	972.7	NA	0.0000	-SN BR	4800	0	0	0	2760
2019/05/10 11:37:00	BASE	25.73	22	32.36	31	1.1	100	1.1	0	0	972.7	NA	0.0000	-SN BR	4100	0	0	0	2490
2019/05/10 11:38:00	BASE	25.75	22	32.36	31	1.1	100	1.1	0	0	972.6	NA	0.0000	-SN BR	3700	0	0	0	2130
2019/05/10 11:39:00	BASE	25.85	22	31.84	22	1.1	100	1.1	0	0	972.6	NA	0.0000	-SN BR	3300	260	0	0	0
2019/05/10 11:40:00	BASE	25.76	23	31.54	25	1.1	100	1.1	0	0	972.6	NA	0.0000	-SN BR	3200	230	0	0	0
2019/05/10 11:41:00	BASE	25.98	24	30.97	22	1.1	100	1.1	0	0	972.5	NA	0.0000	-SN BR	3700	230	0	0	0
2019/05/10 11:42:00	BASE	27.13	25	30.97	22	1.1	100	1.1	0	0	972.4	NA	0.2540	-SN BR	3900	0	0	0	2170
2019/05/10 11:43:00	BASE	27.64	25	30.97	22	1.1	100	1.1	0	0	972.4	NA	0.0000	-SN BR	3700	0	0	0	2230
2019/05/10 11:44:00	BASE	27.00	24	30.56	25	1.1	100	1.1	0	0	972.4	NA	0.0000	-SN BR	3400	0	0	0	1940
2019/05/10 11:45:00	BASE	26.56	25	30.87	29	1.1	100	1.1	0	0	972.4	NA	0.0000	-SN BR	3200	0	0	0	2100
2019/05/10 11:46:00	BASE	25.40	25	30.87	29	1.1	100	1.1	0	0	972.4	NA	0.0000	-SN BR	3400	0	0	0	2230
2019/05/10 11:47:00	BASE	25.46	24	30.87	29	1.1	100	1.1	0	0	972.3	NA	0.0000	-SN BR	4200	0	0	0	2460
2019/05/10 11:48:00	BASE	27.52	24	31.48	27	1.1	100	1.1	0	0	972.2	NA	0.0000	-SN BR	5000	0	0	0	2400
2019/05/10 11:49:00	BASE	28.29	23	31.48	27	1.1	100	1.1	0	0	972.2	NA	0.0000	-SN BR	6000	0	0	0	2560
2019/05/10 11:50:00	BASE	27.10	22	31.48	27	1.1	100	1.1	0	0	972.3	NA	0.0000	-SN BR	7000	0	0	0	2890
2019/05/10 11:51:00	BASE	26.29	24	31.48	27	1.1	100	1.1	0	0	972.2	NA	0.0000	-SN BR	7000	0	0	0	3120
2019/05/10 11:52:00	BASE	27.51	26	32.51	31	1.1	100	1.1	0	0	972.1	NA	0.0000	-SN BR	7000	0	0	0	3310
2019/05/10 11:53:00	BASE	27.33	25	32.51	31	1.1	100	1.1	0	0	972.2	NA	0.0000	-SN BR	6000	0	0	0	3150
2019/05/10 11:54:00	BASE	26.40	23	32.51	31	1.1	100	1.1	0	0	972.1	NA	0.0000	-SN BR	6000	0	0	0	3120
2019/05/10 11:55:00	BASE	27.21	23	32.51	31	1.1	100	1.1	0	0	972.1	NA	0.0000	-SN BR	9000	0	0	0	3350
2019/05/10 11:56:00	BASE	26.01	24	32.51	31	1.1	100	1.1	0	0	972.2	NA	0.0000	-SN BR	9999	0	0	0	3150
2019/05/10 11:57:00	BASE	25.62	23	32.51	31	1.2	100	1.2	0	0	972.1	NA	0.0000	-SN BR	9999	0	0	0	3410
2019/05/10 11:58:00	BASE	27.30	22	32.51	31	1.2	100	1.2	0	0	972.1	NA	0.0000	-SN BR	9999	0	0	0	3580
2019/05/10 11:59:00	BASE	27.59	23	32.51	31	1.2	100	1.2	0	0	972.0	NA	0.0000	-SN BR	9999	0	0	0	3350
2019/05/10 12:00:00	BASE	29.00	24	33.95	23	1.2	100	1.2	0	0	971.9	NA	0.0000	-SN BR	9999	0	0	0	3250
2019/05/10 12:01:00	BASE	31.04	25	35.03	31	1.2	100	1.2	0	0	971.9	NA	0.0000	-SN BR	9999	0	0	0	3510
2019/05/10 12:02:00	BASE	30.95	25	35.03	31	1.2	100	1.2	0	0	972.0	NA	0.0000	-SN BR	9999	0	0	0	3310
2019/05/10 12:03:00	BASE	30.06	24	35.03	31	1.2	100	1.2	0	0	972.0	NA	0.0000	-SN	9999	620	0	0	0
2019/05/10 12:04:00	BASE	29.84	22	35.03	31	1.2	100	1.2	0	0	971.9	NA	0.0000	-SN	9999	490	0	0	0
2019/05/10 12:05:00	BASE	30.33	22	36.17	24	1.2	100	1.2	0	0	971.9	NA	0.0000	-SN	9999	430	0	0	0
2019/05/10 12:06:00	BASE	31.39	22	36.17	24	1.2	100	1.2	0	0	971.8	NA	0.0000	-SN	9999	0	0	0	3540
2019/05/10 12:07:00	BASE	30.60	23	36.17	24	1.2	100	1.2	0	0	971.9	NA	0.0000	-SN	9999	0	0	0	3610
2019/05/10 12:08:00	BASE	28.36	22	36.17	24	1.3	100	1.3	0	0	972.0	NA	0.0000	-SN	9999	0	0	0	1180
2019/05/10 12:09:00	BASE	27.90	23	36.17	24	1.3	100	1.3	0	0	972.0	NA	0.0000	-SN	9999	0	0	0	1510
2019/05/10 12:10:00	BASE	29.18	23	36.17	24	1.3	100	1.3	0	0	971.9	NA	0.0000	-SN	9999	0	0	0	1350
2019/05/10 12:11:00	BASE	30.47	21	36.17	24	1.3	100	1.3	0	0	971.8	NA	0.0000	-SN	9999	660	0	0	0
2019/05/10 12:12:00	BASE	32.31	21	36.73	26	1.3	100	1.3	0	0	971.6	NA	0.0000	-SN	9999	490	2400	0	0
2019/05/10 12:13:00	BASE	33.74	23	36.94	26	1.4	100	1.4	0	0	971.7	NA	0.0000	-SN	9999	390	0	0	0
2019/05/10 12:14:00	BASE	32.87	22	36.94	26	1.4	100	1.3	0	0	971.8	NA	0.0000	-SN	9999	590	0	0	0
2019/05/10 12:15:00	BASE	30.74	23	36.94	26	1.4	100	1.4	0	0	971.9	NA	0.0000	-SN	9999	2460	0	0	0
2019/05/10 12:16:00	BASE	28.22	26	36.94	26	1.3	100	1.3	0	0	972.0	NA	0.0000	-SN	9999	0	0	0	490
2019/05/10 12:17:00	BASE	26.77	26	36.94	26	1.3	100	1.3	0	0	972.0	NA	0.0000	-SN	9999	2260	0	0	0
2019/05/10 12:18:00	BASE	26.73	22	36.94	26	1.3	100	1.3	0	0	971.9	NA	0.0000	-SN	9999	0	0	0	660
2019/05/10 12:19:00	BASE	28.11	22	36.94	26	1.3	100	1.3	0	0	971.8	NA	0.0000	-SN	9999	2820	0	0	0
2019/05/10 12:20:00	BASE	28.07	24	36.94	26	1.3	100	1.3	0	0	971.8	NA	0.0000	-SN	9999	0	0	0	3050
2019/05/10 12:21:00	BASE	27.64	25	36.94	26	1.3	100	1.3	0	0	971.8	NA	0.0000		9999	390	0	0	0
2019/05/10 12:22:00	BASE	27.63	24	36.94	26	1.3	100	1.3	0	0	971.7	NA	0.0000		9999	0	0	0	3250
2019/05/10 12:23:00	BASE	26.23	22	35.19	23	1.3	100	1.3	0	0	971.8	NA	0.0000		9999	2620	0	0	0
2019/05/10 12:24:00	BASE	25.26	21	31.84	19	1.4	100	1.4	0	0	971.9	NA	0.0000		9999	2590	0	0	0
2019/05/10 12:25:00	BASE	25.65	23	31.84	19	1.4	100	1.4	0	0	971.8	NA	0.0000		9999	660	0	0	0
2019/05/10 12:26:00	BASE	26.30	20	31.84	19	1.4	100	1.4	0	0	971.8	NA	0.0000		9999	620	2720	0	0
2019/05/10 12:27:00	BASE	28.54	16	32.31	9	1.4	100	1.4	0	0	971.5	NA	0.0000		9999	12430	0	0	0
2019/05/10 12:28:00	BASE	30.26	17	32.31	9	1.4	100	1.4	0	0	971.5	NA	0.0000		9999	460	2490	0	0
2019/05/10 12:29:00	BASE	28.30	18	32.31	9	1.4	100	1.4	0	0	971.6	NA	0.0000		9999	390	2590	0	0
2019/05/10 12:30:00	BASE	27.22	15	32.31	9	1.3	100	1.3	0	0	971.6	NA	0.0000		9999	2690	0	0	0
2019/05/10 12:31:00	BASE	27.46	14	32.31	9	1.3	100	1.3	0	0	971.6	NA	0.0000		9999	0	0	0	1440
2019/05/10 12:32:00	BASE	28.76	17	34.36	21	1.3	100	1.3	0	0	971.4	NA	0.0000		9999	390	3350	0	0
2019/05/10 12:33:00	BASE	30.50	18	34.36	21	1.3	100	1.3	0	0	971.3	NA	0.0000		9999	300	0	0	0
2019/05/10 12:34:00	BASE	29.53	20	34.36	21	1.3	100	1.3	1	0	971.4	NA	0.0000	-SN	9999	260	0	0	0
2019/05/10 12:35:00	BASE	28.39	20	34.36	21	1.3	100	1.3	1	0	971.4	NA	0.0000	-SN	6000	330	0	0	0
2019/05/10 12:36:00	BASE	28.89	18	34.36	21	1.3	100	1.3	1	0	971.2	NA	0.0000	-SN	7000	300	0	0	0
2019/05/10 12:37:00	BASE	29.04	17	34.36	21	1.3	100	1.3	1	0	971.2	NA	0.0000	-SN	9999	0	0	0	2590
2019/05/10 12:38:00	BASE	28.86	19	34.36	21	1.3	100	1.3	1	0	971.2	NA	0.0000	-SN	9999	330	0	0	0
2019/05/10 12:39:00	BASE	28.37	19	34.36	21	1.3	100	1.3	1	0	971.1	NA	0.0000	-SN	9999	430	0	0	0
2019/05/10 12:40:00	BASE	29.40	20	34.93	17	1.3	100	1.3	1	0	971.0	NA	0.0000	-SN	9999	390	0	0	0
2019/05/10 12:41:00	BASE	30.92	21	34.93	17	1.3	100	1.3	1	0	970.9	NA	0.0000	-SN	9000	0	0	0	3480
2019/05/10 12:42:00	BASE	30.36	20	34.93	17	1.4	100	1.4	1	0	970.9	NA	0.0000	-SN BR	8000	360	0	0	0
2019/05/10 12:43:00	BASE	30.68	19	34.93	17	1.4	100	1.4	1	0	970.8	NA	0.0000	-SN BR	6000	0	0	0	2820
2019/05/10 12:44:00	BASE	30.48	19	34.93	17	1.4	100	1.4	1	0	970.8	NA	0.0000	-SN BR	6000	0	0	0	2660
2019/05/10 12:45:00	BASE	30.41	19	34.93	17	1.4	100	1.4	1	0	970.7	NA	0.0000	-SN BR	8000	0	0	0	2230
2019/05/10 12:46:00	BASE	30.78	20	34.93	17	1.4	100	1.4	1	0	970.7	NA	0.0000	-SN BR	5000	0	0	0	2400
2019/05/10 12:47:00	BASE	29.58	21	34.93	17	1.4	100	1.4	1	0	970.8	NA	0.0000	-SN BR	4100	300	0	0	0
2019/05/10 12:48:00	BASE	29.34	22	34.93	17	1.4	100	1.4	1	0	970.6	NA	0.0000	-SN BR	4200	0	0	0	2920
2019/05/10 12:49:00	BASE	29.60	22	34.93	17	1.4	100	1.4	1	0	970.6	NA	0.0000	-SN BR	6000	0	0	0	3280
2019/05/10 12:50:00	BASE	30.23	22	34.57	18	1.4	100	1.4	1	0	970.5	NA	0.0000	-SN BR	8000	0	0	0	3410
2019/05/10 12:51:00	BASE	31.00	23	35.39	24	1.4	100	1.4	1	0	970.4	NA	0.0000	-SN BR	5000	0	0	0	3540
2019/05/10 12:52:00	BASE	31.54	24	36.01	22	1.4	100	1.4	1	0	970.4	NA	0.0000	-SN BR	6000	0	0	0	3810
2019/05/10 12:53:00	BASE	31.24	24	36.01	22	1.4	100	1.4	1	0	970.4	NA	0.0000	-SN BR	7000	0	0	0	3450
2019/05/10 12:54:00	BASE	31.62	24	36.58	18	1.4	100	1.4	1	0	970.3	NA	0.0000	-SN BR	6000	0	0	0	3120
2019/05/10 12:55:00	BASE	31.42	23	36.58	18	1.4	100	1.4	1	0	970.4	NA	0.0000	-SN BR	5000	0	0	0	3150
2019/05/10 12:56:00	BASE	30.87	23	36.68	22	1.4	100	1.4	2	0	970.3	NA	0.0000	-SN BR	5000	330	0	0	0
2019/05/10 12:57:00	BASE	31.72	23	36.68	22	1.4	100	1.4	1	0	970.3	NA	0.0000	-SN BR	6000	0	0	0	3280
2019/05/10 12:58:00	BASE	30.71	24	36.68	22	1.4	100	1.4	2	0	970.4	NA	0.0000	-SN BR	8000	0	0	0	3120
2019/05/10 12:59:00	BASE	28.74	23	36.68	22	1.4	100	1.4	2	0	970.5	NA	0.0000	-SN BR	9000	360	0	0	0
2019/05/10 13:00:00	BASE	28.95	23	36.68	22	1.4	100	1.4	2	0	970.4	NA	0.0000	-SN BR	8000	1280	0	0	0
2019/05/10 13:01:00	BASE	28.68	25	36.68	22	1.4	100	1.4	2	0	970.4	NA	0.0000	-SN BR	9000	0	0	0	2590
2019/05/10 13:02:00	BASE	27.17	23	36.68	22	1.4	100	1.4	2	0	970.4	NA	0.0000	-SN BR	9999	0	0	0	2070
2019/05/10 13:03:00	BASE	26.80	23	36.68	22	1.4	100	1.4	2	0	970.4	NA	0.0000	-SN BR	9999	0	0	0	1540
2019/05/10 13:04:00	BASE	26.43	26	36.68	22	1.4	100	1.4	2	0	970.3	NA	0.0000	-SN BR	9999	0	0	0	1210
2019/05/10 13:05:00	BASE	26.87	28	36.68	22	1.4	100	1.4	2	0	970.3	NA	0.0000	-SN BR	9999	0	0	0	720
2019/05/10 13:06:00	BASE	28.40	27	34.78	32	1.4	100	1.4	2	0	970.2	NA	0.0000	-SN	9999	0	0	0	790
2019/05/10 13:07:00	BASE	27.59	28	34.78	32	1.4	100	1.4	2	0	970.3	NA	0.0000	-SN	9999	0	0	0	430
2019/05/10 13:08:00	BASE	27.38	28	34.78	32	1.5	100	1.5	3	0	970.2	NA	0.0000	-SN	9999	0	0	0	1050
2019/05/10 13:09:00	BASE	27.88	27	34.78	32	1.5	100	1.5	3	0	970.2	NA	0.0000	-SN	9999	0	0	0	6400
2019/05/10 13:10:00	BASE	27.38	29	34.62	27	1.5	100	1.5	3	0	970.1	NA	0.0000	-SN	9999	0	0	0	5510
2019/05/10 13:11:00	BASE	27.72	29	34.62	27	1.5	100	1.5	3	0	970.2	NA	0.0000	-SN	9000	360	0	0	0
2019/05/10 13:12:00	BASE	27.27	28	34.62	27	1.5	100	1.5	3	0	970.1	NA	0.0000	-SN	9000	0	0	0	3250
2019/05/10 13:13:00	BASE	25.94	30	34.62	27	1.5	100	1.5	4	0	970.1	NA	0.0000	-SN	9999	0	0	0	3280
2019/05/10 13:14:00	BASE	26.49	30	34.62	27	1.5	100	1.5	4	0	970.0	NA	0.0000	-SN	8000	0	0	0	3080
2019/05/10 13:15:00	BASE	27.10	28	34.62	27	1.5	100	1.5	4	0	970.0	NA	0.0000	-SN	8000	0	0	0	2990
2019/05/10 13:16:00	BASE	26.60	25	34.62	27	1.5	100	1.5	5	0	969.8	NA	0.0000	-SN	6000	0	0	0	3120
2019/05/10 13:17:00	BASE	26.30	25	34.62	27	1.5	100	1.5	5	0	969.9	NA	0.0000	-SN BR	7000	0	0	0	3740
2019/05/10 13:18:00	BASE	25.31	29	33.90	27	1.5	100	1.5	5	0	969.8	NA	0.0000	-SN BR	9000	0	0	0	4200
2019/05/10 13:19:00	BASE	25.37	31	33.90	27	1.5	100	1.5	5	0	969.9	NA	0.0000	-SN BR	9000	0	0	0	3900
2019/05/10 13:20:00	BASE	24.88	31	33.90	27	1.5	100	1.5	6	0	969.8	NA	0.0000	-SN BR	9999	0	0	0	3810
2019/05/10 13:21:00	BASE	25.16	30	33.90	27	1.5	100	1.5	6	0	969.7	NA	0.0000	-SN BR	9000	0	0	0	3770
2019/05/10 13:22:00	BASE	26.68	32	33.90	27	1.5	100	1.5	6	0	969.7	NA	0.0000	-SN BR	9000	0	0	0	3670
2019/05/10 13:23:00	BASE	25.84	32	33.90	27	1.5	100	1.5	6	0	969.7	NA	0.0000	-SN BR	8000	0	0	0	3480
2019/05/10 13:24:00	BASE	25.28	30	32.46	19	1.5	100	1.5	6	0	969.6	NA	0.0000	-SN BR	9000	0	0	0	3180
2019/05/10 13:25:00	BASE	25.91	31	32.46	19	1.6	100	1.6	7	0	969.6	NA	0.0000	-SN BR	9999	0	0	0	3020
2019/05/10 13:26:00	BASE	25.57	32	31.18	31	1.6	100	1.6	7	0	969.6	NA	0.0000	-SN BR	5000	0	0	0	3770
2019/05/10 13:27:00	BASE	26.60	32	31.18	31	1.6	100	1.6	7	0	969.5	NA	0.0000	-SN BR	4600	0	0	0	3970
2019/05/10 13:28:00	BASE	26.79	31	31.18	31	1.6	100	1.6	7	0	969.5	NA	0.0000	-SN BR	5000	0	0	0	4130
2019/05/10 13:29:00	BASE	26.59	31	31.18	31	1.6	100	1.6	8	0	969.4	NA	0.0000	-SN BR	3900	0	0	0	4100
2019/05/10 13:30:00	BASE	25.62	33	31.18	31	1.6	100	1.6	8	0	969.5	NA	0.0000	-SN BR	4800	0	0	0	4040
2019/05/10 13:31:00	BASE	25.16	33	31.18	31	1.6	100	1.6	8	0	969.3	NA	0.0000	-SN BR	9999	0	0	0	4040
2019/05/10 13:32:00	BASE	26.16	32	31.18	31	1.6	100	1.6	8	0	969.3	NA	0.2540	-SN BR	9999	0	0	0	3870
2019/05/10 13:33:00	BASE	27.03	31	31.18	31	1.6	100	1.6	9	0	969.2	NA	0.0000	-SN BR	9999	0	0	0	3380
2019/05/10 13:34:00	BASE	27.34	33	32.46	32	1.6	100	1.6	9	0	969.2	NA	0.0000	-SN BR	9999	0	0	0	3640
2019/05/10 13:35:00	BASE	27.12	32	32.46	32	1.6	100	1.6	8	0	969.0	NA	0.0000	-SN BR	9000	0	0	0	3840
2019/05/10 13:36:00	BASE	28.04	29	32.46	32	1.6	100	1.6	9	0	969.0	NA	0.0000	-SN BR	8000	0	0	0	3450
2019/05/10 13:37:00	BASE	27.55	31	32.46	32	1.6	100	1.6	9	0	969.1	NA	0.0000	-SN BR	6000	0	0	0	3510
2019/05/10 13:38:00	BASE	26.12	33	32.46	32	1.6	100	1.6	9	0	969.1	NA	0.0000	-SN BR	7000	0	0	0	3640
2019/05/10 13:39:00	BASE	26.33	33	32.46	32	1.6	100	1.6	9	0	969.0	NA	0.0000	-SN BR	8000	0	0	0	3710
2019/05/10 13:40:00	BASE	26.21	32	32.46	32	1.6	100	1.6	9	0	969.0	NA	0.0000	-SN BR	9999	0	0	0	7740
2019/05/10 13:41:00	BASE	26.40	31	32.46	32	1.6	100	1.6	9	0	968.9	NA	0.0000	-SN BR	9999	0	0	0	7580
2019/05/10 13:42:00	BASE	24.95	32	32.46	32	1.6	100	1.6	9	0	969.0	NA	0.0000	-SN BR	9999	0	0	0	7050
2019/05/10 13:43:00	BASE	24.60	32	32.46	32	1.6	100	1.6	9	0	968.9	NA	0.0000	-SN BR	9999	0	0	0	6790
2019/05/10 13:44:00	BASE	25.70	32	32.26	23	1.6	100	1.6	9	0	968.9	NA	0.0000	-SN BR	9999	0	0	0	4660
2019/05/10 13:45:00	BASE	23.10	32	32.26	23	1.6	100	1.6	9	0	968.9	NA	0.0000	-SN BR	8000	0	0	0	4720
2019/05/10 13:46:00	BASE	23.02	31	30.92	32	1.6	100	1.6	9	0	968.9	NA	0.0000	-SN BR	7000	0	0	0	4000
2019/05/10 13:47:00	BASE	23.70	29	30.92	32	1.6	100	1.6	9	0	968.9	NA	0.0000	-SN BR	6000	0	0	0	3900
2019/05/10 13:48:00	BASE	23.43	27	30.92	32	1.6	100	1.6	9	0	968.9	NA	0.0000	-SN BR	6000	0	0	0	3350
2019/05/10 13:49:00	BASE	23.82	27	30.92	32	1.6	100	1.6	8	0	968.9	NA	0.0000	-SN BR	7000	0	0	0	3020
2019/05/10 13:50:00	BASE	23.26	29	30.92	32	1.6	100	1.6	8	0	968.9	NA	0.0000	-SN BR	7000	360	0	0	0
2019/05/10 13:51:00	BASE	24.26	31	30.92	32	1.6	100	1.6	7	0	968.8	NA	0.0000	-SN BR	4600	330	0	0	0
2019/05/10 13:52:00	BASE	25.00	31	30.92	32	1.6	100	1.6	8	0	968.8	NA	0.0000	-SN BR	2700	260	0	0	0
2019/05/10 13:53:00	BASE	25.50	33	31.18	47	1.6	100	1.6	9	0	968.6	NA	0.0000	-SN BR	2200	230	0	0	0
2019/05/10 13:54:00	BASE	25.10	32	31.18	47	1.6	100	1.6	9	0	968.7	NA	0.0000	-SN BR	2200	260	0	0	0
2019/05/10 13:55:00	BASE	23.70	34	31.18	47	1.6	100	1.6	9	0	968.7	NA	0.0000	-SN BR	2600	300	0	0	0
2019/05/10 13:56:00	BASE	23.90	36	31.18	47	1.5	100	1.5	9	0	968.7	NA	0.0000	-SN BR	3200	0	0	0	3080
2019/05/10 13:57:00	BASE	22.19	36	31.18	47	1.5	100	1.5	9	0	968.7	NA	0.0000	-SN BR	3500	0	0	0	2760
2019/05/10 13:58:00	BASE	22.25	37	31.18	47	1.5	100	1.5	9	0	968.6	NA	0.0000	-SN BR	3900	920	0	0	0
2019/05/10 13:59:00	BASE	23.05	36	31.18	47	1.5	100	1.5	10	0	968.6	NA	0.0000	-SN BR	3000	260	0	0	0
2019/05/10 14:00:00	BASE	21.70	36	31.18	47	1.5	100	1.5	11	0	968.6	NA	0.0000	-SN BR	2700	300	0	0	0
2019/05/10 14:01:00	BASE	21.60	38	31.18	47	1.5	100	1.5	11	0	968.5	NA	0.0000	-SN BR	3400	330	0	0	0
2019/05/10 14:02:00	BASE	23.39	40	31.18	47	1.5	100	1.5	12	0	968.4	NA	0.0000	-SN BR	3200	0	0	0	2690
2019/05/10 14:03:00	BASE	24.78	40	29.58	44	1.4	100	1.4	12	0	968.3	NA	0.0000	-SN BR	3300	0	0	0	2890
2019/05/10 14:04:00	BASE	24.79	43	29.58	44	1.4	100	1.4	12	0	968.3	NA	0.2540	-SN BR	4100	0	0	0	2790
2019/05/10 14:05:00	BASE	25.17	41	30.76	48	1.4	100	1.4	11	0	968.3	NA	0.0000	-SN BR	4600	0	0	0	2760
2019/05/10 14:06:00	BASE	25.30	41	30.76	48	1.4	100	1.4	10	0	968.2	NA	0.0000	-SN BR	4100	0	0	0	2360
2019/05/10 14:07:00	BASE	25.27	42	32.10	43	1.4	100	1.4	10	0	968.2	NA	0.0000	-SN BR	1600	300	0	0	0
2019/05/10 14:08:00	BASE	25.72	42	32.10	43	1.5	100	1.5	10	0	968.1	NA	0.0000	-SN BR	1400	300	0	0	0
2019/05/10 14:09:00	BASE	26.50	39	32.77	36	1.5	100	1.5	10	0	968.0	NA	0.0000	-SN BR	1300	260	0	0	0
2019/05/10 14:10:00	BASE	27.28	42	32.77	36	1.5	100	1.5	10	0	968.0	NA	0.0000	-SN BR	1000	260	0	0	0
2019/05/10 14:11:00	BASE	26.85	45	32.77	36	1.5	100	1.5	11	0	968.0	NA	0.0000	-SN BR	1300	300	0	0	0
2019/05/10 14:12:00	BASE	26.81	44	33.34	40	1.4	100	1.4	11	0	967.9	NA	0.0000	-SN BR	1400	0	0	0	2460
2019/05/10 14:13:00	BASE	27.78	45	33.34	40	1.4	100	1.4	11	0	967.8	NA	0.0000	-SN BR	1600	0	0	0	2920
2019/05/10 14:14:00	BASE	27.98	45	33.34	40	1.4	100	1.4	11	0	967.9	NA	0.0000	-SN BR	3600	0	0	0	2850
2019/05/10 14:15:00	BASE	26.88	44	33.34	40	1.4	100	1.4	11	0	967.8	NA	0.0000	-SN BR	3500	0	0	0	2620
2019/05/10 14:16:00	BASE	26.90	45	33.34	40	1.4	100	1.4	10	0	967.7	NA	0.0000	-SN BR	1600	0	0	0	2560
2019/05/10 14:17:00	BASE	28.13	47	33.34	40	1.4	100	1.4	10	0	967.6	NA	0.0000	-SN BR	1500	300	0	0	0
2019/05/10 14:18:00	BASE	27.53	45	33.34	40	1.4	100	1.4	11	0	967.6	NA	0.0000	-SN BR	2100	260	0	0	0
2019/05/10 14:19:00	BASE	27.33	45	33.34	40	1.4	100	1.4	10	0	967.5	NA	0.2540	-SN BR	2100	300	0	0	0
2019/05/10 14:20:00	BASE	28.03	46	33.34	40	1.4	100	1.4	10	0	967.4	NA	0.0000	-SN BR	2600	0	0	0	3020
2019/05/10 14:21:00	BASE	29.10	45	35.65	39	1.5	100	1.5	10	0	967.3	NA	0.0000	-SN BR	1600	0	0	0	2920
2019/05/10 14:22:00	BASE	29.40	45	35.65	39	1.5	100	1.5	11	0	967.3	NA	0.0000	-SN BR	1600	0	0	0	2990
2019/05/10 14:23:00	BASE	28.72	46	35.65	39	1.5	100	1.5	11	0	967.3	NA	0.0000	-SN BR	3100	0	0	0	2890
2019/05/10 14:24:00	BASE	28.83	46	35.65	39	1.5	100	1.5	11	0	967.2	NA	0.0000	-SN BR	2900	0	0	0	2990
2019/05/10 14:25:00	BASE	28.54	45	35.65	39	1.5	100	1.5	11	0	967.2	NA	0.0000	-SN BR	2800	0	0	0	2990
2019/05/10 14:26:00	BASE	28.02	45	35.65	39	1.6	100	1.6	11	0	967.2	NA	0.0000	-SN BR	1500	0	0	0	2790
2019/05/10 14:27:00	BASE	28.48	45	35.65	39	1.6	100	1.6	11	0	967.1	NA	0.0000	-SN BR	1000	0	0	0	2820
2019/05/10 14:28:00	BASE	29.15	43	35.65	39	1.6	100	1.6	11	0	967.0	NA	0.0000	-SN BR	1000	0	0	0	2820
2019/05/10 14:29:00	BASE	29.35	43	35.65	39	1.6	100	1.6	11	0	967.0	NA	0.0000	-SN BR	1000	0	0	0	2720
2019/05/10 14:30:00	BASE	29.70	44	35.65	39	1.6	100	1.6	11	0	967.0	NA	0.0000	-SN BR	1000	0	0	0	2530
2019/05/10 14:31:00	BASE	28.22	44	34.42	41	1.6	100	1.6	10	0	967.0	NA	0.0000	-SN BR	1000	0	0	0	2660
2019/05/10 14:32:00	BASE	26.20	43	34.42	41	1.6	100	1.6	10	0	967.0	NA	0.0000	-SN BR	1100	330	0	0	0
2019/05/10 14:33:00	BASE	27.18	40	34.42	41	1.6	100	1.6	10	0	966.9	NA	0.0000	-SN BR	1400	300	0	0	0
2019/05/10 14:34:00	BASE	26.07	38	34.42	41	1.6	100	1.6	11	0	966.9	NA	0.0000	-SN BR	2100	300	0	0	0
2019/05/10 14:35:00	BASE	25.85	36	34.42	41	1.6	100	1.6	11	0	966.8	NA	0.0000	-SN BR	2200	360	0	0	0
2019/05/10 14:36:00	BASE	27.59	37	34.42	41	1.6	100	1.6	11	0	966.8	NA	0.0000	-SN BR	2100	330	0	0	0
2019/05/10 14:37:00	BASE	27.48	39	34.42	41	1.6	100	1.6	12	0	966.7	NA	0.0000	-SN BR	2100	330	0	0	0
2019/05/10 14:38:00	BASE	27.79	37	33.08	34	1.6	100	1.6	12	0	966.6	NA	0.0000	-SN BR	2100	300	0	0	0
2019/05/10 14:39:00	BASE	26.01	37	33.08	34	1.6	100	1.6	13	0	966.6	NA	0.0000	-SN BR	2100	300	0	0	0
2019/05/10 14:40:00	BASE	25.50	41	33.08	34	1.6	100	1.6	13	0	966.6	NA	0.0000	-SN BR	2300	360	0	0	0
2019/05/10 14:41:00	BASE	27.20	40	33.23	45	1.6	100	1.6	13	0	966.5	NA	0.0000	-SN BR	2300	300	0	0	0
2019/05/10 14:42:00	BASE	27.82	39	33.23	45	1.6	100	1.6	13	0	966.5	NA	0.0000	-SN BR	2100	330	0	0	0
2019/05/10 14:43:00	BASE	28.11	40	33.23	45	1.6	100	1.6	12	0	966.4	NA	0.2540	-SN BR	1300	300	0	0	0
2019/05/10 14:44:00	BASE	26.85	41	33.23	45	1.6	100	1.6	12	0	966.4	NA	0.0000	-SN BR	1300	300	0	0	0
2019/05/10 14:45:00	BASE	25.78	42	33.23	45	1.6	100	1.6	12	0	966.4	NA	0.0000	-SN BR	2100	300	0	0	0
2019/05/10 14:46:00	BASE	26.84	41	33.23	45	1.6	100	1.6	12	0	966.3	NA	0.0000	-SN BR	2200	300	0	0	0
2019/05/10 14:47:00	BASE	27.91	40	33.23	45	1.6	100	1.6	12	0	966.3	NA	0.0000	-SN BR	2000	260	0	0	0
2019/05/10 14:48:00	BASE	27.55	41	33.23	45	1.6	100	1.6	13	0	966.3	NA	0.0000	-SN BR	1900	230	0	0	0
2019/05/10 14:49:00	BASE	26.63	40	33.23	45	1.5	100	1.5	13	0	966.3	NA	0.0000	-SN BR	1800	230	0	0	0
2019/05/10 14:50:00	BASE	27.63	40	33.23	45	1.5	100	1.5	14	0	966.2	NA	0.0000	-SN BR	1900	230	0	0	0
2019/05/10 14:51:00	BASE	28.61	42	33.13	49	1.5	100	1.5	16	0	966.2	NA	0.0000	-SN BR	1200	260	0	0	0
2019/05/10 14:52:00	BASE	27.32	44	33.13	49	1.5	100	1.5	18	0	966.2	NA	0.0000	-SN BR	0900	300	0	0	0
2019/05/10 14:53:00	BASE	27.40	42	32.77	34	1.5	100	1.5	20	0	966.1	NA	0.0000	-SN BR	1000	300	0	0	0
2019/05/10 14:54:00	BASE	27.98	40	32.77	34	1.5	100	1.5	22	0	966.1	NA	0.0000	-SN BR	1500	0	0	0	4400
2019/05/10 14:55:00	BASE	27.38	42	32.77	34	1.5	100	1.5	24	0	966.1	NA	0.0000	-SN BR	3400	0	0	0	4330
2019/05/10 14:56:00	BASE	27.10	42	32.77	34	1.5	100	1.5	25	0	966.1	NA	0.0000	-SN BR	4500	0	0	0	3940
2019/05/10 14:57:00	BASE	25.63	42	32.72	39	1.5	100	1.5	26	0	966.1	NA	0.0000	-SN BR	6000	0	0	0	3640
2019/05/10 14:58:00	BASE	26.29	41	32.87	48	1.5	100	1.5	25	0	966.0	NA	0.0000	-SN BR	9000	0	0	0	3250
2019/05/10 14:59:00	BASE	27.62	38	32.87	48	1.5	100	1.5	24	0	966.0	NA	0.0000	-SN BR	9000	360	0	0	0
2019/05/10 15:00:00	BASE	27.93	40	32.87	48	1.6	100	1.6	25	0	966.0	NA	0.0000	-SN BR	9000	0	0	0	3310
2019/05/10 15:01:00	BASE	28.76	41	32.87	48	1.6	100	1.6	25	0	966.0	NA	0.0000	-SN BR	7000	0	0	0	3480
2019/05/10 15:02:00	BASE	29.22	41	33.70	48	1.6	100	1.6	27	0	965.9	NA	0.0000	-SN BR	5000	0	0	0	3050
2019/05/10 15:03:00	BASE	28.98	39	35.24	34	1.6	100	1.6	26	0	965.9	NA	0.0000	-SN BR	5000	0	0	0	3310
2019/05/10 15:04:00	BASE	29.53	41	35.24	34	1.6	100	1.6	26	0	965.9	NA	0.0000	-SN BR	5000	360	0	0	0
2019/05/10 15:05:00	BASE	29.96	43	35.24	34	1.7	100	1.7	26	0	965.9	NA	0.2540	-SN BR	4400	330	0	0	0
2019/05/10 15:06:00	BASE	27.84	42	35.24	34	1.7	100	1.7	26	0	966.0	NA	0.0000	-SN BR	4000	0	0	0	2790
2019/05/10 15:07:00	BASE	26.95	38	35.24	34	1.7	100	1.7	26	0	965.9	NA	0.0000	-SN BR	4100	330	0	0	0
2019/05/10 15:08:00	BASE	28.17	37	35.24	34	1.7	100	1.7	26	0	965.9	NA	0.0000	-SN BR	2900	360	0	0	0
2019/05/10 15:09:00	BASE	28.15	39	35.24	34	1.7	100	1.7	24	0	965.9	NA	0.0000	-SN BR	3000	0	0	0	2990
2019/05/10 15:10:00	BASE	26.59	38	35.24	34	1.7	100	1.7	23	0	965.9	NA	0.0000	-SN BR	2900	0	0	0	3120
2019/05/10 15:11:00	BASE	26.26	38	35.24	34	1.8	100	1.8	22	0	965.9	NA	0.0000	-SN BR	2900	390	0	0	0
2019/05/10 15:12:00	BASE	26.03	40	35.24	34	1.8	100	1.8	22	0	965.9	NA	0.0000	-SN BR	2600	430	0	0	0
2019/05/10 15:13:00	BASE	26.15	42	34.83	37	1.8	100	1.8	23	0	965.9	NA	0.0000	-SN BR	1400	360	0	0	0
2019/05/10 15:14:00	BASE	26.67	38	34.83	37	1.8	100	1.8	24	0	965.9	NA	0.0000	-SN BR	1600	360	0	0	0
2019/05/10 15:15:00	BASE	24.66	35	34.11	39	1.8	100	1.8	25	0	966.0	NA	0.0000	-SN BR	2500	360	0	0	0
2019/05/10 15:16:00	BASE	24.32	36	34.11	39	1.8	100	1.8	26	0	965.8	NA	0.0000	-SN BR	2200	360	0	0	0
2019/05/10 15:17:00	BASE	26.29	37	34.11	39	1.8	100	1.8	27	0	965.9	NA	0.0000	-SN BR	2000	390	0	0	0
2019/05/10 15:18:00	BASE	25.59	37	33.13	28	1.8	100	1.8	27	0	966.0	NA	0.0000	-SN BR	2000	390	0	0	0
2019/05/10 15:19:00	BASE	23.42	37	33.13	28	1.8	100	1.8	25	0	966.0	NA	0.0000	-SN BR	1900	360	0	0	0
2019/05/10 15:20:00	BASE	21.23	36	33.13	28	1.8	100	1.8	21	0	966.0	NA	0.2540	-SN BR	2100	360	0	0	0
2019/05/10 15:21:00	BASE	22.21	40	33.13	28	1.8	100	1.8	20	0	965.9	NA	0.0000	-SN BR	2100	330	0	0	0
2019/05/10 15:22:00	BASE	24.07	43	33.13	28	1.8	100	1.8	20	0	965.9	NA	0.0000	-SN BR	1800	330	0	0	0
2019/05/10 15:23:00	BASE	24.00	45	33.13	28	1.8	100	1.8	19	0	965.9	NA	0.0000	-SN BR	1700	300	0	0	0
2019/05/10 15:24:00	BASE	23.00	47	31.07	45	1.7	100	1.7	19	0	965.8	NA	0.0000	-SN BR	1000	300	0	0	0
2019/05/10 15:25:00	BASE	21.40	43	31.07	45	1.7	100	1.7	19	0	965.8	NA	0.2540	-SN BR	1000	330	0	0	0
2019/05/10 15:26:00	BASE	20.32	41	30.30	25	1.7	100	1.7	19	0	965.8	NA	0.0000	-SN BR	2600	330	0	0	0
2019/05/10 15:27:00	BASE	21.03	48	29.27	44	1.7	100	1.7	19	0	965.8	NA	0.0000	-SN BR	1400	330	0	0	0
2019/05/10 15:28:00	BASE	23.20	49	30.51	47	1.7	100	1.7	18	0	965.7	NA	0.0000	-SN BR	1300	330	0	0	0
2019/05/10 15:29:00	BASE	23.75	43	30.51	47	1.7	100	1.7	14	0	965.6	NA	0.0000	-SN BR	1900	330	0	0	0
2019/05/10 15:30:00	BASE	24.23	42	30.51	47	1.7	100	1.7	15	0	965.6	NA	0.0000	-SN BR	1800	330	0	0	0
2019/05/10 15:31:00	BASE	26.11	44	33.49	51	1.7	100	1.7	20	0	965.5	NA	0.2540	-SN BR	1500	300	0	0	0
2019/05/10 15:32:00	BASE	26.24	43	33.49	51	1.7	100	1.7	20	0	965.5	NA	0.0000	-SN BR	1300	230	0	0	0
2019/05/10 15:33:00	BASE	25.46	45	33.49	51	1.7	100	1.7	23	0	965.5	NA	0.0000	-SN BR	1100	260	0	0	0
2019/05/10 15:34:00	BASE	25.89	47	33.49	51	1.6	100	1.6	27	0	965.3	NA	0.0000	-SN BR	1100	260	0	0	0
2019/05/10 15:35:00	BASE	25.49	48	33.49	51	1.6	100	1.6	29	0	965.3	NA	0.0000	-SN BR	1400	330	0	0	0
2019/05/10 15:36:00	BASE	26.19	49	33.49	51	1.6	100	1.6	29	0	965.1	NA	0.2540	-SN BR	1600	330	0	0	0
2019/05/10 15:37:00	BASE	27.63	50	33.49	51	1.5	100	1.5	28	0	965.0	NA	0.0000	-SN BR	1600	260	0	0	0
2019/05/10 15:38:00	BASE	29.70	49	33.80	50	1.5	100	1.5	29	0	964.9	NA	0.0000	-SN BR	1300	260	0	0	0
2019/05/10 15:39:00	BASE	29.70	49	33.80	50	1.5	100	1.5	30	0	964.8	NA	0.0000	-SN BR	1100	260	0	0	0
2019/05/10 15:40:00	BASE	27.85	50	33.80	50	1.5	100	1.5	34	0	964.8	NA	0.0000	-SN BR	1200	300	0	0	0
2019/05/10 15:41:00	BASE	28.35	50	33.90	52	1.5	100	1.5	39	0	964.7	NA	0.0000	-SN BR	1500	300	0	0	0
2019/05/10 15:42:00	BASE	29.22	49	34.93	53	1.5	100	1.5	46	0	964.6	NA	0.0000	-SN BR	1600	300	0	0	0
2019/05/10 15:43:00	BASE	29.85	47	34.93	53	1.6	100	1.6	49	0	964.5	NA	0.0000	-SN BR	1600	300	0	0	0
2019/05/10 15:44:00	BASE	30.59	47	36.89	47	1.6	100	1.6	57	0	964.4	NA	0.0000	-SN BR	1700	330	0	0	0
2019/05/10 15:45:00	BASE	29.41	48	36.89	47	1.6	100	1.6	62	0	964.4	NA	0.2540	-SN BR	1700	360	0	0	0
2019/05/10 15:46:00	BASE	29.01	47	36.89	47	1.6	100	1.6	60	0	964.3	NA	0.0000	-SN BR	1500	330	0	0	0
2019/05/10 15:47:00	BASE	29.72	46	36.89	47	1.6	100	1.6	55	0	964.3	NA	0.0000	-SN BR	1300	330	0	0	0
2019/05/10 15:48:00	BASE	29.83	49	36.89	47	1.6	100	1.6	46	0	964.3	NA	0.0000	-SN BR	1400	390	0	0	0
2019/05/10 15:49:00	BASE	30.29	50	36.89	47	1.6	100	1.6	48	0	964.1	NA	0.0000	-SN BR	1100	330	0	0	0
2019/05/10 15:50:00	BASE	31.27	51	38.38	49	1.6	100	1.6	52	0	964.0	NA	0.2540	-SN BR	1000	330	0	0	0
2019/05/10 15:51:00	BASE	32.22	49	38.38	49	1.6	100	1.6	53	0	963.9	NA	0.0000	-SN BR	1400	0	0	0	2000
2019/05/10 15:52:00	BASE	32.94	49	38.53	50	1.6	100	1.6	51	0	963.8	NA	0.0000	-SN BR	1600	330	0	0	0
2019/05/10 15:53:00	BASE	33.00	49	38.53	50	1.6	100	1.6	48	0	963.8	NA	0.0000	-SN BR	1300	330	0	0	0
2019/05/10 15:54:00	BASE	31.27	50	38.53	50	1.6	100	1.6	47	0	963.8	NA	0.0000	-SN BR	1200	300	0	0	0
2019/05/10 15:55:00	BASE	30.78	50	38.53	50	1.6	100	1.6	42	0	963.7	NA	0.2540	-SN BR	1300	330	0	0	0
2019/05/10 15:56:00	BASE	31.02	48	38.53	50	1.6	100	1.6	45	0	963.7	NA	0.0000	-SN BR	1200	300	0	0	0
2019/05/10 15:57:00	BASE	30.39	50	38.53	50	1.6	100	1.6	43	0	963.7	NA	0.0000	-SN BR	1500	330	0	0	0
2019/05/10 15:58:00	BASE	30.62	51	38.53	50	1.6	100	1.6	45	0	963.6	NA	0.0000	-SN BR	1800	330	0	0	0
2019/05/10 15:59:00	BASE	31.02	51	38.53	50	1.6	100	1.6	49	0	963.5	NA	0.0000	-SN BR	1800	300	0	0	0
2019/05/10 16:00:00	BASE	30.84	49	38.53	50	1.7	100	1.7	53	0	963.5	NA	0.0000	-SN BR	1200	330	0	0	0
2019/05/10 16:01:00	BASE	32.15	50	38.53	50	1.7	100	1.7	52	0	963.5	NA	0.2540	-SN BR	0900	390	0	0	0
2019/05/10 16:02:00	BASE	32.43	50	36.68	49	1.7	100	1.7	53	0	963.5	NA	0.0000	-SN BR	1000	360	0	0	0
2019/05/10 16:03:00	BASE	31.75	51	36.68	49	1.7	100	1.7	56	0	963.4	NA	0.0000	-SN BR	1400	330	0	0	0
2019/05/10 16:04:00	BASE	31.72	51	36.68	49	1.8	100	1.8	64	0	963.5	NA	0.0000	-SN BR	2200	360	0	0	0
2019/05/10 16:05:00	BASE	31.48	50	38.33	48	1.8	100	1.8	70	0	963.4	NA	0.0000	-SN BR	2100	330	0	0	0
2019/05/10 16:06:00	BASE	32.36	48	38.33	48	1.8	100	1.8	78	0	963.3	NA	0.0000	-SN BR	2000	330	0	0	0
2019/05/10 16:07:00	BASE	32.21	46	38.33	48	1.8	100	1.8	79	0	963.4	NA	0.0000	-SN BR	1800	330	0	0	0
2019/05/10 16:08:00	BASE	31.11	45	38.33	48	1.8	100	1.8	76	0	963.3	NA	0.0000	-SN BR	1700	360	0	0	0
2019/05/10 16:09:00	BASE	30.73	46	38.33	48	1.8	100	1.8	71	0	963.3	NA	0.2540	-SN BR	1800	360	0	0	0
2019/05/10 16:10:00	BASE	30.93	46	38.33	48	1.8	100	1.8	65	0	963.2	NA	0.0000	-SN BR	2000	430	0	0	0
2019/05/10 16:11:00	BASE	31.90	47	38.33	48	1.8	100	1.8	56	0	963.1	NA	0.0000	-SN BR	1900	360	0	0	0
2019/05/10 16:12:00	BASE	33.08	49	40.44	53	1.8	100	1.8	52	0	963.0	NA	0.0000	-SN BR	1800	360	0	0	0
2019/05/10 16:13:00	BASE	32.84	49	40.44	53	1.8	100	1.8	50	0	963.0	NA	0.0000	-SN BR	1900	360	0	0	0
2019/05/10 16:14:00	BASE	31.87	48	40.44	53	1.8	100	1.8	55	0	962.9	NA	0.0000	-SN BR	1900	360	0	0	0
2019/05/10 16:15:00	BASE	32.68	47	40.44	53	1.8	100	1.8	58	0	962.8	NA	0.0000	-SN BR	2000	360	0	0	0
2019/05/10 16:16:00	BASE	33.48	46	40.44	53	1.8	100	1.8	60	0	962.8	NA	0.0000	-SN BR	2100	360	0	0	0
2019/05/10 16:17:00	BASE	32.80	48	40.44	53	1.8	100	1.8	62	0	962.8	NA	0.0000	-SN BR	1800	360	0	0	0
2019/05/10 16:18:00	BASE	31.10	50	40.44	53	1.8	100	1.8	60	0	962.8	NA	0.0000	-SN BR	2200	360	0	0	0
2019/05/10 16:19:00	BASE	31.06	50	40.44	53	1.8	100	1.8	59	0	962.7	NA	0.0000	-SN BR	2600	330	0	0	0
2019/05/10 16:20:00	BASE	31.37	50	40.44	53	1.8	100	1.8	62	0	962.8	NA	0.0000	-SN BR	2200	390	0	0	0
2019/05/10 16:21:00	BASE	31.84	49	40.44	53	1.8	100	1.8	66	0	962.7	NA	0.0000	-SN BR	2000	0	0	0	2170
2019/05/10 16:22:00	BASE	32.62	48	39.10	48	1.8	100	1.8	66	0	962.7	NA	0.2540	-SN BR	2100	390	0	0	0
2019/05/10 16:23:00	BASE	33.61	49	39.10	48	1.8	100	1.8	70	0	962.6	NA	0.0000	-SN BR	2100	360	0	0	0
2019/05/10 16:24:00	BASE	33.43	49	39.10	48	1.8	100	1.8	76	0	962.6	NA	0.0000	-SN BR	2000	330	0	0	0
2019/05/10 16:25:00	BASE	32.37	50	39.10	48	1.8	100	1.8	81	0	962.6	NA	0.0000	-SN BR	2000	360	0	0	0
2019/05/10 16:26:00	BASE	32.23	50	39.10	48	1.8	100	1.8	83	0	962.6	NA	0.0000	-SN BR	2000	360	0	0	0
2019/05/10 16:27:00	BASE	30.37	49	38.38	51	1.8	100	1.8	79	0	962.6	NA	0.0000	-SN BR	2100	0	0	0	2330
2019/05/10 16:28:00	BASE	30.86	48	38.38	51	1.9	100	1.9	74	0	962.4	NA	0.0000	-SN BR	2200	1510	0	0	0
2019/05/10 16:29:00	BASE	32.43	48	38.38	51	1.9	100	1.9	71	0	962.3	NA	0.0000	-SN BR	1900	360	0	0	0
2019/05/10 16:30:00	BASE	31.93	51	38.38	51	1.9	100	1.9	71	0	962.3	NA	0.0000	-SN BR	2100	360	0	0	0
2019/05/10 16:31:00	BASE	31.47	52	38.38	51	1.9	100	1.9	67	0	962.3	NA	0.0000	-SN BR	2700	390	0	0	0
2019/05/10 16:32:00	BASE	31.62	50	38.38	51	1.9	100	1.9	67	0	962.2	NA	0.0000	-SN BR	2500	360	0	0	0
2019/05/10 16:33:00	BASE	32.66	49	38.33	49	1.9	100	1.9	67	0	962.1	NA	0.0000	-SN BR	2100	330	0	0	0
2019/05/10 16:34:00	BASE	32.89	51	38.33	49	1.9	100	1.9	67	0	962.1	NA	0.0000	-SN BR	2000	360	0	0	0
2019/05/10 16:35:00	BASE	33.20	55	38.07	45	1.9	100	1.9	64	0	962.0	NA	0.0000	-SN BR	2100	330	0	0	0
2019/05/10 16:36:00	BASE	33.51	57	38.07	45	1.8	100	1.8	53	0	962.1	NA	0.0000	-SN BR	2100	360	0	0	0
2019/05/10 16:37:00	BASE	31.47	58	38.07	45	1.8	100	1.8	47	0	962.2	NA	0.0000	-SN BR	2600	360	0	0	0
2019/05/10 16:38:00	BASE	30.67	60	38.07	45	1.8	100	1.8	40	0	962.2	NA	0.0000	-SN BR	2600	390	0	0	0
2019/05/10 16:39:00	BASE	30.12	60	38.07	45	1.8	100	1.8	33	0	962.2	NA	0.0000	-SN BR	3100	330	0	0	0
2019/05/10 16:40:00	BASE	29.58	63	38.07	45	1.8	100	1.8	27	0	962.2	NA	0.0000	-SN BR	2700	300	0	0	0
2019/05/10 16:41:00	BASE	29.21	67	38.07	45	1.8	100	1.8	23	0	962.2	NA	0.0000	-SN BR	2000	300	0	0	0
2019/05/10 16:42:00	BASE	28.37	67	37.61	55	1.9	100	1.9	21	0	962.2	NA	0.0000	-SN BR	2100	330	0	0	0
2019/05/10 16:43:00	BASE	28.55	67	37.55	54	1.9	100	1.9	20	0	962.1	NA	0.0000	-SN BR	2200	360	0	0	0
2019/05/10 16:44:00	BASE	28.98	66	37.55	54	1.9	100	1.9	19	0	962.0	NA	0.0000	-SN BR	1900	300	0	0	0
2019/05/10 16:45:01	BASE	29.35	65	37.55	54	1.9	100	1.9	18	0	962.1	NA	0.0000	-SN BR	1900	360	0	0	0
2019/05/10 16:46:01	BASE	25.34	68	37.55	54	1.9	100	1.9	19	0	962.2	NA	0.0000	-SN BR	2100	0	0	0	2070
2019/05/10 16:47:01	BASE	19.43	76	34.67	68	1.9	100	1.9	18	0	962.2	NA	0.0000	-SN BR	2100	0	0	0	2100
2019/05/10 16:48:01	BASE	17.90	84	34.67	68	1.9	100	1.9	17	0	962.1	NA	0.0000	-SN BR	2500	0	0	0	2070
2019/05/10 16:49:01	BASE	18.94	89	34.67	68	1.9	100	1.9	16	0	962.0	NA	0.0000	-SN BR	2600	0	0	0	2070
2019/05/10 16:50:01	BASE	18.10	97	34.67	68	1.9	100	1.9	14	0	962.0	NA	0.0000	-SN BR	2700	0	0	0	2230
2019/05/10 16:51:01	BASE	17.28	102	34.67	68	1.9	100	1.9	13	0	961.8	NA	0.0000	-SN BR	3100	0	0	0	2170
2019/05/10 16:52:01	BASE	18.15	101	34.67	68	1.8	100	1.8	12	0	961.7	NA	0.0000	-SN BR	2600	0	0	0	2300
2019/05/10 16:53:01	BASE	18.17	99	34.67	68	1.8	100	1.8	11	0	961.7	NA	0.0000	-SN BR	2200	0	0	0	2300
2019/05/10 16:54:01	BASE	19.24	99	34.67	68	1.7	100	1.7	10	0	961.5	NA	0.0000	-SN BR	2500	0	0	0	2170
2019/05/10 16:55:01	BASE	18.88	101	28.50	90	1.7	100	1.7	11	0	961.5	NA	0.0000	-SN BR	3400	0	0	0	2300
2019/05/10 16:56:01	BASE	18.32	99	28.50	90	1.6	100	1.6	11	0	961.4	NA	0.0000	-SN BR	4800	0	0	0	2530
2019/05/10 16:57:01	BASE	19.84	93	28.50	90	1.6	100	1.6	12	0	961.2	NA	0.0000	-SN BR	6000	0	0	0	2430
2019/05/10 16:58:01	BASE	21.33	89	28.50	90	1.7	100	1.7	13	0	961.2	NA	0.0000	-SN BR	8000	0	0	0	2400
2019/05/10 16:59:01	BASE	21.60	89	28.50	90	1.7	100	1.7	14	0	961.2	NA	0.0000	-SN BR	7000	0	0	0	2300
2019/05/10 17:00:01	BASE	21.23	90	28.50	90	1.8	100	1.8	15	0	961.1	NA	0.0000	-SN BR	7000	0	0	0	2330
2019/05/10 17:01:01	BASE	22.00	88	28.50	90	1.8	100	1.8	16	0	961.1	NA	0.0000	-SN BR	9999	0	0	0	2430
2019/05/10 17:02:01	BASE	23.66	88	28.96	99	1.8	100	1.8	18	0	961.0	NA	0.0000	-SN BR	9000	0	0	0	2560
2019/05/10 17:03:01	BASE	23.74	86	28.96	99	1.8	100	1.8	19	0	961.1	NA	0.0000	-SN BR	8000	0	0	0	2460
2019/05/10 17:04:01	BASE	22.10	88	28.96	99	1.9	100	1.9	22	0	961.0	NA	0.0000	-SN BR	9000	0	0	0	2490
2019/05/10 17:05:01	BASE	21.36	94	28.96	99	1.9	100	1.9	24	0	961.0	NA	0.0000	-SN BR	8000	22570	0	0	0
2019/05/10 17:06:01	BASE	19.74	92	28.96	99	1.9	100	1.9	25	0	961.0	NA	0.0000	-SN BR	8000	0	0	0	2590
2019/05/10 17:07:01	BASE	19.40	94	28.96	99	1.9	100	1.9	26	0	960.8	NA	0.0000	-SN BR	8000	0	0	0	2430
2019/05/10 17:08:01	BASE	19.46	98	28.96	99	1.8	100	1.8	25	0	960.9	NA	0.0000	-SN BR	8000	0	0	0	2490
2019/05/10 17:09:01	BASE	19.41	97	28.96	99	1.8	100	1.8	22	0	960.8	NA	0.0000	-SN BR	7000	0	0	0	2430
2019/05/10 17:10:01	BASE	21.08	95	28.96	99	1.8	100	1.8	21	0	960.7	NA	0.0000	-SN BR	7000	0	0	0	2200
2019/05/10 17:11:01	BASE	21.43	96	28.96	99	1.8	100	1.8	19	0	960.6	NA	0.0000	-SN BR	8000	0	0	0	2070
2019/05/10 17:12:01	BASE	20.30	90	27.37	77	1.8	100	1.8	18	0	960.7	NA	0.0000	-SN BR	7000	0	0	0	2170
2019/05/10 17:13:01	BASE	18.86	80	26.75	101	1.8	100	1.8	17	0	960.6	NA	0.0000	-SN BR	7000	0	0	0	2230
2019/05/10 17:14:01	BASE	20.43	76	27.01	66	1.9	100	1.9	17	0	960.5	NA	0.0000	-SN BR	8000	0	0	0	2360
2019/05/10 17:15:01	BASE	23.20	75	28.96	67	1.9	100	1.9	16	0	960.3	NA	0.0000	-SN BR	9000	0	0	0	2330
2019/05/10 17:16:01	BASE	26.57	76	33.80	76	2.0	100	2.0	16	0	960.1	NA	0.0000	-SN BR	9999	0	0	0	2400
2019/05/10 17:17:01	BASE	26.87	77	33.80	76	2.0	100	2.0	16	0	960.2	NA	0.0000	-SN BR	9999	0	0	0	2530
2019/05/10 17:18:01	BASE	24.33	82	33.80	76	2.0	100	2.0	17	0	960.1	NA	0.0000	-SN BR	9999	0	0	0	2200
2019/05/10 17:19:01	BASE	24.36	88	33.80	76	2.0	100	2.0	18	0	960.1	NA	0.0000	-SN BR	7000	0	0	0	2330
2019/05/10 17:20:01	BASE	23.35	87	33.80	76	2.0	100	2.0	19	0	960.1	NA	0.0000	-SN BR	7000	0	0	0	2530
2019/05/10 17:21:01	BASE	22.52	85	33.80	76	2.0	100	2.0	19	0	960.0	NA	0.0000	-SN BR	9999	0	0	0	2490
2019/05/10 17:22:01	BASE	21.52	86	33.80	76	2.0	100	2.0	18	0	960.0	NA	0.0000	-SN BR	9999	0	0	0	2620
2019/05/10 17:23:01	BASE	22.22	86	33.80	76	2.0	100	2.0	17	0	959.9	NA	0.0000	-SN BR	9999	0	0	0	2560
2019/05/10 17:24:01	BASE	23.72	84	33.80	76	2.0	100	2.0	16	0	959.9	NA	0.0000	-SN BR	9999	0	0	0	2490
2019/05/10 17:25:01	BASE	24.06	84	33.80	76	2.1	100	2.1	15	0	959.8	NA	0.0000	-SN	9999	620	0	0	0
2019/05/10 17:26:01	BASE	23.55	81	28.96	85	2.1	100	2.1	14	0	959.7	NA	0.0000	-SN	9999	620	0	0	0
2019/05/10 17:27:01	BASE	23.30	78	29.48	80	2.1	100	2.1	13	0	959.7	NA	0.0000	-SN	9999	460	0	0	0
2019/05/10 17:28:01	BASE	23.41	76	29.48	80	2.2	100	2.2	12	0	959.6	NA	0.0000	-SN	9999	520	0	0	0
2019/05/10 17:29:01	BASE	24.51	75	30.71	72	2.2	100	2.2	11	0	959.6	NA	0.0000	-SN	9999	460	0	0	0
2019/05/10 17:30:01	BASE	27.57	73	31.43	69	2.2	100	2.2	10	0	959.5	NA	0.0000	-SN	9999	490	0	0	0
2019/05/10 17:31:01	BASE	27.07	72	31.43	69	2.2	100	2.2	10	0	959.5	NA	0.0000	-SN	9999	460	0	0	0
2019/05/10 17:32:01	BASE	25.31	72	31.43	69	2.2	100	2.2	9	0	959.4	NA	0.0000	-SN	9000	430	0	0	0
2019/05/10 17:33:01	BASE	26.20	68	31.43	69	2.2	100	2.2	9	0	959.3	NA	0.2540	-SN	6000	430	0	0	0
2019/05/10 17:34:01	BASE	28.68	67	33.23	66	2.2	100	2.2	9	0	959.1	NA	0.0000	-SN BR	3700	390	0	0	0
2019/05/10 17:35:01	BASE	31.09	69	35.91	68	2.2	100	2.2	9	0	958.9	NA	0.0000	-SN BR	2500	330	0	0	0
2019/05/10 17:36:01	BASE	30.75	71	35.91	68	2.2	100	2.2	9	0	958.9	NA	0.0000	-SN BR	1000	300	0	0	0
2019/05/10 17:37:01	BASE	29.58	71	36.17	67	2.1	100	2.1	9	0	958.9	NA	0.0000	-SN BR	1000	300	0	0	0
2019/05/10 17:38:01	BASE	29.83	69	36.17	67	2.1	100	2.1	9	0	958.8	NA	0.0000	-SN BR	2000	300	0	0	0
2019/05/10 17:39:01	BASE	31.11	67	36.27	67	2.0	100	2.0	9	0	958.6	NA	0.0000	-SN BR	2000	330	0	0	0
2019/05/10 17:40:01	BASE	32.24	68	37.81	70	2.0	100	2.0	9	0	958.4	NA	0.0000	-SN BR	1900	0	0	0	1670
2019/05/10 17:41:01	BASE	32.83	66	37.81	70	1.9	100	1.9	8	0	958.2	NA	0.0000	-SN BR	1000	360	0	0	0
2019/05/10 17:42:01	BASE	34.91	64	42.13	67	1.9	100	1.9	7	0	958.1	NA	0.0000	-SN BR	1000	0	0	0	1870
2019/05/10 17:43:01	BASE	36.57	64	42.13	67	1.9	100	1.9	7	0	958.0	NA	0.0000	-SN BR	2100	0	0	0	1610
2019/05/10 17:44:01	BASE	36.94	63	42.13	67	1.9	100	1.9	7	0	958.0	NA	0.2540	-SN BR	1900	0	0	0	1570
2019/05/10 17:45:01	BASE	36.81	62	42.13	67	1.9	100	1.9	6	0	958.0	NA	0.0000	-SN BR	1400	0	0	0	1670
2019/05/10 17:46:01	BASE	36.74	63	42.13	67	1.8	100	1.8	7	0	957.9	NA	0.0000	-SN BR	1400	0	0	0	1640
2019/05/10 17:47:01	BASE	36.94	62	42.96	61	1.8	100	1.8	7	0	957.8	NA	0.0000	-SN BR	1700	430	0	0	0
2019/05/10 17:48:01	BASE	36.18	59	42.96	61	1.8	100	1.8	7	0	957.8	NA	0.0000	-SN BR	1900	1380	0	0	0
2019/05/10 17:49:01	BASE	35.71	56	42.96	61	1.8	100	1.8	7	0	957.7	NA	0.0000	-SN BR	1100	620	0	0	0
2019/05/10 17:50:01	BASE	37.29	57	42.96	61	1.8	100	1.8	7	0	957.6	NA	0.0000	-SN BR	1000	0	0	0	1510
2019/05/10 17:51:01	BASE	38.75	57	44.04	60	1.9	100	1.9	7	0	957.6	NA	0.0000	-SN BR	1200	260	0	0	0
2019/05/10 17:52:01	BASE	39.74	57	45.07	57	1.9	100	1.9	7	0	957.4	NA	0.0000	-SN BR	0650	0	0	0	1180
2019/05/10 17:53:01	BASE	39.91	57	45.07	57	1.9	100	1.9	7	0	957.4	NA	0.2540	-SN BR	0650	0	0	0	1280
2019/05/10 17:54:01	BASE	38.31	56	45.07	57	1.8	100	1.8	8	0	957.3	NA	0.0000	+SN BR	0700	230	0	0	0
2019/05/10 17:55:01	BASE	38.34	59	45.07	57	1.7	100	1.7	8	0	957.2	NA	0.0000	+SN BR	0500	230	0	0	0
2019/05/10 17:56:01	BASE	39.61	61	45.94	64	1.7	100	1.7	8	0	957.1	NA	0.0000	SN FG	0450	0	0	0	1310
2019/05/10 17:57:01	BASE	40.24	60	45.94	64	1.6	100	1.6	8	0	957.0	NA	0.0000	SN FG	0500	0	0	0	1250
2019/05/10 17:58:01	BASE	40.34	59	45.94	64	1.6	100	1.6	8	0	957.1	NA	0.0000	+SN FG	0600	0	0	0	1410
2019/05/10 17:59:01	BASE	39.52	59	45.94	64	1.5	100	1.5	8	0	957.0	NA	0.0000	+SN FG	0700	260	0	0	0
2019/05/10 18:00:01	BASE	39.50	60	45.94	64	1.5	100	1.5	7	0	956.9	NA	0.0000	+SN FG	0650	0	0	0	1120
2019/05/10 18:01:01	BASE	41.41	60	47.53	58	1.5	100	1.5	8	0	956.7	NA	0.0000	+SN FG	0700	0	0	0	920
2019/05/10 18:02:01	BASE	40.85	59	47.53	58	1.5	100	1.5	9	0	956.9	NA	0.0000	+SN FG	0600	0	0	0	1020
2019/05/10 18:03:01	BASE	39.18	59	47.53	58	1.4	100	1.4	10	0	956.7	NA	0.0000	+SN FG	0450	0	0	0	1050
2019/05/10 18:04:01	BASE	39.38	62	47.53	58	1.4	100	1.4	9	0	956.7	NA	0.0000	+SN FG	0450	0	0	0	1120
2019/05/10 18:05:01	BASE	39.02	64	47.53	58	1.4	100	1.4	9	0	956.6	NA	0.0000	+SN FG	0500	0	0	0	1050
2019/05/10 18:06:01	BASE	39.11	65	47.53	58	1.3	100	1.3	10	0	956.6	NA	0.0000	+SN FG	0500	0	0	0	1020
2019/05/10 18:07:01	BASE	38.40	64	47.53	58	1.3	100	1.3	10	0	956.6	NA	0.0000	+SN FG	0450	0	0	0	1180
2019/05/10 18:08:01	BASE	38.60	62	47.53	58	1.3	100	1.3	8	0	956.4	NA	0.0000	+SN FG	0450	0	0	0	1280
2019/05/10 18:09:01	BASE	39.38	61	47.53	58	1.3	100	1.3	8	0	956.5	NA	0.0000	+SN FG	0500	0	0	0	1150
2019/05/10 18:10:01	BASE	38.77	60	47.53	58	1.3	100	1.3	7	0	956.5	NA	0.0000	+SN FG	0600	230	0	0	0
2019/05/10 18:11:01	BASE	39.78	62	45.99	61	1.3	100	1.3	6	0	956.4	NA	0.0000	+SN FG	0650	230	0	0	0
2019/05/10 18:12:01	BASE	40.73	62	45.94	59	1.3	100	1.3	5	0	956.4	NA	0.2540	+SN FG	0700	0	0	0	1540
2019/05/10 18:13:01	BASE	40.83	61	45.94	59	1.3	100	1.3	6	0	956.2	NA	0.0000	+SN FG	0650	0	0	0	1380
2019/05/10 18:14:01	BASE	41.10	60	48.56	56	1.3	100	1.3	6	0	956.2	NA	0.0000	+SN FG	0300	0	0	0	1440
2019/05/10 18:15:01	BASE	41.17	59	48.56	56	1.3	100	1.3	6	0	956.2	NA	0.0000	+SN FG	0250	0	0	0	1540
2019/05/10 18:16:01	BASE	41.96	58	48.56	56	1.3	100	1.3	6	0	956.1	NA	0.0000	+SN FG	0500	0	0	0	1280
2019/05/10 18:17:01	BASE	41.16	56	48.56	56	1.3	100	1.3	6	0	956.2	NA	0.0000	+SN FG	1100	0	0	0	1180
2019/05/10 18:18:01	BASE	39.64	54	48.56	56	1.3	100	1.3	5	0	956.2	NA	0.0000	+SN FG	0800	0	0	0	1080
2019/05/10 18:19:01	BASE	37.58	57	48.56	56	1.3	100	1.3	5	0	956.2	NA	0.0000	+SN FG	0650	0	0	0	1080
2019/05/10 18:20:01	BASE	38.21	60	48.56	56	1.2	100	1.2	5	0	955.8	NA	0.0000	+SN FG	0600	0	0	0	1180
2019/05/10 18:21:01	BASE	41.72	57	48.56	56	1.2	100	1.2	4	0	955.7	NA	0.0000	+SN FG	0650	0	0	0	1410
2019/05/10 18:22:01	BASE	40.87	56	48.56	56	1.2	100	1.2	4	0	955.9	NA	0.0000	+SN FG	0700	0	0	0	1280
2019/05/10 18:23:01	BASE	40.58	55	48.56	56	1.2	100	1.2	4	0	955.9	NA	0.0000	+SN FG	0650	0	0	0	1310
2019/05/10 18:24:01	BASE	41.62	56	48.05	53	1.2	100	1.2	4	0	955.8	NA	0.0000	+SN FG	0650	0	0	0	1250
2019/05/10 18:25:01	BASE	40.73	59	48.05	53	1.2	100	1.2	5	0	955.8	NA	0.0000	+SN FG	0550	0	0	0	1150
2019/05/10 18:26:01	BASE	39.33	57	48.05	53	1.2	100	1.2	5	0	955.9	NA	0.0000	+SN FG	0500	0	0	0	1120
2019/05/10 18:27:01	BASE	39.21	54	48.05	53	1.2	100	1.2	5	0	955.8	NA	0.0000	+SN FG	0450	0	0	0	1380
2019/05/10 18:28:01	BASE	40.26	51	48.05	53	1.2	100	1.2	6	0	955.6	NA	0.0000	+SN FG	0450	0	0	0	1180
2019/05/10 18:29:01	BASE	38.54	50	48.05	53	1.2	100	1.2	7	0	955.7	NA	0.0000	+SN FG	0500	0	0	0	1540
2019/05/10 18:30:01	BASE	35.59	49	47.23	59	1.3	100	1.3	7	0	955.7	NA	0.0000	+SN FG	0800	390	0	0	0
2019/05/10 18:31:01	BASE	39.21	49	47.95	43	1.4	100	1.4	6	0	955.1	NA	0.2540	SN FG	0900	390	0	0	0
2019/05/10 18:32:01	BASE	42.82	54	47.95	43	1.5	100	1.5	7	0	955.0	NA	0.0000	SN FG	0750	0	0	0	1510
2019/05/10 18:33:01	BASE	41.68	57	47.95	43	1.6	100	1.6	8	0	954.9	NA	0.0000	SN FG	0600	0	0	0	1310
2019/05/10 18:34:01	BASE	41.38	58	47.95	43	1.6	100	1.6	9	0	954.8	NA	0.0000	SN FG	0700	0	0	0	1540
2019/05/10 18:35:01	BASE	40.75	58	47.95	43	1.6	100	1.6	11	0	954.8	NA	0.0000	+SN FG	0700	0	0	0	1440
2019/05/10 18:36:01	BASE	39.27	57	47.95	43	1.5	100	1.5	12	0	954.6	NA	0.0000	+SN FG	0550	0	0	0	1510
2019/05/10 18:37:01	BASE	38.30	56	47.95	43	1.4	100	1.4	12	0	954.6	NA	0.0000	+SN FG	0650	260	0	0	0
2019/05/10 18:38:01	BASE	39.78	55	47.95	43	1.4	100	1.4	12	0	954.3	NA	0.0000	+SN FG	0650	330	0	0	0
2019/05/10 18:39:01	BASE	43.28	50	51.14	42	1.4	100	1.4	12	0	954.0	NA	0.2540	SN FG	0700	390	0	0	0
2019/05/10 18:40:01	BASE	43.69	49	51.14	42	1.5	100	1.5	11	0	954.1	NA	0.0000	SN FG	1000	0	0	0	2330
2019/05/10 18:41:01	BASE	42.79	48	51.14	42	1.6	100	1.6	9	0	954.0	NA	0.0000	-SN FG	1700	460	0	0	0
2019/05/10 18:42:01	BASE	45.10	48	52.47	43	1.7	100	1.7	8	0	953.7	NA	0.0000	-SN FG	1600	0	0	0	2130
2019/05/10 18:43:01	BASE	45.55	49	52.47	43	1.8	100	1.8	8	0	953.8	NA	0.0000	-SN FG	0900	0	0	0	2200
2019/05/10 18:44:01	BASE	43.24	52	52.47	43	1.9	100	1.9	7	0	954.1	NA	0.0000	-SN FG	0750	0	0	0	1800
2019/05/10 18:45:01	BASE	40.51	54	52.47	43	1.9	100	1.9	6	0	954.1	NA	0.0000	-SN FG	0750	0	0	0	2030
2019/05/10 18:46:01	BASE	41.70	48	52.47	43	1.9	100	1.9	6	0	953.9	NA	0.0000	-SN FG	0900	360	0	0	0
2019/05/10 18:47:01	BASE	43.47	45	52.47	43	1.9	100	1.9	6	0	954.3	NA	0.2540	UP BR	0900	300	0	0	0
2019/05/10 18:48:01	BASE	43.22	47	52.47	43	1.8	100	1.8	6	0	954.1	NA	0.0000	UP BR	0800	330	0	0	0
2019/05/10 18:49:01	BASE	43.75	50	52.47	43	1.7	100	1.7	5	0	954.1	NA	0.0000	-SN BR	1000	300	0	0	0
2019/05/10 18:50:01	BASE	40.05	51	52.47	43	1.7	100	1.7	4	0	954.3	NA	0.0000	-SN BR	1200	330	0	0	0
2019/05/10 18:51:01	BASE	37.31	50	52.47	43	1.7	100	1.7	4	0	954.2	NA	0.0000	SN BR	1200	360	0	0	0
2019/05/10 18:52:01	BASE	37.90	51	50.06	44	1.7	100	1.7	4	0	954.2	NA	0.0000	SN BR	1100	330	0	0	0
2019/05/10 18:53:01	BASE	38.92	50	49.13	51	1.7	100	1.7	3	0	954.0	NA	0.2540	SN BR	0800	360	0	0	0
2019/05/10 18:54:01	BASE	41.20	49	50.16	51	1.8	100	1.8	4	0	953.8	NA	0.0000	-SN BR	0800	360	0	0	0
2019/05/10 18:55:01	BASE	41.64	47	50.16	51	1.9	100	1.9	4	0	954.0	NA	0.0000	-SN BR	0900	360	0	0	0
2019/05/10 18:56:01	BASE	40.50	48	50.16	51	1.9	100	1.9	4	0	954.0	NA	0.0000	-SN BR	0900	360	0	0	0
2019/05/10 18:57:01	BASE	38.78	52	50.16	51	2.0	100	2.0	4	0	954.1	NA	0.0000	-SN BR	0700	300	0	0	0
2019/05/10 18:58:01	BASE	38.11	54	50.16	51	1.9	100	1.9	4	0	954.0	NA	0.2540	-SN BR	0800	330	0	0	0
2019/05/10 18:59:01	BASE	38.83	51	50.16	51	1.9	100	1.9	5	0	954.1	NA	0.0000	SN BR	1300	300	0	0	0
2019/05/10 19:00:01	BASE	38.28	51	50.16	51	1.8	100	1.8	5	0	954.0	NA	0.0000	SN BR	0700	300	0	0	0
2019/05/10 19:01:01	BASE	38.80	52	50.16	51	1.7	100	1.7	5	0	953.9	NA	0.2540	SN FG	0550	330	0	0	0
2019/05/10 19:02:01	BASE	39.78	50	50.16	51	1.7	100	1.7	4	0	953.9	NA	0.0000	SN FG	0700	300	0	0	0
2019/05/10 19:03:01	BASE	39.29	51	50.16	51	1.7	100	1.7	4	0	953.8	NA	0.0000	SN FG	0900	230	0	0	0
2019/05/10 19:04:01	BASE	39.85	50	46.81	48	1.7	100	1.7	3	0	953.6	NA	0.0000	-SN FG	0800	300	0	0	0
2019/05/10 19:05:01	BASE	41.73	48	48.92	48	1.7	100	1.7	3	0	953.7	NA	0.2540	-SN FG	0650	330	0	0	0
2019/05/10 19:06:01	BASE	40.44	47	48.92	48	1.7	100	1.7	2	0	953.9	NA	0.0000	-SN FG	0700	300	0	0	0
2019/05/10 19:07:01	BASE	38.57	48	48.92	48	1.7	100	1.7	2	0	953.9	NA	0.0000	-SN FG	0650	300	0	0	0
2019/05/10 19:08:01	BASE	38.92	50	48.92	48	1.8	100	1.8	2	0	953.8	NA	0.2540	-SN FG	0550	260	0	0	0
2019/05/10 19:09:01	BASE	39.65	51	48.92	48	1.8	100	1.8	1	0	953.6	NA	0.0000	UP FG	0550	300	0	0	0
2019/05/10 19:10:01	BASE	40.85	52	48.92	48	1.8	100	1.8	1	0	953.6	NA	0.0000	UP FG	0550	300	0	0	0
2019/05/10 19:11:01	BASE	38.75	53	48.92	48	1.7	100	1.7	1	0	953.8	NA	0.2540	-SN FG	1500	300	0	0	0
2019/05/10 19:12:01	BASE	36.56	52	48.92	48	1.7	100	1.7	1	0	953.9	NA	0.0000	SN FG	2500	300	0	0	0
2019/05/10 19:13:01	BASE	36.48	50	48.92	48	1.7	100	1.7	1	0	953.8	NA	0.0000	SN FG	1600	300	0	0	0
2019/05/10 19:14:01	BASE	37.08	50	48.92	48	1.7	100	1.7	1	0	953.6	NA	0.2540	SN FG	1600	330	0	0	0
2019/05/10 19:15:01	BASE	39.88	48	46.51	49	1.7	100	1.7	1	0	953.5	NA	0.0000	SN BR	2300	300	0	0	0
2019/05/10 19:16:01	BASE	38.78	49	46.51	49	1.7	100	1.7	1	0	953.7	NA	0.2540	SN BR	1400	330	0	0	0
2019/05/10 19:17:01	BASE	38.15	50	46.51	49	1.8	100	1.8	1	0	953.6	NA	0.0000	SN BR	1300	360	0	0	0
2019/05/10 19:18:01	BASE	41.10	50	46.51	49	1.9	100	1.9	1	0	953.6	NA	0.2540	-SN BR	1300	360	0	0	0
2019/05/10 19:19:01	BASE	40.23	50	46.51	49	2.0	100	2.0	1	0	953.6	NA	0.0000	-SN BR	1300	300	0	0	0
2019/05/10 19:20:01	BASE	40.59	50	47.33	51	2.0	100	2.0	1	0	953.3	NA	0.2540	-SN BR	1700	260	0	0	0
2019/05/10 19:21:01	BASE	41.22	52	47.33	51	2.0	100	2.0	1	0	953.4	NA	0.0000	-SN BR	2300	0	0	0	1350
2019/05/10 19:22:01	BASE	39.33	52	47.33	51	1.9	100	1.9	1	0	953.4	NA	0.0000	-SN BR	2100	0	0	0	1310
2019/05/10 19:23:01	BASE	38.35	55	47.33	51	1.8	100	1.8	1	0	953.4	NA	0.2540	-SN BR	1000	0	0	0	1610
2019/05/10 19:24:01	BASE	40.18	57	47.33	51	1.7	100	1.7	1	0	953.1	NA	0.0000	-SN BR	1000	0	0	0	1610
2019/05/10 19:25:01	BASE	40.90	56	47.33	51	1.6	100	1.6	0	0	953.1	NA	0.0000	-SN BR	2000	0	0	0	1410
2019/05/10 19:26:01	BASE	39.67	53	47.33	51	1.6	100	1.6	0	0	953.1	NA	0.2540	-SN BR	2100	300	0	0	0
2019/05/10 19:27:01	BASE	42.56	49	47.33	51	1.5	100	1.5	1	0	952.8	NA	0.0000	-SN BR	2300	330	0	0	0
2019/05/10 19:28:01	BASE	42.86	47	47.33	51	1.6	100	1.6	1	0	953.0	NA	0.2540	-SN BR	2800	330	0	0	0
2019/05/10 19:29:01	BASE	39.63	48	47.33	51	1.7	100	1.7	1	0	953.1	NA	0.0000	-SN BR	1700	300	0	0	0
2019/05/10 19:30:01	BASE	40.19	50	47.12	57	1.8	100	1.8	2	0	953.0	NA	0.0000	-SN BR	1600	260	0	0	0
2019/05/10 19:31:01	BASE	40.53	50	48.10	48	1.9	100	1.9	2	0	952.7	NA	0.2540	-SN BR	0800	0	0	0	2100
2019/05/10 19:32:01	BASE	41.21	50	48.10	48	2.0	100	2.0	2	0	952.7	NA	0.0000	-SN BR	0650	0	0	0	2100
2019/05/10 19:33:01	BASE	41.43	50	48.10	48	2.0	100	2.0	2	0	952.8	NA	0.2540	-SN BR	0650	260	0	0	0
2019/05/10 19:34:01	BASE	41.62	49	48.10	48	2.0	100	2.0	2	0	952.6	NA	0.0000	-SN BR	0700	300	0	0	0
2019/05/10 19:35:01	BASE	42.57	47	48.10	48	2.0	100	2.0	2	0	952.7	NA	0.0000	-SN BR	0800	0	0	0	2170
2019/05/10 19:36:01	BASE	39.46	48	48.10	48	2.0	100	2.0	2	0	952.9	NA	0.2540	-SN BR	1100	0	0	0	2100
2019/05/10 19:37:01	BASE	36.65	48	48.10	48	2.1	100	2.1	1	0	952.8	NA	0.0000	-SN BR	2100	330	0	0	0
2019/05/10 19:38:01	BASE	38.53	50	48.10	48	2.1	100	2.1	1	0	952.6	NA	0.0000	-SN BR	4200	0	0	0	2170
2019/05/10 19:39:01	BASE	40.21	50	48.10	48	2.0	100	2.0	1	0	952.6	NA	0.2540	-SN BR	5000	0	0	0	2000
2019/05/10 19:40:01	BASE	38.66	47	48.10	48	2.0	100	2.0	1	0	952.7	NA	0.0000	-SN BR	5000	390	0	0	0
2019/05/10 19:41:01	BASE	39.25	46	47.84	48	2.0	100	2.0	1	0	952.4	NA	0.0000	-SN BR	4900	360	0	0	0
2019/05/10 19:42:01	BASE	39.96	47	47.64	46	2.0	100	2.0	1	0	952.5	NA	0.0000	-SN BR	2600	360	0	0	0
2019/05/10 19:43:01	BASE	39.44	46	47.64	46	2.1	100	2.1	0	0	952.5	NA	0.0000	-SN BR	1700	330	0	0	0
2019/05/10 19:44:01	BASE	42.06	45	47.12	38	2.1	100	2.1	0	0	952.3	NA	0.2540	-SN BR	1600	330	0	0	0
2019/05/10 19:45:01	BASE	42.43	45	47.12	38	2.1	100	2.1	0	0	952.3	NA	0.0000	-SN BR	1400	300	0	0	0
2019/05/10 19:46:01	BASE	40.68	47	47.12	38	2.2	100	2.2	0	0	952.4	NA	0.2540	-SN BR	1400	300	0	0	0
2019/05/10 19:47:01	BASE	42.28	47	47.74	47	2.2	100	2.2	0	0	952.3	NA	0.0000	-SN BR	1300	300	0	0	0
2019/05/10 19:48:01	BASE	42.04	46	47.74	47	2.2	100	2.2	0	0	952.5	NA	0.2540	-SN BR	1200	330	0	0	0
2019/05/10 19:49:01	BASE	41.46	45	49.85	41	2.3	100	2.3	0	0	952.2	NA	0.0000	-SN BR	1100	360	0	0	0
2019/05/10 19:50:01	BASE	44.16	44	51.14	50	2.4	100	2.4	0	0	951.9	NA	0.2540	UP BR	1200	330	0	0	0
2019/05/10 19:51:01	BASE	45.73	45	51.14	50	2.4	100	2.4	0	0	952.0	NA	0.2540	UP BR	1800	300	0	0	0
2019/05/10 19:52:01	BASE	44.91	45	51.14	50	2.5	100	2.5	0	0	952.1	NA	0.0000	UP BR	0900	300	0	0	0
2019/05/10 19:53:01	BASE	43.30	45	51.14	50	2.5	100	2.5	0	0	952.1	NA	0.2540	-SN BR	0900	330	0	0	0
2019/05/10 19:54:01	BASE	41.52	46	51.14	50	2.5	100	2.5	0	0	952.1	NA	0.2540	-SN BR	1500	330	0	0	0
2019/05/10 19:55:01	BASE	41.56	47	51.14	50	2.4	100	2.4	0	0	951.9	NA	0.0000	-SN BR	1400	0	0	0	2620
2019/05/10 19:56:01	BASE	40.72	46	51.14	50	2.4	100	2.4	0	0	952.1	NA	0.0000	-SN BR	1900	0	0	0	2530
2019/05/10 19:57:01	BASE	39.52	46	51.14	50	2.3	100	2.3	0	0	952.0	NA	0.2540	-SN BR	2700	0	0	0	2690
2019/05/10 19:58:01	BASE	40.70	45	51.14	50	2.3	100	2.3	0	0	951.9	NA	0.0000	-SN BR	4800	0	0	0	2560
2019/05/10 19:59:01	BASE	40.18	45	51.14	50	2.3	100	2.3	0	0	952.0	NA	0.0000	-SN BR	5000	0	0	0	2430
2019/05/10 20:00:01	BASE	39.94	44	50.72	48	2.3	100	2.3	0	0	951.9	NA	0.0000	-SN BR	5000	0	0	0	2360
2019/05/10 20:01:01	BASE	40.51	43	47.89	38	2.3	100	2.3	0	0	951.9	NA	0.0000	-SN BR	2700	360	0	0	0
2019/05/10 20:02:01	BASE	40.66	43	47.89	38	2.3	100	2.3	0	0	951.8	NA	0.0000	-SN BR	1900	360	0	0	0
2019/05/10 20:03:01	BASE	39.73	43	47.89	38	2.3	100	2.3	0	0	951.9	NA	0.2540	-SN BR	1900	330	0	0	0
2019/05/10 20:04:01	BASE	39.42	41	51.91	44	2.4	100	2.4	0	0	951.7	NA	0.0000	-SN BR	2500	330	0	0	0
2019/05/10 20:05:01	BASE	40.22	40	51.91	44	2.4	100	2.4	0	0	951.8	NA	0.0000	-SN BR	3800	360	0	0	0
2019/05/10 20:06:01	BASE	38.85	38	51.91	44	2.5	100	2.5	0	0	951.9	NA	0.0000	-SN BR	2500	0	0	0	2260
2019/05/10 20:07:01	BASE	39.30	39	51.91	44	2.5	100	2.5	0	0	951.8	NA	0.0000	-SN BR	1900	0	0	0	2330
2019/05/10 20:08:01	BASE	40.18	40	51.91	44	2.5	100	2.5	0	0	951.9	NA	0.2540	-SN BR	1900	0	0	0	2360
2019/05/10 20:09:01	BASE	40.17	42	51.91	44	2.5	100	2.5	0	0	951.8	NA	0.0000	-SN BR	1900	0	0	0	2400
2019/05/10 20:10:01	BASE	41.02	45	51.91	44	2.5	100	2.5	0	0	951.9	NA	0.0000	-SN BR	1900	0	0	0	2430
2019/05/10 20:11:00	BASE	39.15	44	51.91	44	2.5	100	2.5	0	0	952.0	NA	0.0000	-SN BR	2700	0	0	0	2460
2019/05/10 20:12:01	BASE	38.30	44	51.91	44	2.5	100	2.5	0	0	951.8	NA	0.0000	-SN BR	4200	390	0	0	0
2019/05/10 20:13:01	BASE	39.22	43	51.91	44	2.5	100	2.5	0	0	951.7	NA	0.2540	-SN BR	2400	360	0	0	0
2019/05/10 20:14:01	BASE	40.64	44	48.67	38	2.4	100	2.4	0	0	951.6	NA	0.0000	-SN BR	1800	360	0	0	0
2019/05/10 20:15:01	BASE	43.09	48	48.61	46	2.4	100	2.4	0	0	951.6	NA	0.0000	-SN BR	1700	360	0	0	0
2019/05/10 20:16:01	BASE	44.03	48	49.80	44	2.4	100	2.4	0	0	951.5	NA	0.2540	-SN BR	1600	360	0	0	0
2019/05/10 20:17:00	BASE	43.13	47	49.80	44	2.4	100	2.4	0	0	951.6	NA	0.0000	-SN BR	1400	330	0	0	0
2019/05/10 20:18:01	BASE	42.24	47	49.80	44	2.5	100	2.5	0	0	951.6	NA	0.0000	-SN BR	1400	330	0	0	0
2019/05/10 20:19:00	BASE	41.37	48	49.80	44	2.5	100	2.5	0	0	951.7	NA	0.2540	-SN BR	1400	300	0	0	0
2019/05/10 20:20:00	BASE	39.55	48	49.80	44	2.5	100	2.5	0	0	951.8	NA	0.0000	-SN BR	1900	330	0	0	0
2019/05/10 20:21:01	BASE	38.92	46	49.80	44	2.5	100	2.5	0	0	951.7	NA	0.2540	-SN BR	2100	330	0	0	0
2019/05/10 20:22:01	BASE	37.31	45	49.80	44	2.4	100	2.4	0	0	951.9	NA	0.0000	UP BR	1600	360	0	0	0
2019/05/10 20:23:00	BASE	36.06	45	49.80	44	2.4	100	2.4	0	0	951.9	NA	0.0000	UP BR	1700	0	0	0	1970
2019/05/10 20:24:01	BASE	36.50	45	49.80	44	2.3	100	2.3	0	0	951.9	NA	0.0000	-SN BR	2400	360	0	0	0
2019/05/10 20:25:00	BASE	37.90	46	49.80	44	2.3	100	2.3	0	0	951.7	NA	0.2540	-SN BR	2000	330	0	0	0
2019/05/10 20:26:01	BASE	40.04	46	47.48	45	2.2	100	2.2	0	0	951.6	NA	0.0000	-SN BR	1400	330	0	0	0
2019/05/10 20:27:00	BASE	39.64	44	47.43	36	2.2	100	2.2	0	0	951.7	NA	0.2540	-SN BR	2000	330	0	0	0
2019/05/10 20:28:01	BASE	38.78	42	44.50	39	2.2	100	2.2	0	0	951.5	NA	0.0000	-SN BR	1800	330	0	0	0
2019/05/10 20:29:00	BASE	39.35	42	44.86	45	2.2	100	2.2	0	0	951.5	NA	0.0000	-SN BR	1800	260	0	0	0
2019/05/10 20:30:01	BASE	37.32	43	44.86	45	2.2	100	2.2	0	0	951.7	NA	0.2540	-SN BR	1700	300	0	0	0
2019/05/10 20:31:01	BASE	36.36	43	44.86	45	2.3	100	2.3	0	0	951.6	NA	0.0000	-SN BR	1800	330	0	0	0
2019/05/10 20:32:01	BASE	37.12	45	44.86	45	2.3	100	2.3	0	0	951.7	NA	0.2540	-SN BR	2100	330	0	0	0
2019/05/10 20:33:00	BASE	35.84	45	44.86	45	2.3	100	2.3	0	0	951.7	NA	0.0000	-SN BR	2100	0	0	0	2400
2019/05/10 20:34:01	BASE	36.48	45	44.86	45	2.3	100	2.3	0	0	951.5	NA	0.0000	-SN BR	2200	300	0	0	0
2019/05/10 20:35:01	BASE	36.64	46	44.86	45	2.2	100	2.2	0	0	951.6	NA	0.2540	-SN BR	1600	300	0	0	0
2019/05/10 20:36:01	BASE	35.06	45	44.86	45	2.2	100	2.2	0	0	951.7	NA	0.0000	-SN BR	2100	300	0	0	0
2019/05/10 20:37:00	BASE	34.98	45	44.86	45	2.1	100	2.1	0	0	951.6	NA	0.0000	-SN BR	1900	230	0	0	0
2019/05/10 20:38:01	BASE	35.66	45	44.86	45	2.1	100	2.1	0	0	951.6	NA	0.2540	-SN BR	1300	0	0	0	2260
2019/05/10 20:39:00	BASE	36.96	44	40.80	51	2.0	100	2.0	0	0	951.5	NA	0.0000	-SN BR	1900	330	0	0	0
2019/05/10 20:40:01	BASE	37.03	44	40.80	51	2.0	100	2.0	0	0	951.6	NA	0.0000	-SN BR	3300	300	0	0	0
2019/05/10 20:41:00	BASE	37.31	45	41.77	46	2.0	100	2.0	0	0	951.6	NA	0.2540	-SN BR	3200	300	0	0	0
2019/05/10 20:42:01	BASE	36.96	45	41.77	46	2.0	100	2.0	0	0	951.7	NA	0.0000	-SN BR	3100	300	0	0	0
2019/05/10 20:43:00	BASE	34.62	44	41.77	46	2.0	100	2.0	0	0	951.6	NA	0.0000	-SN BR	3100	300	0	0	0
2019/05/10 20:44:01	BASE	33.96	43	41.77	46	2.0	100	2.0	0	0	951.6	NA	0.2540	-SN BR	2200	330	0	0	0
2019/05/10 20:45:00	BASE	34.33	44	42.03	46	2.0	100	2.0	0	0	951.5	NA	0.0000	-SN BR	2100	330	0	0	0
2019/05/10 20:46:01	BASE	36.18	42	43.57	32	2.1	100	2.1	0	0	951.3	NA	0.0000	-SN BR	2900	330	0	0	0
2019/05/10 20:47:00	BASE	37.13	42	43.57	32	2.1	100	2.1	0	0	951.4	NA	0.2540	-SN BR	2100	330	0	0	0
2019/05/10 20:48:00	BASE	35.86	44	43.57	32	2.2	100	2.2	0	0	951.4	NA	0.0000	-SN BR	1600	360	0	0	0
2019/05/10 20:49:00	BASE	32.44	38	43.57	32	2.2	100	2.2	0	0	951.5	NA	0.0000	-SN BR	2400	360	0	0	0
2019/05/10 20:50:01	BASE	31.75	37	43.57	32	2.3	100	2.3	0	0	951.2	NA	0.0000	-SN BR	4700	360	0	0	0
2019/05/10 20:51:00	BASE	36.44	36	44.14	34	2.3	100	2.3	0	0	951.0	NA	0.2540	-SN BR	4200	0	0	0	2230
2019/05/10 20:52:01	BASE	37.55	35	44.14	34	2.3	100	2.3	0	0	951.1	NA	0.0000	-SN BR	2700	330	0	0	0
2019/05/10 20:53:00	BASE	36.46	35	44.19	28	2.3	100	2.3	0	0	950.9	NA	0.0000	-SN BR	2000	330	0	0	0
2019/05/10 20:54:00	BASE	36.87	36	44.19	28	2.4	100	2.4	0	0	950.9	NA	0.0000	-SN BR	2700	330	0	0	0
2019/05/10 20:55:01	BASE	36.89	37	44.19	28	2.4	100	2.4	0	0	950.9	NA	0.0000	-SN BR	3900	330	0	0	0
2019/05/10 20:56:01	BASE	36.73	34	44.19	28	2.5	100	2.5	0	0	950.9	NA	0.0000	-SN BR	3600	360	0	0	0
2019/05/10 20:57:00	BASE	37.19	34	44.19	28	2.5	100	2.5	0	0	950.7	NA	0.2540	-SN BR	3600	1510	0	0	0
2019/05/10 20:58:01	BASE	36.31	34	44.19	28	2.5	100	2.5	0	0	950.8	NA	0.0000	-SN BR	3800	0	0	0	2030
2019/05/10 20:59:00	BASE	35.93	33	44.19	28	2.5	100	2.5	0	0	950.6	NA	0.0000	-SN BR	4500	0	0	0	2000
2019/05/10 21:00:01	BASE	36.55	35	44.19	28	2.5	100	2.5	0	0	950.7	NA	0.0000	-SN BR	5000	0	0	0	2100
2019/05/10 21:01:00	BASE	36.85	34	44.19	28	2.5	100	2.5	0	0	950.6	NA	0.0000	-SN BR	5000	330	0	0	0
2019/05/10 21:02:01	BASE	37.69	32	44.19	28	2.5	100	2.5	0	0	950.5	NA	0.0000	-SN BR	5000	360	0	0	0
2019/05/10 21:03:00	BASE	37.46	33	43.37	26	2.5	100	2.5	0	0	950.5	NA	0.0000	-SN BR	7000	0	0	0	2230
2019/05/10 21:04:01	BASE	38.63	33	45.17	35	2.5	100	2.5	0	0	950.3	NA	0.0000	-SN BR	5000	360	0	0	0
2019/05/10 21:05:01	BASE	39.39	33	45.17	35	2.5	100	2.5	0	0	950.5	NA	0.0000	-SN BR	2700	330	0	0	0
2019/05/10 21:06:01	BASE	38.58	34	45.17	35	2.6	100	2.6	0	0	950.4	NA	0.2540	-SN BR	2500	330	0	0	0
2019/05/10 21:07:01	BASE	38.79	34	45.17	35	2.6	100	2.6	0	0	950.3	NA	0.0000	-SN BR	2400	360	0	0	0
2019/05/10 21:08:01	BASE	38.39	35	45.17	35	2.6	100	2.6	0	0	950.4	NA	0.0000	-SN BR	1900	0	0	0	3940
2019/05/10 21:09:01	BASE	37.62	35	45.17	35	2.6	100	2.6	0	0	950.4	NA	0.0000	-SN BR	2900	0	0	0	3220
2019/05/10 21:10:01	BASE	37.20	33	45.17	35	2.6	100	2.6	0	0	950.4	NA	0.0000	-SN BR	6000	0	0	0	3450
2019/05/10 21:11:00	BASE	36.45	33	45.17	35	2.5	100	2.5	0	0	950.4	NA	0.0000	-SN BR	5000	360	0	0	0
2019/05/10 21:12:01	BASE	36.31	34	45.17	35	2.5	100	2.5	0	0	950.3	NA	0.0000	-SN BR	4200	330	0	0	0
2019/05/10 21:13:00	BASE	36.57	33	45.17	35	2.5	100	2.5	0	0	950.4	NA	0.0000	-SN BR	3700	300	0	0	0
2019/05/10 21:14:00	BASE	35.81	33	44.04	31	2.5	100	2.5	0	0	950.4	NA	0.2540	-SN BR	3000	0	0	0	2790
2019/05/10 21:15:01	BASE	35.57	34	44.04	31	2.5	100	2.5	0	0	950.4	NA	0.0000	-SN BR	1700	330	0	0	0
2019/05/10 21:16:01	BASE	36.34	32	44.04	31	2.5	100	2.5	0	0	950.3	NA	0.0000	-SN BR	1900	330	0	0	0
2019/05/10 21:17:01	BASE	34.17	33	42.44	36	2.5	100	2.5	0	0	950.6	NA	0.0000	-SN BR	4000	300	0	0	0
2019/05/10 21:18:01	BASE	31.37	35	42.44	36	2.6	100	2.6	0	0	950.6	NA	0.2540	-SN BR	2700	300	0	0	0
2019/05/10 21:19:00	BASE	29.97	35	42.44	36	2.6	100	2.6	0	0	950.6	NA	0.0000	-SN BR	2700	330	0	0	0
2019/05/10 21:20:01	BASE	30.86	36	42.44	36	2.6	100	2.6	0	0	950.5	NA	0.0000	-SN BR	4600	330	0	0	0
2019/05/10 21:21:00	BASE	32.58	35	42.44	36	2.5	100	2.5	0	0	950.5	NA	0.0000	-SN BR	4600	330	0	0	0
2019/05/10 21:22:01	BASE	32.80	32	42.44	36	2.5	100	2.5	0	0	950.3	NA	0.0000	-SN BR	4900	330	0	0	0
2019/05/10 21:23:01	BASE	33.42	30	42.44	36	2.5	100	2.5	0	0	950.2	NA	0.0000	-SN BR	4800	330	0	0	0
2019/05/10 21:24:01	BASE	32.56	30	42.44	36	2.6	100	2.6	0	0	950.3	NA	0.2540	-SN BR	3900	360	0	0	0
2019/05/10 21:25:01	BASE	34.25	32	42.24	31	2.6	100	2.6	0	0	950.2	NA	0.0000	-SN BR	4300	330	0	0	0
2019/05/10 21:26:01	BASE	36.47	33	42.03	38	2.7	100	2.7	0	0	950.2	NA	0.0000	-SN BR	4400	260	0	0	0
2019/05/10 21:27:00	BASE	33.89	29	42.03	38	2.7	100	2.7	0	0	950.4	NA	0.0000	-SN BR	3400	300	0	0	0
2019/05/10 21:28:01	BASE	32.55	28	42.03	38	2.7	100	2.7	0	0	950.5	NA	0.2540	-SN BR	2400	300	0	0	0
2019/05/10 21:29:00	BASE	32.65	30	42.03	38	2.7	100	2.7	0	0	950.6	NA	0.0000	-SN BR	2400	300	0	0	0
2019/05/10 21:30:00	BASE	31.64	30	42.03	38	2.7	100	2.7	0	0	950.7	NA	0.0000	-SN BR	3200	260	0	0	0
2019/05/10 21:31:01	BASE	29.74	28	42.03	38	2.7	100	2.7	0	0	950.8	NA	0.0000	-SN BR	3300	260	0	0	0
2019/05/10 21:32:01	BASE	30.47	29	42.03	38	2.6	100	2.6	0	0	950.6	NA	0.2540	-SN BR	3600	260	0	0	0
2019/05/10 21:33:01	BASE	33.13	29	42.03	38	2.7	100	2.7	0	0	950.6	NA	0.0000	-SN BR	3600	230	0	0	0
2019/05/10 21:34:01	BASE	33.03	28	42.03	38	2.6	100	2.6	0	0	950.5	NA	0.0000	-SN BR	3500	230	0	0	0
2019/05/10 21:35:00	BASE	33.71	27	41.41	28	2.6	100	2.6	0	0	950.4	NA	0.2540	-SN BR	3400	300	0	0	0
2019/05/10 21:36:00	BASE	36.16	26	41.41	28	2.6	100	2.6	0	0	950.4	NA	0.0000	-SN BR	4500	360	0	0	0
2019/05/10 21:37:00	BASE	37.17	25	41.41	28	2.7	100	2.7	0	0	950.3	NA	0.0000	-SN BR	7000	390	1710	0	0
2019/05/10 21:38:01	BASE	36.40	25	41.41	28	2.7	100	2.7	0	0	950.3	NA	0.0000	-SN BR	7000	460	0	0	0
2019/05/10 21:39:01	BASE	36.00	27	41.41	28	2.7	100	2.7	0	0	950.3	NA	0.0000	-SN BR	4700	390	0	0	0
2019/05/10 21:40:01	BASE	34.71	28	41.41	28	2.8	100	2.8	0	0	950.4	NA	0.0000	-SN BR	3500	360	0	0	0
2019/05/10 21:41:01	BASE	33.40	27	41.41	28	2.8	100	2.8	0	0	950.4	NA	0.0000	-SN BR	2100	330	0	0	0
2019/05/10 21:42:01	BASE	33.09	26	41.41	28	2.8	100	2.8	0	0	950.3	NA	0.2540	-SN BR	2300	330	0	0	0
2019/05/10 21:43:00	BASE	32.98	27	41.41	28	2.8	100	2.8	0	0	950.3	NA	0.0000	-SN BR	2600	390	0	0	0
2019/05/10 21:44:01	BASE	33.08	27	39.82	17	2.8	100	2.8	0	0	950.3	NA	0.0000	-SN BR	1900	360	0	0	0
2019/05/10 21:45:01	BASE	32.87	27	39.82	17	2.8	100	2.8	0	0	950.2	NA	0.0000	-SN BR	2900	330	0	0	0
2019/05/10 21:46:01	BASE	32.07	27	39.51	33	2.8	100	2.8	0	0	950.3	NA	0.0000	-SN BR	6000	360	0	0	0
2019/05/10 21:47:01	BASE	32.25	26	39.51	33	2.8	100	2.8	0	0	950.2	NA	0.0000	-SN BR	6000	330	0	0	0
2019/05/10 21:48:01	BASE	33.21	26	39.51	33	2.8	100	2.8	0	0	950.1	NA	0.0000	-SN BR	6000	360	0	0	0
2019/05/10 21:49:00	BASE	35.21	26	41.62	20	2.8	100	2.8	0	0	949.9	NA	0.2540	-SN BR	8000	390	0	0	0
2019/05/10 21:50:00	BASE	36.69	24	41.62	20	2.8	100	2.8	0	0	949.9	NA	0.0000	-SN BR	8000	430	0	0	0
2019/05/10 21:51:00	BASE	36.35	24	41.62	20	2.8	100	2.8	0	0	949.9	NA	0.0000	-SN BR	6000	0	0	0	4130
2019/05/10 21:52:01	BASE	37.33	24	41.62	20	2.8	100	2.8	0	0	949.8	NA	0.0000	-SN BR	4600	390	0	0	0
2019/05/10 21:53:00	BASE	37.35	23	41.62	20	2.8	100	2.8	0	0	949.8	NA	0.0000	-SN BR	4800	0	0	0	3770
2019/05/10 21:54:01	BASE	36.88	23	41.62	20	2.8	100	2.8	0	0	949.7	NA	0.0000	-SN BR	4400	0	0	0	4040
2019/05/10 21:55:01	BASE	36.52	23	41.62	20	2.8	100	2.8	0	0	949.8	NA	0.0000	-SN BR	4700	820	0	0	0
2019/05/10 21:56:01	BASE	36.98	22	41.62	20	2.8	100	2.8	0	0	949.6	NA	0.0000	-SN BR	7000	0	0	0	3670
2019/05/10 21:57:00	BASE	38.72	22	42.60	27	2.8	100	2.8	0	0	949.6	NA	0.0000	-SN BR	7000	750	0	0	0
2019/05/10 21:58:01	BASE	38.24	22	42.60	27	2.8	100	2.8	0	0	949.7	NA	0.0000	-SN BR	4800	390	0	0	0
2019/05/10 21:59:00	BASE	36.59	21	42.60	27	2.7	100	2.7	0	0	949.7	NA	0.0000	-SN BR	3700	390	0	0	0
2019/05/10 22:00:01	BASE	35.37	22	42.60	27	2.7	100	2.7	0	0	949.9	NA	0.2540	-SN BR	3600	330	0	0	0
2019/05/10 22:01:01	BASE	33.46	25	42.60	27	2.7	100	2.7	0	0	950.0	NA	0.0000	-SN BR	3200	300	0	0	0
2019/05/10 22:02:01	BASE	31.76	26	42.60	27	2.6	100	2.6	0	0	950.0	NA	0.0000	-SN BR	3000	360	0	0	0
2019/05/10 22:03:00	BASE	31.36	27	42.60	27	2.6	100	2.6	0	0	950.0	NA	0.2540	-SN BR	2800	330	0	0	0
2019/05/10 22:04:01	BASE	30.47	28	42.60	27	2.5	100	2.5	0	0	950.1	NA	0.0000	-SN BR	2600	330	0	0	0
2019/05/10 22:05:01	BASE	29.53	29	42.60	27	2.5	100	2.5	0	0	950.1	NA	0.0000	-SN BR	2800	360	0	0	0
2019/05/10 22:06:01	BASE	29.49	27	42.60	27	2.5	100	2.5	0	0	950.0	NA	0.0000	-SN BR	2700	330	0	0	0
2019/05/10 22:07:00	BASE	27.74	24	40.18	16	2.5	100	2.5	0	0	950.1	NA	0.2540	-SN BR	2800	360	0	0	0
2019/05/10 22:08:00	BASE	26.84	24	40.18	16	2.6	100	2.6	0	0	950.1	NA	0.0000	-SN BR	3200	330	0	0	0
2019/05/10 22:09:01	BASE	27.32	25	37.40	24	2.6	100	2.6	0	0	950.1	NA	0.0000	-SN BR	2800	300	0	0	0
2019/05/10 22:10:00	BASE	27.31	26	37.40	24	2.6	100	2.6	0	0	950.1	NA	0.2540	-SN BR	2800	260	0	0	0
2019/05/10 22:11:00	BASE	29.47	27	34.98	13	2.6	100	2.6	0	0	950.0	NA	0.0000	-SN BR	2600	230	0	0	0
2019/05/10 22:12:01	BASE	30.75	25	34.98	13	2.6	100	2.6	0	0	950.1	NA	0.0000	-SN BR	2200	230	0	0	0
2019/05/10 22:13:00	BASE	30.49	25	34.42	27	2.6	100	2.6	0	0	950.0	NA	0.2540	-SN BR	2300	260	0	0	0
2019/05/10 22:14:01	BASE	30.02	27	33.64	20	2.5	100	2.5	0	0	950.1	NA	0.0000	-SN BR	2300	230	0	0	0
2019/05/10 22:15:00	BASE	29.01	30	33.64	20	2.5	100	2.5	0	0	950.1	NA	0.2540	-SN BR	2200	260	0	0	0
2019/05/10 22:16:01	BASE	27.62	32	33.64	20	2.5	100	2.5	0	0	950.2	NA	0.0000	-SN BR	2200	260	0	0	0
2019/05/10 22:17:00	BASE	26.88	32	33.64	20	2.4	100	2.4	0	0	950.1	NA	0.2540	-SN BR	2100	260	0	0	0
2019/05/10 22:18:01	BASE	26.61	34	33.64	20	2.4	100	2.4	0	0	950.1	NA	0.0000	-SN BR	2100	300	0	0	0
2019/05/10 22:19:00	BASE	25.31	35	33.64	20	2.4	100	2.4	0	0	950.1	NA	0.0000	-SN BR	2500	360	0	0	0
2019/05/10 22:20:00	BASE	24.17	31	33.64	20	2.3	100	2.3	0	0	950.1	NA	0.0000	-SN BR	3300	360	0	0	0
2019/05/10 22:21:00	BASE	24.85	29	33.08	29	2.3	100	2.3	0	0	950.0	NA	0.2540	-SN BR	3700	360	0	0	0
2019/05/10 22:22:00	BASE	26.41	30	33.08	29	2.4	100	2.4	0	0	950.0	NA	0.0000	-SN BR	3600	360	0	0	0
2019/05/10 22:23:00	BASE	26.97	28	32.46	25	2.4	100	2.4	0	0	949.9	NA	0.0000	-SN BR	3300	360	0	0	0
2019/05/10 22:24:01	BASE	27.41	25	32.46	25	2.4	100	2.4	0	0	949.8	NA	0.0000	-SN BR	3200	390	0	0	0
2019/05/10 22:25:01	BASE	27.44	22	30.97	24	2.5	100	2.5	0	0	949.8	NA	0.0000	-SN BR	3500	360	0	0	0
2019/05/10 22:26:00	BASE	27.92	23	32.77	27	2.5	100	2.5	0	0	949.7	NA	0.0000	-SN BR	4000	360	0	0	0
2019/05/10 22:27:00	BASE	28.35	24	32.77	27	2.5	100	2.5	0	0	949.6	NA	0.2540	-SN BR	3800	0	0	0	2100
2019/05/10 22:28:00	BASE	27.28	22	32.77	27	2.5	100	2.5	0	0	949.6	NA	0.0000	-SN BR	4300	750	0	0	0
2019/05/10 22:29:00	BASE	27.15	22	32.77	27	2.5	100	2.5	0	0	949.5	NA	0.0000	-SN BR	5000	1310	0	0	0
2019/05/10 22:30:01	BASE	28.13	24	32.77	28	2.4	100	2.4	0	0	949.5	NA	0.0000	-SN BR	5000	0	0	0	2360
2019/05/10 22:31:00	BASE	29.02	24	32.77	28	2.4	100	2.4	0	0	949.4	NA	0.0000	-SN BR	6000	690	0	0	0
2019/05/10 22:32:01	BASE	29.16	23	32.77	28	2.4	100	2.4	0	0	949.4	NA	0.0000	-SN BR	4400	430	0	0	0
2019/05/10 22:33:00	BASE	28.87	23	32.77	28	2.4	100	2.4	0	0	949.4	NA	0.0000	-SN BR	3200	390	0	0	0
2019/05/10 22:34:00	BASE	28.84	23	32.77	28	2.5	100	2.5	0	0	949.4	NA	0.2540	-SN BR	2300	390	0	0	0
2019/05/10 22:35:00	BASE	27.75	23	32.77	28	2.5	100	2.5	0	0	949.4	NA	0.0000	-SN BR	2400	360	0	0	0
2019/05/10 22:36:00	BASE	26.07	26	32.77	28	2.4	100	2.4	0	0	949.4	NA	0.0000	-SN BR	3200	360	0	0	0
2019/05/10 22:37:00	BASE	25.83	28	32.77	28	2.4	100	2.4	0	0	949.3	NA	0.0000	-SN BR	3200	330	0	0	0
2019/05/10 22:38:00	BASE	25.96	27	32.77	28	2.4	100	2.4	0	0	949.3	NA	0.0000	-SN BR	3500	360	0	0	0
2019/05/10 22:39:01	BASE	25.72	26	32.77	28	2.4	100	2.4	0	0	949.2	NA	0.0000	-SN BR	3700	390	0	0	0
2019/05/10 22:40:00	BASE	25.72	25	32.36	26	2.4	100	2.4	0	0	949.2	NA	0.0000	-SN BR	4300	360	0	0	0
2019/05/10 22:41:00	BASE	26.05	25	32.36	26	2.4	100	2.4	0	0	949.1	NA	0.2540	-SN BR	4300	390	0	0	0
2019/05/10 22:42:01	BASE	26.81	26	32.36	26	2.4	100	2.4	0	0	949.0	NA	0.0000	-SN BR	3700	750	0	0	0
2019/05/10 22:43:00	BASE	27.85	25	32.00	23	2.4	100	2.4	0	0	948.9	NA	0.0000	-SN BR	3800	560	0	0	0
2019/05/10 22:44:00	BASE	28.90	24	32.56	25	2.4	100	2.4	0	0	948.8	NA	0.0000	-SN BR	4500	0	0	0	4430
2019/05/10 22:45:00	BASE	30.08	24	35.14	29	2.4	100	2.4	0	0	948.7	NA	0.0000	-SN BR	5000	0	0	0	3900
2019/05/10 22:46:00	BASE	31.72	23	35.14	29	2.4	100	2.4	0	0	948.6	NA	0.0000	-SN BR	3900	390	0	0	0
2019/05/10 22:47:00	BASE	31.60	23	35.14	29	2.5	100	2.5	0	0	948.7	NA	0.0000	-SN BR	4200	920	0	0	0
2019/05/10 22:48:01	BASE	31.15	23	35.14	29	2.5	100	2.5	0	0	948.6	NA	0.0000	-SN BR	6000	660	0	0	0
2019/05/10 22:49:00	BASE	31.62	23	35.14	29	2.5	100	2.5	0	0	948.7	NA	0.0000	-SN BR	4800	790	0	0	0
2019/05/10 22:50:00	BASE	31.22	23	35.14	29	2.5	100	2.5	0	0	948.7	NA	0.0000	-SN BR	3600	330	0	0	0
2019/05/10 22:51:00	BASE	29.90	23	35.14	29	2.5	100	2.5	0	0	948.7	NA	0.2540	-SN BR	3700	0	0	0	3410
2019/05/10 22:52:00	BASE	29.15	22	35.14	29	2.5	100	2.5	0	0	948.7	NA	0.0000	-SN BR	4300	460	0	0	0
2019/05/10 22:53:00	BASE	29.84	23	35.14	29	2.5	100	2.5	0	0	948.6	NA	0.0000	-SN BR	5000	0	0	0	4890
2019/05/10 22:54:01	BASE	30.87	23	35.14	29	2.5	100	2.5	0	0	948.5	NA	0.0000	-SN BR	6000	0	0	0	4720
2019/05/10 22:55:00	BASE	31.07	22	34.83	12	2.5	100	2.5	0	0	948.6	NA	0.0000	-SN BR	6000	430	0	0	0
2019/05/10 22:56:01	BASE	29.10	22	34.83	12	2.6	100	2.6	0	0	948.7	NA	0.0000	-SN BR	9000	1640	0	0	0
2019/05/10 22:57:00	BASE	29.37	20	34.83	12	2.6	100	2.6	0	0	948.5	NA	0.0000	-SN BR	8000	1510	0	0	0
2019/05/10 22:58:01	BASE	30.94	21	34.83	12	2.6	100	2.6	0	0	948.5	NA	0.0000	-SN BR	9000	1610	0	0	0
2019/05/10 22:59:00	BASE	31.03	23	34.83	24	2.6	100	2.6	0	0	948.4	NA	0.0000	-SN BR	9999	1900	6270	0	0
2019/05/10 23:00:01	BASE	32.10	23	34.83	24	2.7	100	2.7	0	0	948.4	NA	0.0000	-SN BR	9999	390	5320	0	0
2019/05/10 23:01:00	BASE	31.29	21	34.83	24	2.7	100	2.7	0	0	948.5	NA	0.0000	-SN BR	9999	390	2300	0	0
2019/05/10 23:02:01	BASE	31.24	20	34.93	17	2.7	100	2.7	0	0	948.3	NA	0.0000	-SN BR	9999	430	0	0	0
2019/05/10 23:03:00	BASE	31.59	20	34.93	17	2.7	100	2.7	0	0	948.4	NA	0.0000	-SN BR	7000	360	0	0	0
2019/05/10 23:04:00	BASE	29.51	21	34.93	17	2.7	100	2.7	0	0	948.6	NA	0.0000	-SN BR	6000	360	0	0	0
2019/05/10 23:05:01	BASE	29.16	22	34.93	17	2.6	100	2.6	0	0	948.5	NA	0.0000	-SN	9999	430	0	0	0
2019/05/10 23:06:00	BASE	30.85	22	36.53	23	2.6	100	2.6	0	0	948.4	NA	0.0000	-SN	9999	390	0	0	0
2019/05/10 23:07:00	BASE	31.69	23	36.53	23	2.6	100	2.6	0	0	948.4	NA	0.0000	-SN	9999	390	0	0	0
2019/05/10 23:08:00	BASE	31.60	24	36.53	23	2.6	100	2.6	0	0	948.4	NA	0.0000	-SN	9999	360	0	0	0
2019/05/10 23:09:00	BASE	30.38	22	36.53	23	2.6	100	2.6	0	0	948.4	NA	0.0000	-SN	9999	360	0	0	0
2019/05/10 23:10:01	BASE	29.72	23	36.53	23	2.5	100	2.5	0	0	948.4	NA	0.0000	-SN	9999	390	1180	0	0
2019/05/10 23:11:00	BASE	30.00	25	36.53	23	2.5	100	2.5	0	0	948.3	NA	0.0000	-SN	9999	390	1410	0	0
2019/05/10 23:12:00	BASE	30.27	25	36.53	23	2.5	100	2.5	0	0	948.3	NA	0.0000	-SN BR	6000	300	0	0	0
2019/05/10 23:13:00	BASE	31.23	24	36.53	23	2.5	100	2.5	0	0	948.2	NA	0.0000	-SN BR	5000	300	0	0	0
2019/05/10 23:14:01	BASE	30.90	22	36.53	23	2.5	100	2.5	0	0	948.2	NA	0.0000	-SN BR	7000	1540	4400	0	0
2019/05/10 23:15:01	BASE	30.81	23	36.53	23	2.5	100	2.5	0	0	948.2	NA	0.0000	-SN BR	9999	1610	5770	0	0
2019/05/10 23:16:00	BASE	30.51	24	34.57	23	2.5	100	2.5	0	0	948.2	NA	0.0000	-SN BR	9999	430	1740	0	0
2019/05/10 23:17:00	BASE	27.84	25	34.57	23	2.5	100	2.5	0	0	948.4	NA	0.0000	-SN BR	9999	430	1840	0	0
2019/05/10 23:18:00	BASE	28.41	25	35.70	24	2.5	100	2.5	0	0	948.1	NA	0.0000	-SN BR	9999	390	0	0	0
2019/05/10 23:19:00	BASE	31.06	24	35.70	24	2.5	100	2.5	0	0	948.1	NA	0.0000	-SN	9999	330	5410	0	0
2019/05/10 23:20:01	BASE	31.05	23	35.70	24	2.5	100	2.5	0	0	948.1	NA	0.0000	-SN	9999	1080	4230	0	0
2019/05/10 23:21:00	BASE	31.29	24	35.70	24	2.5	100	2.5	0	0	948.0	NA	0.0000	-SN	9999	390	4430	0	0
2019/05/10 23:22:00	BASE	31.61	24	36.11	28	2.5	100	2.5	0	0	948.0	NA	0.0000	-SN	9999	5090	0	0	0
2019/05/10 23:23:00	BASE	32.83	22	37.19	26	2.5	100	2.5	0	0	947.9	NA	0.0000	-SN	9999	5180	0	0	0
2019/05/10 23:24:00	BASE	33.94	24	37.19	26	2.5	100	2.5	0	0	947.8	NA	0.0000		9999	430	4890	0	0
2019/05/10 23:25:00	BASE	34.57	26	38.99	19	2.5	100	2.5	0	0	947.7	NA	0.0000		9999	460	0	0	0
2019/05/10 23:26:00	BASE	35.31	24	39.35	26	2.5	100	2.5	0	0	947.7	NA	0.0000		9999	620	0	0	0
2019/05/10 23:27:00	BASE	33.82	23	39.35	26	2.5	100	2.5	0	0	947.8	NA	0.0000		9999	4860	0	0	0
2019/05/10 23:28:00	BASE	33.69	24	39.35	26	2.5	100	2.5	0	0	947.8	NA	0.0000		9999	4130	0	0	0
2019/05/10 23:29:01	BASE	33.85	25	39.35	26	2.6	100	2.6	0	0	947.8	NA	0.0000		9999	4100	0	0	0
2019/05/10 23:30:00	BASE	32.19	25	39.35	26	2.6	100	2.6	0	0	947.8	NA	0.0000		9999	1440	4720	0	0
2019/05/10 23:31:00	BASE	31.84	25	39.35	26	2.6	100	2.6	0	0	947.8	NA	0.0000		9999	4070	0	0	0
2019/05/10 23:32:00	BASE	32.46	25	39.35	26	2.6	100	2.6	0	0	947.8	NA	0.0000		9999	1350	0	0	0
2019/05/10 23:33:00	BASE	32.13	24	39.35	26	2.6	100	2.6	0	0	947.8	NA	0.0000		9999	3770	0	0	0
2019/05/10 23:34:00	BASE	31.71	22	39.35	26	2.6	100	2.6	0	0	947.8	NA	0.0000		9999	1250	4590	0	0
2019/05/10 23:35:00	BASE	30.46	22	39.35	26	2.6	100	2.6	0	0	947.9	NA	0.0000		9999	4100	5250	0	0
2019/05/10 23:36:00	BASE	29.61	23	37.09	24	2.6	100	2.6	0	0	947.8	NA	0.0000		9999	5090	0	0	0
2019/05/10 23:37:00	BASE	31.36	24	37.09	24	2.6	100	2.6	0	0	947.7	NA	0.0000		9999	4100	0	0	0
2019/05/10 23:38:00	BASE	32.81	24	36.63	23	2.6	100	2.6	0	0	947.7	NA	0.0000		9999	390	0	0	0
2019/05/10 23:39:00	BASE	32.18	23	36.63	23	2.6	100	2.6	0	0	947.7	NA	0.0000	-SN	9999	390	0	0	0
2019/05/10 23:40:01	BASE	31.06	23	36.63	23	2.6	100	2.6	0	0	947.7	NA	0.0000	-SN	9999	360	0	0	0
2019/05/10 23:41:00	BASE	31.07	21	36.63	23	2.6	100	2.6	0	0	947.6	NA	0.0000	-SN	9999	360	0	0	0
2019/05/10 23:42:00	BASE	32.28	19	36.63	23	2.5	100	2.5	0	0	947.6	NA	0.2540	-SN	9999	1080	0	0	0
2019/05/10 23:43:00	BASE	33.65	21	36.73	23	2.5	100	2.5	0	0	947.5	NA	0.0000	-SN	9999	1350	0	0	0
2019/05/10 23:44:00	BASE	34.36	23	36.73	23	2.5	100	2.5	0	0	947.4	NA	0.0000	-SN	8000	0	0	0	5380
2019/05/10 23:45:00	BASE	32.88	24	36.73	23	2.5	100	2.5	0	0	947.5	NA	0.0000	-SN	5000	0	0	0	4040
2019/05/10 23:46:00	BASE	30.50	24	36.73	23	2.5	100	2.5	0	0	947.5	NA	0.0000	-SN BR	5000	390	0	0	0
2019/05/10 23:47:00	BASE	31.54	23	36.73	23	2.6	100	2.6	0	0	947.3	NA	0.0000	-SN BR	9999	360	0	0	0
2019/05/10 23:48:00	BASE	33.11	21	36.73	23	2.6	100	2.6	0	0	947.2	NA	0.0000	-SN BR	9999	390	0	0	0
2019/05/10 23:49:01	BASE	32.67	21	36.73	23	2.6	100	2.6	0	0	947.2	NA	0.0000	-SN BR	9999	390	0	0	0
2019/05/10 23:50:00	BASE	31.62	22	36.73	23	2.6	100	2.6	0	0	947.3	NA	0.0000	-SN BR	9999	390	0	0	0
2019/05/10 23:51:00	BASE	30.28	23	36.73	23	2.6	100	2.6	0	0	947.3	NA	0.0000	-SN BR	9000	360	0	0	0
2019/05/10 23:52:00	BASE	30.70	24	36.73	23	2.6	100	2.6	0	0	947.2	NA	0.0000	-SN BR	9000	0	0	0	4460
2019/05/10 23:53:00	BASE	31.54	22	36.63	23	2.6	100	2.6	0	0	947.2	NA	0.0000	-SN BR	9000	390	0	0	0
2019/05/10 23:54:00	BASE	29.72	19	36.47	25	2.6	100	2.6	0	0	947.3	NA	0.0000	-SN BR	9999	0	0	0	5810
2019/05/10 23:55:00	BASE	28.80	18	36.47	25	2.6	100	2.6	0	0	947.3	NA	0.0000	-SN BR	9999	0	0	0	4590
2019/05/10 23:56:00	BASE	31.02	19	36.47	25	2.6	100	2.6	0	0	947.2	NA	0.0000	-SN BR	7000	390	0	0	0
2019/05/10 23:57:00	BASE	31.15	19	35.50	18	2.6	100	2.6	0	0	947.3	NA	0.0000	-SN BR	5000	360	0	0	0
2019/05/10 23:58:00	BASE	29.84	19	35.50	18	2.6	100	2.6	0	0	947.3	NA	0.0000	-SN BR	4900	360	0	0	0
2019/05/10 23:59:00	BASE	30.57	19	35.50	18	2.6	100	2.6	0	0	947.2	NA	0.0000	-SN BR	4200	330	0	0	0